Darstellungsparameter: Aktuell verwendete Einstellungen:
Skalierung der Graphiken ... ?
xyx+y,   Skalierungsfaktor:      Skalierung: Modus: x, Faktor: 1
Darstellungszeitraum ... ?
Vom - - bis: - -   Zeitraum: 05.08.2009 - 04.09.2009
Min/Max/Avg-Anzeige ... ?
Zeige MMA aktuell
Zeige MMA Monat
Zeige MMA alles
Zeige --A aktuell
Zeige --A Monat
Zeige --A alles
Keine MMA-Anzeige
MMA:
Keine MMA-Graphiken
MMA-Basis: 05.08.2009 - 04.09.2009
Quicknavigation für Darstellung... ?
Tage:      1T, 2T, 3T, 5T -1T -2T -3T -5T +1T +2T +3T +5T
Wochen: 1W, 2W, 3W -1W -2W -3W +1W +2W +3W
Monate: 1M, 3M, 6M -1M -3M -6M +1M +3M +6M
Jahre:    1J, 3J, 5J, 10J -1J -3J -5J -10J +1J +3J +5J +10J
Nutze für die Darstellung ... ?
Originaldaten oder Mittelwerte auf ...
Stundenbasis Tagesbasis Wochenbasis
Monatsbasis Jahresbasis      Datenbasis: Original-Daten
Darstellen als:
Statistik (Auto) Statistik J:M      Darstellung:
Zur Graphik,    zurück zur Übersicht aller Sensoren.
 
Tabellarische Datenbersicht: ?
 
Sensor: Nr:Datum:Temp:Feuchte:Taupunkt:
Aussen-T/F 1 05-08-2009 00:07:34 17.8 C 42 % 4.73 C
2 05-08-2009 00:19:34 17.5 C 42 % 4.46 C
3 05-08-2009 00:31:34 17.2 C 43 % 4.53 C
4 05-08-2009 00:43:34 17.1 C 44 % 4.76 C
5 05-08-2009 00:55:34 16.8 C 47 % 5.44 C
6 05-08-2009 01:07:34 16.6 C 47 % 5.25 C
7 05-08-2009 01:19:34 16.3 C 48 % 5.28 C
8 05-08-2009 01:31:34 16.1 C 49 % 5.39 C
9 05-08-2009 01:43:34 15.8 C 50 % 5.41 C
10 05-08-2009 01:55:34 15.6 C 51 % 5.51 C
11 05-08-2009 02:07:34 15.4 C 52 % 5.61 C
12 05-08-2009 02:19:35 15.2 C 52 % 5.42 C
13 05-08-2009 02:31:35 15 C 52 % 5.24 C
14 05-08-2009 02:43:35 14.9 C 54 % 5.69 C
15 05-08-2009 02:55:35 14.7 C 55 % 5.76 C
16 05-08-2009 03:07:35 14.6 C 56 % 5.93 C
17 05-08-2009 03:19:35 14.4 C 57 % 6 C
18 05-08-2009 03:31:35 14.1 C 57 % 5.72 C
19 05-08-2009 03:43:35 13.9 C 61 % 6.51 C
20 05-08-2009 03:55:35 13.7 C 61 % 6.32 C
21 05-08-2009 04:07:35 13.5 C 61 % 6.14 C
22 05-08-2009 04:19:35 13.3 C 63 % 6.41 C
23 05-08-2009 04:31:35 13.2 C 63 % 6.32 C
24 05-08-2009 04:43:35 13.1 C 63 % 6.22 C
25 05-08-2009 04:55:35 12.9 C 64 % 6.26 C
Sensor: Nr:Datum:Temp:Feuchte:Taupunkt:
Aussen-T/F 26 05-08-2009 05:07:35 12.8 C 66 % 6.61 C
27 05-08-2009 05:19:35 12.6 C 67 % 6.64 C
28 05-08-2009 05:31:35 12.6 C 67 % 6.64 C
29 05-08-2009 05:43:35 12.4 C 67 % 6.45 C
30 05-08-2009 05:55:35 12.3 C 68 % 6.57 C
31 05-08-2009 06:07:35 12.1 C 69 % 6.59 C
32 05-08-2009 06:19:36 12.2 C 69 % 6.69 C
33 05-08-2009 06:31:36 12.1 C 69 % 6.59 C
34 05-08-2009 06:43:36 12 C 70 % 6.71 C
35 05-08-2009 06:55:36 12.1 C 71 % 7.01 C
36 05-08-2009 07:07:33 12.1 C 71 % 7.01 C
37 05-08-2009 07:19:33 12.3 C 72 % 7.4 C
38 05-08-2009 07:31:33 12.2 C 72 % 7.31 C
39 05-08-2009 07:43:33 12.4 C 73 % 7.7 C
40 05-08-2009 07:55:33 12.6 C 72 % 7.69 C
41 05-08-2009 08:07:32 12.8 C 72 % 7.88 C
42 05-08-2009 08:19:32 13 C 71 % 7.87 C
43 05-08-2009 08:31:33 13.4 C 70 % 8.05 C
44 05-08-2009 08:43:33 13.7 C 69 % 8.12 C
45 05-08-2009 08:55:32 14 C 67 % 7.98 C
46 05-08-2009 09:07:33 14.5 C 66 % 8.23 C
47 05-08-2009 09:19:32 15.1 C 64 % 8.35 C
48 05-08-2009 09:31:32 15.9 C 63 % 8.87 C
49 05-08-2009 09:43:32 16.5 C 60 % 8.72 C
50 05-08-2009 09:55:31 17.2 C 57 % 8.62 C
Sensor: Nr:Datum:Temp:Feuchte:Taupunkt:
Aussen-T/F 51 05-08-2009 10:07:32 17.8 C 56 % 8.91 C
52 05-08-2009 10:19:31 18.6 C 53 % 8.84 C
53 05-08-2009 10:31:31 19.4 C 52 % 9.3 C
54 05-08-2009 10:43:31 20.2 C 48 % 8.85 C
55 05-08-2009 10:55:31 21.1 C 46 % 9.04 C
56 05-08-2009 11:07:31 22.1 C 44 % 9.29 C
57 05-08-2009 11:19:31 22.8 C 41 % 8.87 C
58 05-08-2009 11:31:30 23.1 C 43 % 9.85 C
59 05-08-2009 11:43:30 23.7 C 40 % 9.31 C
60 05-08-2009 11:55:31 24.5 C 35 % 8.05 C
61 05-08-2009 12:07:30 25.2 C 30 % 6.41 C
62 05-08-2009 12:19:30 25.8 C 25 % 4.3 C
63 05-08-2009 12:31:31 26.3 C 22 % 2.91 C
64 05-08-2009 12:43:31 27 C 24 % 4.72 C
65 05-08-2009 12:55:30 27.4 C 25 % 5.65 C
66 05-08-2009 13:07:30 28.3 C 24 % 5.81 C
67 05-08-2009 13:19:30 28.7 C 21 % 4.23 C
68 05-08-2009 13:31:30 29.7 C 20 % 4.36 C
69 05-08-2009 13:43:30 29.8 C 20 % 4.44 C
70 05-08-2009 13:55:29 29.6 C 20 % 4.28 C
71 05-08-2009 14:07:30 29.8 C 20 % 4.44 C
72 05-08-2009 14:19:29 29.9 C 20 % 4.52 C
73 05-08-2009 14:31:29 30.1 C 20 % 4.69 C
74 05-08-2009 14:43:29 30.6 C 20 % 5.1 C
75 05-08-2009 14:55:29 30.9 C 20 % 5.34 C
Sensor: Nr:Datum:Temp:Feuchte:Taupunkt:
Aussen-T/F 76 05-08-2009 15:07:29 31.4 C 20 % 5.75 C
77 05-08-2009 15:19:29 31.6 C 20 % 5.91 C
78 05-08-2009 15:31:28 31.4 C 20 % 5.75 C
79 05-08-2009 15:43:28 31.4 C 20 % 5.75 C
80 05-08-2009 15:55:29 31.9 C 20 % 6.16 C
81 05-08-2009 16:07:28 31.8 C 20 % 6.08 C
82 05-08-2009 16:19:28 32 C 20 % 6.24 C
83 05-08-2009 16:31:28 32.1 C 20 % 6.32 C
84 05-08-2009 16:43:28 32.4 C 20 % 6.57 C
85 05-08-2009 16:55:28 32.3 C 20 % 6.49 C
86 05-08-2009 17:07:27 32.6 C 20 % 6.73 C
87 05-08-2009 17:19:28 32.6 C 20 % 6.73 C
88 05-08-2009 17:31:27 32.8 C 20 % 6.9 C
89 05-08-2009 17:43:27 32.9 C 20 % 6.98 C
90 05-08-2009 17:55:27 33.1 C 20 % 7.14 C
91 05-08-2009 18:07:27 33.3 C 20 % 7.3 C
92 05-08-2009 18:19:27 33 C 20 % 7.06 C
93 05-08-2009 18:31:27 32.7 C 20 % 6.81 C
94 05-08-2009 18:43:27 32.6 C 20 % 6.73 C
95 05-08-2009 18:55:27 31.9 C 20 % 6.16 C
96 05-08-2009 19:07:27 31.6 C 20 % 5.91 C
97 05-08-2009 19:19:26 31.6 C 20 % 5.91 C
98 05-08-2009 19:31:26 31 C 21 % 6.13 C
99 05-08-2009 19:43:27 30.6 C 22 % 6.47 C
100 05-08-2009 19:55:26 30.6 C 23 % 7.12 C
Sensor: Nr:Datum:Temp:Feuchte:Taupunkt:
Aussen-T/F 101 05-08-2009 20:07:26 30.6 C 22 % 6.47 C
102 05-08-2009 20:19:25 30.1 C 24 % 7.32 C
103 05-08-2009 20:31:26 29 C 26 % 7.57 C
104 05-08-2009 20:43:26 27.7 C 28 % 7.55 C
105 05-08-2009 20:55:25 26.8 C 30 % 7.78 C
106 05-08-2009 21:07:26 25.8 C 31 % 7.4 C
107 05-08-2009 21:19:25 24.9 C 33 % 7.53 C
108 05-08-2009 21:31:25 24.3 C 34 % 7.45 C
109 05-08-2009 21:43:26 24.1 C 35 % 7.69 C
110 05-08-2009 21:55:25 23.9 C 36 % 7.93 C
111 05-08-2009 22:08:25 23.5 C 38 % 8.37 C
112 05-08-2009 22:20:25 23.3 C 39 % 8.58 C
113 05-08-2009 22:32:25 23.1 C 39 % 8.4 C
114 05-08-2009 22:44:25 22.8 C 40 % 8.5 C
115 05-08-2009 22:56:25 22.6 C 41 % 8.69 C
116 05-08-2009 23:08:25 22 C 42 % 8.51 C
117 05-08-2009 23:20:25 21.7 C 43 % 8.58 C
118 05-08-2009 23:32:26 21.6 C 43 % 8.49 C
119 05-08-2009 23:44:26 21.3 C 44 % 8.56 C
120 05-08-2009 23:56:26 21 C 45 % 8.62 C
121 06-08-2009 00:08:26 20.8 C 47 % 9.08 C
122 06-08-2009 00:20:26 20.3 C 48 % 8.94 C
123 06-08-2009 00:32:26 19.9 C 51 % 9.47 C
124 06-08-2009 00:44:26 19.7 C 52 % 9.58 C
125 06-08-2009 00:56:26 19.5 C 52 % 9.39 C
Sensor: Nr:Datum:Temp:Feuchte:Taupunkt:
Aussen-T/F 126 06-08-2009 01:08:26 19.3 C 52 % 9.21 C
127 06-08-2009 01:20:26 19.1 C 52 % 9.02 C
128 06-08-2009 01:32:26 18.9 C 54 % 9.4 C
129 06-08-2009 01:44:26 18.8 C 55 % 9.58 C
130 06-08-2009 01:56:26 18.5 C 56 % 9.57 C
131 06-08-2009 02:08:26 18.5 C 57 % 9.83 C
132 06-08-2009 02:20:26 18.2 C 57 % 9.55 C
133 06-08-2009 02:32:26 17.9 C 58 % 9.53 C
134 06-08-2009 02:44:26 17.7 C 59 % 9.59 C
135 06-08-2009 02:56:26 17.6 C 60 % 9.75 C
136 06-08-2009 03:08:26 17.4 C 61 % 9.81 C
137 06-08-2009 03:20:27 17.2 C 61 % 9.62 C
138 06-08-2009 03:32:27 16.9 C 63 % 9.82 C
139 06-08-2009 03:44:27 16.8 C 63 % 9.72 C
140 06-08-2009 03:56:27 16.6 C 64 % 9.77 C
141 06-08-2009 04:08:27 16.4 C 64 % 9.58 C
142 06-08-2009 04:20:27 16.3 C 65 % 9.71 C
143 06-08-2009 04:32:27 16.1 C 65 % 9.53 C
144 06-08-2009 04:44:27 16 C 67 % 9.88 C
145 06-08-2009 04:56:27 15.8 C 69 % 10.13 C
146 06-08-2009 05:08:27 15.7 C 69 % 10.03 C
147 06-08-2009 05:20:27 15.5 C 71 % 10.27 C
148 06-08-2009 05:32:27 15.3 C 71 % 10.08 C
149 06-08-2009 05:44:27 15.2 C 71 % 9.98 C
150 06-08-2009 05:56:27 15.1 C 71 % 9.89 C
Sensor: Nr:Datum:Temp:Feuchte:Taupunkt:
Aussen-T/F 151 06-08-2009 06:08:27 15 C 72 % 10 C
152 06-08-2009 06:20:27 14.9 C 73 % 10.11 C
153 06-08-2009 06:32:27 14.8 C 74 % 10.22 C
154 06-08-2009 06:44:27 14.8 C 74 % 10.22 C
155 06-08-2009 06:56:27 14.8 C 74 % 10.22 C
156 06-08-2009 07:08:25 15 C 74 % 10.41 C
157 06-08-2009 07:20:25 15.1 C 74 % 10.5 C
158 06-08-2009 07:32:26 15.2 C 74 % 10.6 C
159 06-08-2009 07:44:25 15.4 C 73 % 10.59 C
160 06-08-2009 07:56:25 15.6 C 73 % 10.78 C
161 06-08-2009 08:08:25 15.7 C 72 % 10.67 C
162 06-08-2009 08:20:25 16 C 71 % 10.75 C
163 06-08-2009 08:32:25 16.2 C 70 % 10.73 C
164 06-08-2009 08:44:24 16.6 C 70 % 11.11 C
165 06-08-2009 08:56:24 17 C 69 % 11.28 C
166 06-08-2009 09:08:24 17.5 C 67 % 11.31 C
167 06-08-2009 09:20:24 18.2 C 65 % 11.52 C
168 06-08-2009 09:32:25 19 C 62 % 11.56 C
169 06-08-2009 09:44:24 19.6 C 59 % 11.37 C
170 06-08-2009 09:56:24 20.3 C 56 % 11.24 C
171 06-08-2009 10:08:24 21.4 C 50 % 10.55 C
172 06-08-2009 10:20:24 22.3 C 46 % 10.13 C
173 06-08-2009 10:32:24 22.9 C 44 % 10.01 C
174 06-08-2009 10:44:23 23.4 C 42 % 9.77 C
175 06-08-2009 10:56:23 23.9 C 42 % 10.21 C
Sensor: Nr:Datum:Temp:Feuchte:Taupunkt:
Aussen-T/F 176 06-08-2009 11:08:24 24.5 C 38 % 9.26 C
177 06-08-2009 11:20:23 25.1 C 37 % 9.39 C
178 06-08-2009 11:32:23 25.4 C 36 % 9.25 C
179 06-08-2009 11:44:22 25.9 C 36 % 9.69 C
180 06-08-2009 11:56:22 26.6 C 35 % 9.89 C
181 06-08-2009 12:08:23 27.3 C 33 % 9.62 C
182 06-08-2009 12:20:23 27.8 C 30 % 8.64 C
183 06-08-2009 12:32:22 28.4 C 29 % 8.66 C
184 06-08-2009 12:44:23 28.6 C 28 % 8.31 C
185 06-08-2009 12:56:23 29.4 C 28 % 9 C
186 06-08-2009 13:08:22 29.6 C 26 % 8.07 C
187 06-08-2009 13:20:22 30.8 C 24 % 7.91 C
188 06-08-2009 13:32:21 31.3 C 23 % 7.7 C
189 06-08-2009 13:44:22 31.4 C 21 % 6.46 C
190 06-08-2009 13:56:22 31.7 C 20 % 6 C
191 06-08-2009 14:08:22 31.4 C 20 % 5.75 C
192 06-08-2009 14:20:21 31.2 C 20 % 5.59 C
193 06-08-2009 14:32:22 31.2 C 20 % 5.59 C
194 06-08-2009 14:44:21 31 C 20 % 5.42 C
195 06-08-2009 14:56:21 31.7 C 20 % 6 C
196 06-08-2009 15:08:21 32.2 C 20 % 6.41 C
197 06-08-2009 15:20:21 32.6 C 20 % 6.73 C
198 06-08-2009 15:32:21 32.7 C 20 % 6.81 C
199 06-08-2009 15:44:20 32.8 C 20 % 6.9 C
200 06-08-2009 15:56:20 33.1 C 20 % 7.14 C
Sensor: Nr:Datum:Temp:Feuchte:Taupunkt:
Aussen-T/F 201 06-08-2009 16:08:21 32.8 C 20 % 6.9 C
202 06-08-2009 16:20:21 33.1 C 20 % 7.14 C
203 06-08-2009 16:32:20 33.3 C 20 % 7.3 C
204 06-08-2009 16:44:20 33.5 C 20 % 7.47 C
205 06-08-2009 16:56:20 33.8 C 20 % 7.71 C
206 06-08-2009 17:08:20 34 C 20 % 7.88 C
207 06-08-2009 17:20:20 33.8 C 20 % 7.71 C
208 06-08-2009 17:32:19 34 C 20 % 7.88 C
209 06-08-2009 17:44:20 34.1 C 20 % 7.96 C
210 06-08-2009 17:56:21 34 C 20 % 7.88 C
211 06-08-2009 18:08:19 33.8 C 20 % 7.71 C
212 06-08-2009 18:20:19 33.7 C 20 % 7.63 C
213 06-08-2009 18:32:19 33.7 C 20 % 7.63 C
214 06-08-2009 18:44:19 33.6 C 20 % 7.55 C
215 06-08-2009 18:56:19 33.6 C 20 % 7.55 C
216 06-08-2009 19:08:19 33.3 C 20 % 7.3 C
217 06-08-2009 19:20:18 33.2 C 20 % 7.22 C
218 06-08-2009 19:32:19 32.8 C 20 % 6.9 C
219 06-08-2009 19:44:18 32.7 C 20 % 6.81 C
220 06-08-2009 19:56:18 32.3 C 20 % 6.49 C
221 06-08-2009 20:08:18 32 C 21 % 6.95 C
222 06-08-2009 20:20:18 31.4 C 22 % 7.13 C
223 06-08-2009 20:32:18 30.6 C 25 % 8.34 C
224 06-08-2009 20:44:18 29.4 C 28 % 9 C
225 06-08-2009 20:56:18 28.4 C 30 % 9.16 C
Sensor: Nr:Datum:Temp:Feuchte:Taupunkt:
Aussen-T/F 226 06-08-2009 21:08:17 27.5 C 31 % 8.87 C
227 06-08-2009 21:20:18 26.9 C 32 % 8.82 C
228 06-08-2009 21:32:18 26.2 C 33 % 8.67 C
229 06-08-2009 21:44:17 25.9 C 35 % 9.27 C
230 06-08-2009 21:56:17 25.5 C 36 % 9.34 C
231 06-08-2009 22:08:17 25.4 C 37 % 9.66 C
232 06-08-2009 22:20:17 24.9 C 39 % 10 C
233 06-08-2009 22:32:16 24.7 C 40 % 10.2 C
234 06-08-2009 22:44:17 24.3 C 41 % 10.21 C
235 06-08-2009 22:56:17 24.1 C 42 % 10.39 C
236 06-08-2009 23:08:17 23.7 C 44 % 10.73 C
237 06-08-2009 23:20:16 23.5 C 44 % 10.55 C
238 06-08-2009 23:33:17 23.2 C 45 % 10.62 C
239 06-08-2009 23:45:17 23 C 45 % 10.43 C
240 06-08-2009 23:57:17 22.6 C 47 % 10.72 C
241 07-08-2009 00:09:17 22.6 C 47 % 10.72 C
242 07-08-2009 00:21:17 22.2 C 47 % 10.36 C
243 07-08-2009 00:33:17 22.1 C 48 % 10.58 C
244 07-08-2009 00:45:17 21.8 C 49 % 10.62 C
245 07-08-2009 00:57:18 21.6 C 51 % 11.04 C
246 07-08-2009 01:09:18 21.4 C 51 % 10.85 C
247 07-08-2009 01:21:18 21.2 C 52 % 10.96 C
248 07-08-2009 01:33:18 21 C 52 % 10.78 C
249 07-08-2009 01:45:18 20.7 C 55 % 11.34 C
250 07-08-2009 01:57:18 20.4 C 56 % 11.33 C
Sensor: Nr:Datum:Temp:Feuchte:Taupunkt:
Aussen-T/F 251 07-08-2009 02:09:18 20.2 C 56 % 11.15 C
252 07-08-2009 02:21:18 20 C 57 % 11.23 C
253 07-08-2009 02:33:18 19.8 C 59 % 11.56 C
254 07-08-2009 02:45:18 19.6 C 60 % 11.63 C
255 07-08-2009 02:57:18 19.3 C 61 % 11.6 C
256 07-08-2009 03:09:18 19.2 C 61 % 11.5 C
257 07-08-2009 03:21:18 19 C 62 % 11.56 C
258 07-08-2009 03:33:18 18.8 C 64 % 11.85 C
259 07-08-2009 03:45:18 18.7 C 64 % 11.76 C
260 07-08-2009 03:57:18 18.6 C 65 % 11.9 C
261 07-08-2009 04:09:18 18.4 C 65 % 11.71 C
262 07-08-2009 04:21:18 18.3 C 66 % 11.84 C
263 07-08-2009 04:33:18 18.1 C 66 % 11.65 C
264 07-08-2009 04:45:19 17.9 C 68 % 11.91 C
265 07-08-2009 04:57:19 17.7 C 69 % 11.95 C
266 07-08-2009 05:09:19 17.6 C 69 % 11.85 C
267 07-08-2009 05:21:19 17.4 C 69 % 11.66 C
268 07-08-2009 05:33:19 17.4 C 70 % 11.88 C
269 07-08-2009 05:45:19 17.3 C 71 % 12 C
270 07-08-2009 05:57:19 17.2 C 71 % 11.9 C
271 07-08-2009 06:09:19 17 C 71 % 11.71 C
272 07-08-2009 06:21:19 17 C 71 % 11.71 C
273 07-08-2009 06:33:19 16.9 C 72 % 11.82 C
274 07-08-2009 06:45:19 16.9 C 73 % 12.03 C
275 07-08-2009 06:57:19 17 C 72 % 11.92 C
Sensor: Nr:Datum:Temp:Feuchte:Taupunkt:
Aussen-T/F 276 07-08-2009 07:09:17 17 C 73 % 12.13 C
277 07-08-2009 07:21:17 17.1 C 73 % 12.23 C
278 07-08-2009 07:33:17 17.2 C 73 % 12.32 C
279 07-08-2009 07:45:16 17.4 C 72 % 12.3 C
280 07-08-2009 07:57:16 17.6 C 72 % 12.5 C
281 07-08-2009 08:09:17 17.9 C 71 % 12.57 C
282 07-08-2009 08:21:17 18.1 C 70 % 12.55 C
283 07-08-2009 08:33:16 18.3 C 69 % 12.52 C
284 07-08-2009 08:45:17 18.7 C 69 % 12.9 C
285 07-08-2009 08:57:17 19 C 67 % 12.74 C
286 07-08-2009 09:09:16 19.5 C 66 % 12.98 C
287 07-08-2009 09:21:16 20.2 C 62 % 12.69 C
288 07-08-2009 09:33:15 20.7 C 60 % 12.66 C
289 07-08-2009 09:45:16 21.3 C 59 % 12.97 C
290 07-08-2009 09:57:16 22.1 C 56 % 12.92 C
291 07-08-2009 10:09:15 22.7 C 53 % 12.63 C
292 07-08-2009 10:21:15 23.4 C 53 % 13.28 C
293 07-08-2009 10:33:16 24.1 C 51 % 13.34 C
294 07-08-2009 10:45:15 24.9 C 49 % 13.46 C
295 07-08-2009 10:57:15 25.8 C 43 % 12.28 C
296 07-08-2009 11:09:15 26.5 C 38 % 11.03 C
297 07-08-2009 11:21:15 27.3 C 36 % 10.93 C
298 07-08-2009 11:33:15 27.8 C 35 % 10.94 C
299 07-08-2009 11:45:14 28.4 C 33 % 10.58 C
300 07-08-2009 11:57:14 28.5 C 32 % 10.21 C
Sensor: Nr:Datum:Temp:Feuchte:Taupunkt:
Aussen-T/F 301 07-08-2009 12:09:15 29.4 C 31 % 10.51 C
302 07-08-2009 12:21:15 29.9 C 29 % 9.94 C
303 07-08-2009 12:33:14 30 C 28 % 9.51 C
304 07-08-2009 12:45:14 30.4 C 27 % 9.31 C
305 07-08-2009 12:57:14 30.8 C 24 % 7.91 C
306 07-08-2009 13:09:14 31.3 C 23 % 7.7 C
307 07-08-2009 13:21:14 30.6 C 23 % 7.12 C
308 07-08-2009 13:33:13 31 C 21 % 6.13 C
309 07-08-2009 13:45:14 30.5 C 22 % 6.39 C
310 07-08-2009 13:57:14 31 C 21 % 6.13 C
311 07-08-2009 14:09:13 31.7 C 20 % 6 C
312 07-08-2009 14:21:13 31.9 C 20 % 6.16 C
313 07-08-2009 14:33:13 32.1 C 20 % 6.32 C
314 07-08-2009 14:45:13 32 C 20 % 6.24 C
315 07-08-2009 14:57:13 32.4 C 20 % 6.57 C
316 07-08-2009 15:09:13 32.5 C 20 % 6.65 C
317 07-08-2009 15:21:13 32.3 C 20 % 6.49 C
318 07-08-2009 15:33:13 32.6 C 20 % 6.73 C
319 07-08-2009 15:45:12 32.8 C 20 % 6.9 C
320 07-08-2009 15:57:12 32.6 C 20 % 6.73 C
321 07-08-2009 16:09:12 32.9 C 20 % 6.98 C
322 07-08-2009 16:21:12 33.3 C 20 % 7.3 C
323 07-08-2009 16:33:12 33.4 C 20 % 7.39 C
324 07-08-2009 16:45:11 33.4 C 20 % 7.39 C
325 07-08-2009 16:57:11 33.9 C 20 % 7.8 C
Sensor: Nr:Datum:Temp:Feuchte:Taupunkt:
Aussen-T/F 326 07-08-2009 17:09:12 34.1 C 20 % 7.96 C
327 07-08-2009 17:21:12 33.8 C 20 % 7.71 C
328 07-08-2009 17:33:11 33.9 C 20 % 7.8 C
329 07-08-2009 17:45:12 33.3 C 20 % 7.3 C
330 07-08-2009 17:57:12 33.9 C 20 % 7.8 C
331 07-08-2009 18:09:11 33.9 C 20 % 7.8 C
332 07-08-2009 18:21:11 34 C 20 % 7.88 C
333 07-08-2009 18:33:10 33.9 C 20 % 7.8 C
334 07-08-2009 18:45:11 33.7 C 20 % 7.63 C
335 07-08-2009 18:57:12 33.8 C 20 % 7.71 C
336 07-08-2009 19:09:10 33.4 C 20 % 7.39 C
337 07-08-2009 19:21:10 33.4 C 20 % 7.39 C
338 07-08-2009 19:33:11 32.2 C 21 % 7.11 C
339 07-08-2009 19:45:10 31.1 C 24 % 8.16 C
340 07-08-2009 19:57:10 30.3 C 26 % 8.66 C
341 07-08-2009 20:09:10 30 C 27 % 8.97 C
342 07-08-2009 20:21:10 29.3 C 28 % 8.91 C
343 07-08-2009 20:33:10 28.4 C 29 % 8.66 C
344 07-08-2009 20:45:09 27.4 C 31 % 8.78 C
345 07-08-2009 20:57:09 27.1 C 31 % 8.52 C
346 07-08-2009 21:09:10 26.8 C 32 % 8.73 C
347 07-08-2009 21:21:09 26.5 C 33 % 8.93 C
348 07-08-2009 21:33:09 26.4 C 33 % 8.84 C
349 07-08-2009 21:45:09 26.1 C 34 % 9.02 C
350 07-08-2009 21:57:09 26 C 35 % 9.36 C
Sensor: Nr:Datum:Temp:Feuchte:Taupunkt:
Aussen-T/F 351 07-08-2009 22:09:09 25.5 C 37 % 9.75 C
352 07-08-2009 22:21:09 25.3 C 40 % 10.74 C
353 07-08-2009 22:33:09 25 C 41 % 10.84 C
354 07-08-2009 22:46:09 24.9 C 43 % 11.47 C
355 07-08-2009 22:58:09 24.6 C 45 % 11.88 C
356 07-08-2009 23:10:09 24.5 C 45 % 11.79 C
357 07-08-2009 23:22:09 24.3 C 46 % 11.94 C
358 07-08-2009 23:34:09 24.1 C 48 % 12.41 C
359 07-08-2009 23:46:09 23.7 C 49 % 12.36 C
360 07-08-2009 23:58:10 23.8 C 50 % 12.76 C
361 08-08-2009 00:10:10 23.5 C 51 % 12.78 C
362 08-08-2009 00:22:10 23.4 C 51 % 12.69 C
363 08-08-2009 00:34:10 23.5 C 51 % 12.78 C
364 08-08-2009 00:46:10 23.4 C 51 % 12.69 C
365 08-08-2009 00:58:10 23.3 C 52 % 12.9 C
366 08-08-2009 01:10:10 23.3 C 52 % 12.9 C
367 08-08-2009 01:22:10 23.2 C 53 % 13.09 C
368 08-08-2009 01:34:10 23.1 C 54 % 13.29 C
369 08-08-2009 01:46:10 23 C 55 % 13.48 C
370 08-08-2009 01:58:10 23 C 55 % 13.48 C
371 08-08-2009 02:10:10 23 C 55 % 13.48 C
372 08-08-2009 02:22:10 23 C 55 % 13.48 C
373 08-08-2009 02:34:10 22.7 C 56 % 13.47 C
374 08-08-2009 02:46:10 22.1 C 57 % 13.19 C
375 08-08-2009 02:58:10 22.1 C 58 % 13.45 C
Sensor: Nr:Datum:Temp:Feuchte:Taupunkt:
Aussen-T/F 376 08-08-2009 03:10:10 22.1 C 58 % 13.45 C
377 08-08-2009 03:22:10 22 C 58 % 13.36 C
378 08-08-2009 03:34:10 21.7 C 60 % 13.6 C
379 08-08-2009 03:46:11 21.4 C 62 % 13.82 C
380 08-08-2009 03:58:11 21.4 C 62 % 13.82 C
381 08-08-2009 04:10:11 21.1 C 63 % 13.79 C
382 08-08-2009 04:22:11 21.2 C 64 % 14.12 C
383 08-08-2009 04:34:11 21.1 C 66 % 14.5 C
384 08-08-2009 04:46:11 21.1 C 67 % 14.74 C
385 08-08-2009 04:58:11 21.3 C 67 % 14.93 C
386 08-08-2009 05:10:11 21.3 C 66 % 14.69 C
387 08-08-2009 05:22:11 21.3 C 67 % 14.93 C
388 08-08-2009 05:34:11 21.3 C 68 % 15.16 C
389 08-08-2009 05:46:11 21.2 C 69 % 15.29 C
390 08-08-2009 05:58:11 21.3 C 68 % 15.16 C
391 08-08-2009 06:10:11 21.4 C 68 % 15.25 C
392 08-08-2009 06:22:11 21.4 C 67 % 15.02 C
393 08-08-2009 06:34:11 21.5 C 67 % 15.12 C
394 08-08-2009 06:46:11 21.1 C 69 % 15.19 C
395 08-08-2009 06:58:11 21.1 C 70 % 15.42 C
396 08-08-2009 07:10:11 21.1 C 70 % 15.42 C
397 08-08-2009 07:22:11 21 C 70 % 15.32 C
398 08-08-2009 07:34:12 20.9 C 71 % 15.45 C
399 08-08-2009 07:46:12 21.1 C 70 % 15.42 C
400 08-08-2009 07:58:12 21.1 C 70 % 15.42 C
Sensor: Nr:Datum:Temp:Feuchte:Taupunkt:
Aussen-T/F 401 08-08-2009 08:10:12 21 C 70 % 15.32 C
402 08-08-2009 08:22:08 21.1 C 70 % 15.42 C
403 08-08-2009 08:34:09 21.3 C 69 % 15.38 C
404 08-08-2009 08:46:08 21.2 C 69 % 15.29 C
405 08-08-2009 08:58:08 21.6 C 68 % 15.44 C
406 08-08-2009 09:10:09 21.7 C 67 % 15.31 C
407 08-08-2009 09:22:08 21.6 C 67 % 15.21 C
408 08-08-2009 09:34:08 21.4 C 68 % 15.25 C
409 08-08-2009 09:46:08 21.3 C 68 % 15.16 C
410 08-08-2009 09:58:08 21.6 C 66 % 14.98 C
411 08-08-2009 10:10:08 21.6 C 65 % 14.74 C
412 08-08-2009 10:22:07 21.3 C 66 % 14.69 C
413 08-08-2009 10:34:07 21.3 C 66 % 14.69 C
414 08-08-2009 10:46:07 21.4 C 65 % 14.55 C
415 08-08-2009 10:58:07 21.1 C 66 % 14.5 C
416 08-08-2009 11:10:07 20.5 C 69 % 14.62 C
417 08-08-2009 11:22:07 20 C 71 % 14.58 C
418 08-08-2009 11:34:07 20.6 C 71 % 15.16 C
419 08-08-2009 11:46:07 20.5 C 71 % 15.06 C
420 08-08-2009 11:58:07 20.4 C 71 % 14.97 C
421 08-08-2009 12:10:06 20.4 C 72 % 15.18 C
422 08-08-2009 12:22:07 20.5 C 71 % 15.06 C
423 08-08-2009 12:34:06 20.5 C 71 % 15.06 C
424 08-08-2009 12:46:06 20.5 C 70 % 14.84 C
425 08-08-2009 12:58:06 20.6 C 70 % 14.94 C
Sensor: Nr:Datum:Temp:Feuchte:Taupunkt:
Aussen-T/F 426 08-08-2009 13:10:06 21 C 69 % 15.1 C
427 08-08-2009 13:22:06 22.4 C 62 % 14.76 C
428 08-08-2009 13:34:06 22.1 C 60 % 13.98 C
429 08-08-2009 13:46:06 22 C 60 % 13.88 C
430 08-08-2009 13:58:06 21.9 C 62 % 14.29 C
431 08-08-2009 14:10:06 22.2 C 61 % 14.32 C
432 08-08-2009 14:22:05 22 C 62 % 14.39 C
433 08-08-2009 14:34:05 21.3 C 64 % 14.22 C
434 08-08-2009 14:46:05 22 C 63 % 14.63 C
435 08-08-2009 14:58:05 22.4 C 61 % 14.51 C
436 08-08-2009 15:10:05 22.4 C 59 % 14 C
437 08-08-2009 15:22:05 21.8 C 63 % 14.45 C
438 08-08-2009 15:34:04 21.8 C 64 % 14.69 C
439 08-08-2009 15:46:05 22.1 C 63 % 14.73 C
440 08-08-2009 15:58:05 21.6 C 63 % 14.26 C
441 08-08-2009 16:10:04 21.4 C 65 % 14.55 C
442 08-08-2009 16:22:04 21 C 66 % 14.41 C
443 08-08-2009 16:34:04 20.9 C 68 % 14.77 C
444 08-08-2009 16:46:04 20.3 C 70 % 14.65 C
445 08-08-2009 16:58:04 20.4 C 70 % 14.75 C
446 08-08-2009 17:10:04 20.7 C 69 % 14.81 C
447 08-08-2009 17:22:03 21 C 67 % 14.64 C
448 08-08-2009 17:34:04 20.9 C 68 % 14.77 C
449 08-08-2009 17:46:03 20.8 C 68 % 14.68 C
450 08-08-2009 17:58:03 20.8 C 69 % 14.91 C
Sensor: Nr:Datum:Temp:Feuchte:Taupunkt:
Aussen-T/F 451 08-08-2009 18:10:03 20.5 C 69 % 14.62 C
452 08-08-2009 18:22:03 20.7 C 69 % 14.81 C
453 08-08-2009 18:34:04 21 C 67 % 14.64 C
454 08-08-2009 18:46:03 20.5 C 69 % 14.62 C
455 08-08-2009 18:58:03 20.1 C 71 % 14.68 C
456 08-08-2009 19:10:02 20.2 C 72 % 14.99 C
457 08-08-2009 19:22:03 20.5 C 71 % 15.06 C
458 08-08-2009 19:34:02 20.7 C 70 % 15.03 C
459 08-08-2009 19:46:02 20.5 C 70 % 14.84 C
460 08-08-2009 19:58:03 20.5 C 70 % 14.84 C
461 08-08-2009 20:10:02 20.6 C 70 % 14.94 C
462 08-08-2009 20:22:02 20.5 C 70 % 14.84 C
463 08-08-2009 20:34:02 20.5 C 70 % 14.84 C
464 08-08-2009 20:46:02 20.5 C 70 % 14.84 C
465 08-08-2009 20:58:02 20.2 C 71 % 14.78 C
466 08-08-2009 21:10:02 20.2 C 72 % 14.99 C
467 08-08-2009 21:22:01 20.2 C 71 % 14.78 C
468 08-08-2009 21:34:01 20.1 C 71 % 14.68 C
469 08-08-2009 21:46:01 20 C 72 % 14.8 C
470 08-08-2009 21:58:01 20 C 72 % 14.8 C
471 08-08-2009 22:10:01 20 C 72 % 14.8 C
472 08-08-2009 22:22:01 20 C 72 % 14.8 C
473 08-08-2009 22:34:01 19.9 C 73 % 14.92 C
474 08-08-2009 22:47:03 19.8 C 74 % 15.03 C
475 08-08-2009 22:59:03 19.9 C 74 % 15.13 C
Sensor: Nr:Datum:Temp:Feuchte:Taupunkt:
Aussen-T/F 476 08-08-2009 23:11:03 19.8 C 74 % 15.03 C
477 08-08-2009 23:23:03 20.1 C 73 % 15.11 C
478 08-08-2009 23:35:03 19.8 C 74 % 15.03 C
479 08-08-2009 23:47:03 19.8 C 74 % 15.03 C
480 08-08-2009 23:59:03 19.7 C 74 % 14.94 C
481 09-08-2009 00:11:03 19.9 C 74 % 15.13 C
482 09-08-2009 00:23:03 20 C 73 % 15.01 C
483 09-08-2009 00:35:03 20 C 73 % 15.01 C
484 09-08-2009 00:47:03 20 C 73 % 15.01 C
485 09-08-2009 00:59:03 19.8 C 74 % 15.03 C
486 09-08-2009 01:11:03 19.8 C 75 % 15.24 C
487 09-08-2009 01:23:03 19.7 C 75 % 15.15 C
488 09-08-2009 01:35:04 19.7 C 76 % 15.35 C
489 09-08-2009 01:47:04 19.7 C 76 % 15.35 C
490 09-08-2009 01:59:04 19.7 C 76 % 15.35 C
491 09-08-2009 02:11:04 19.7 C 75 % 15.15 C
492 09-08-2009 02:23:04 19.7 C 75 % 15.15 C
493 09-08-2009 02:35:04 19.7 C 75 % 15.15 C
494 09-08-2009 02:47:04 19.7 C 75 % 15.15 C
495 09-08-2009 02:59:04 19.6 C 75 % 15.05 C
496 09-08-2009 03:11:04 19.6 C 75 % 15.05 C
497 09-08-2009 03:23:04 19.5 C 75 % 14.95 C
498 09-08-2009 03:35:04 19.5 C 76 % 15.16 C
499 09-08-2009 03:47:04 19.5 C 76 % 15.16 C
500 09-08-2009 03:59:04 19.4 C 76 % 15.06 C
Sensor: Nr:Datum:Temp:Feuchte:Taupunkt:
Aussen-T/F 501 09-08-2009 04:11:04 19.3 C 76 % 14.97 C
502 09-08-2009 04:23:04 19.3 C 76 % 14.97 C
503 09-08-2009 04:35:04 19.3 C 77 % 15.17 C
504 09-08-2009 04:47:04 19.3 C 77 % 15.17 C
505 09-08-2009 04:59:04 19.3 C 77 % 15.17 C
506 09-08-2009 05:11:04 19.3 C 77 % 15.17 C
507 09-08-2009 05:23:05 19.3 C 77 % 15.17 C
508 09-08-2009 05:35:05 19.2 C 77 % 15.07 C
509 09-08-2009 05:47:02 19.3 C 77 % 15.17 C
510 09-08-2009 05:59:02 19.3 C 77 % 15.17 C
511 09-08-2009 06:11:02 19.2 C 78 % 15.27 C
512 09-08-2009 06:23:02 19.2 C 78 % 15.27 C
513 09-08-2009 06:35:02 19.2 C 77 % 15.07 C
514 09-08-2009 06:47:01 19.2 C 77 % 15.07 C
515 09-08-2009 06:59:01 19.2 C 77 % 15.07 C
516 09-08-2009 07:11:01 19.1 C 78 % 15.18 C
517 09-08-2009 07:23:01 19.2 C 77 % 15.07 C
518 09-08-2009 07:35:02 19.3 C 77 % 15.17 C
519 09-08-2009 07:47:01 19.5 C 77 % 15.36 C
520 09-08-2009 07:59:01 19.7 C 77 % 15.56 C
521 09-08-2009 08:11:01 19.9 C 75 % 15.34 C
522 09-08-2009 08:23:01 20 C 73 % 15.01 C
523 09-08-2009 08:35:01 20 C 73 % 15.01 C
524 09-08-2009 08:47:00 20.1 C 72 % 14.9 C
525 09-08-2009 08:59:00 20.3 C 71 % 14.87 C
Sensor: Nr:Datum:Temp:Feuchte:Taupunkt:
Aussen-T/F 526 09-08-2009 09:11:00 20.5 C 70 % 14.84 C
527 09-08-2009 09:23:00 20.7 C 69 % 14.81 C
528 09-08-2009 09:35:00 21 C 67 % 14.64 C
529 09-08-2009 09:47:00 21.2 C 66 % 14.6 C
530 09-08-2009 09:59:00 21.5 C 65 % 14.65 C
531 09-08-2009 10:11:00 21.9 C 64 % 14.78 C
532 09-08-2009 10:23:59 21.9 C 64 % 14.78 C
533 09-08-2009 10:35:00 22.2 C 61 % 14.32 C
534 09-08-2009 10:47:00 22.8 C 59 % 14.37 C
535 09-08-2009 10:59:00 23.4 C 58 % 14.67 C
536 09-08-2009 11:11:00 23.9 C 56 % 14.59 C
537 09-08-2009 11:23:00 24.2 C 52 % 13.73 C
538 09-08-2009 11:34:59 24.2 C 53 % 14.02 C
539 09-08-2009 11:47:59 25.2 C 50 % 14.04 C
540 09-08-2009 11:59:59 25.5 C 46 % 13.03 C
541 09-08-2009 12:11:59 25.3 C 47 % 13.18 C
542 09-08-2009 12:23:00 24.7 C 51 % 13.89 C
543 09-08-2009 12:35:00 23.6 C 53 % 13.46 C
544 09-08-2009 12:47:58 24.2 C 53 % 14.02 C
545 09-08-2009 12:59:59 24.1 C 51 % 13.34 C
546 09-08-2009 13:11:59 24.3 C 51 % 13.52 C
547 09-08-2009 13:23:58 24.2 C 50 % 13.12 C
548 09-08-2009 13:35:58 24 C 51 % 13.24 C
549 09-08-2009 13:47:58 23.7 C 54 % 13.84 C
550 09-08-2009 13:59:57 24.1 C 53 % 13.93 C
Sensor: Nr:Datum:Temp:Feuchte:Taupunkt:
Aussen-T/F 551 09-08-2009 14:11:57 24.6 C 51 % 13.79 C
552 09-08-2009 14:23:57 25 C 48 % 13.23 C
553 09-08-2009 14:35:58 24.9 C 49 % 13.46 C
554 09-08-2009 14:47:57 25.4 C 47 % 13.27 C
555 09-08-2009 14:59:57 25.9 C 46 % 13.4 C
556 09-08-2009 15:11:57 26.6 C 44 % 13.35 C
557 09-08-2009 15:23:57 27.5 C 41 % 13.08 C
558 09-08-2009 15:35:57 27.7 C 39 % 12.49 C
559 09-08-2009 15:47:56 28.1 C 38 % 12.45 C
560 09-08-2009 15:59:57 28.3 C 37 % 12.22 C
561 09-08-2009 16:11:57 28.6 C 36 % 12.07 C
562 09-08-2009 16:23:56 29.2 C 35 % 12.17 C
563 09-08-2009 16:35:56 29.6 C 36 % 12.95 C
564 09-08-2009 16:47:56 30.2 C 32 % 11.68 C
565 09-08-2009 16:59:55 30.2 C 32 % 11.68 C
566 09-08-2009 17:11:55 30.1 C 32 % 11.59 C
567 09-08-2009 17:23:56 30.3 C 32 % 11.77 C
568 09-08-2009 17:35:56 29.6 C 34 % 12.08 C
569 09-08-2009 17:47:55 29.9 C 33 % 11.89 C
570 09-08-2009 17:59:00 29 C 34 % 11.55 C
571 09-08-2009 18:11:00 27.9 C 37 % 11.87 C
572 09-08-2009 18:23:56 28.5 C 36 % 11.98 C
573 09-08-2009 18:35:55 27.2 C 38 % 11.65 C
574 09-08-2009 18:47:55 27.5 C 38 % 11.92 C
575 09-08-2009 18:59:55 27.2 C 38 % 11.65 C
Sensor: Nr:Datum:Temp:Feuchte:Taupunkt:
Aussen-T/F 576 09-08-2009 19:11:55 26.6 C 41 % 12.27 C
577 09-08-2009 19:23:54 25.9 C 44 % 12.72 C
578 09-08-2009 19:35:54 25.5 C 45 % 12.7 C
579 09-08-2009 19:47:54 24.9 C 46 % 12.49 C
580 09-08-2009 19:59:54 24.6 C 47 % 12.54 C
581 09-08-2009 20:11:54 24.5 C 49 % 13.09 C
582 09-08-2009 20:23:54 24.4 C 50 % 13.31 C
583 09-08-2009 20:35:54 24.1 C 51 % 13.34 C
584 09-08-2009 20:47:54 23.9 C 52 % 13.45 C
585 09-08-2009 20:59:54 23.6 C 54 % 13.75 C
586 09-08-2009 21:11:54 23.3 C 55 % 13.76 C
587 09-08-2009 21:23:53 23 C 56 % 13.75 C
588 09-08-2009 21:36:55 22.6 C 57 % 13.65 C
589 09-08-2009 21:48:55 22.4 C 58 % 13.73 C
590 09-08-2009 22:00:55 22.2 C 58 % 13.55 C
591 09-08-2009 22:12:55 22 C 59 % 13.62 C
592 09-08-2009 22:24:55 21.8 C 61 % 13.95 C
593 09-08-2009 22:36:55 21.7 C 61 % 13.85 C
594 09-08-2009 22:48:55 21.6 C 61 % 13.76 C
595 09-08-2009 23:00:55 21.4 C 62 % 13.82 C
596 09-08-2009 23:12:55 21.2 C 63 % 13.88 C
597 09-08-2009 23:24:55 21.1 C 64 % 14.03 C
598 09-08-2009 23:36:55 21 C 64 % 13.93 C
599 09-08-2009 23:48:55 20.9 C 66 % 14.31 C
600 10-08-2009 00:00:55 20.8 C 66 % 14.22 C
Sensor: Nr:Datum:Temp:Feuchte:Taupunkt:
Aussen-T/F 601 10-08-2009 00:12:55 20.8 C 66 % 14.22 C
602 10-08-2009 00:24:55 20.5 C 67 % 14.16 C
603 10-08-2009 00:36:56 20.5 C 68 % 14.39 C
604 10-08-2009 00:48:56 20.3 C 68 % 14.2 C
605 10-08-2009 01:00:56 20.2 C 69 % 14.33 C
606 10-08-2009 01:12:56 20.2 C 69 % 14.33 C
607 10-08-2009 01:24:56 20 C 70 % 14.36 C
608 10-08-2009 01:36:56 19.8 C 72 % 14.61 C
609 10-08-2009 01:48:56 19.7 C 72 % 14.51 C
610 10-08-2009 02:00:56 19.8 C 72 % 14.61 C
611 10-08-2009 02:12:56 20 C 71 % 14.58 C
612 10-08-2009 02:24:56 19.7 C 72 % 14.51 C
613 10-08-2009 02:36:56 19.7 C 72 % 14.51 C
614 10-08-2009 02:48:56 19.6 C 73 % 14.63 C
615 10-08-2009 03:00:56 19.6 C 73 % 14.63 C
616 10-08-2009 03:12:56 19.4 C 73 % 14.44 C
617 10-08-2009 03:24:56 19.2 C 75 % 14.66 C
618 10-08-2009 03:36:56 19.1 C 75 % 14.57 C
619 10-08-2009 03:48:56 19.1 C 76 % 14.77 C
620 10-08-2009 04:00:56 19.1 C 76 % 14.77 C
621 10-08-2009 04:12:56 19.1 C 76 % 14.77 C
622 10-08-2009 04:24:57 19 C 76 % 14.68 C
623 10-08-2009 04:36:57 19 C 76 % 14.68 C
624 10-08-2009 04:48:57 18.9 C 77 % 14.78 C
625 10-08-2009 05:00:57 18.8 C 77 % 14.68 C
Sensor: Nr:Datum:Temp:Feuchte:Taupunkt:
Aussen-T/F 626 10-08-2009 05:12:57 18.7 C 77 % 14.59 C
627 10-08-2009 05:24:57 18.7 C 78 % 14.79 C
628 10-08-2009 05:36:57 18.7 C 78 % 14.79 C
629 10-08-2009 05:48:57 18.6 C 79 % 14.89 C
630 10-08-2009 06:00:57 18.7 C 79 % 14.99 C
631 10-08-2009 06:12:57 18.8 C 78 % 14.88 C
632 10-08-2009 06:24:57 18.9 C 78 % 14.98 C
633 10-08-2009 06:36:54 18.9 C 78 % 14.98 C
634 10-08-2009 06:48:54 18.9 C 78 % 14.98 C
635 10-08-2009 07:00:54 19 C 77 % 14.88 C
636 10-08-2009 07:12:54 19 C 78 % 15.08 C
637 10-08-2009 07:24:54 19.1 C 77 % 14.97 C
638 10-08-2009 07:36:54 18.9 C 79 % 15.18 C
639 10-08-2009 07:48:53 18.9 C 79 % 15.18 C
640 10-08-2009 08:00:54 19.2 C 78 % 15.27 C
641 10-08-2009 08:12:54 19.5 C 76 % 15.16 C
642 10-08-2009 08:24:53 19.7 C 75 % 15.15 C
643 10-08-2009 08:36:53 20.1 C 73 % 15.11 C
644 10-08-2009 08:48:54 20.5 C 71 % 15.06 C
645 10-08-2009 09:00:53 20.7 C 71 % 15.25 C
646 10-08-2009 09:12:53 20.7 C 70 % 15.03 C
647 10-08-2009 09:24:53 20.9 C 69 % 15 C
648 10-08-2009 09:36:53 21 C 68 % 14.87 C
649 10-08-2009 09:48:52 21.5 C 66 % 14.88 C
650 10-08-2009 10:00:53 21.6 C 65 % 14.74 C
Sensor: Nr:Datum:Temp:Feuchte:Taupunkt:
Aussen-T/F 651 10-08-2009 10:12:53 22 C 63 % 14.63 C
652 10-08-2009 10:24:52 22 C 63 % 14.63 C
653 10-08-2009 10:36:52 21.8 C 64 % 14.69 C
654 10-08-2009 10:48:52 21.4 C 65 % 14.55 C
655 10-08-2009 11:00:52 21.6 C 65 % 14.74 C
656 10-08-2009 11:12:52 22.1 C 63 % 14.73 C
657 10-08-2009 11:24:52 22.1 C 62 % 14.48 C
658 10-08-2009 11:36:51 21.7 C 64 % 14.6 C
659 10-08-2009 11:48:52 21.3 C 66 % 14.69 C
660 10-08-2009 12:00:51 21.1 C 68 % 14.97 C
661 10-08-2009 12:12:51 20.8 C 70 % 15.13 C
662 10-08-2009 12:24:51 20.2 C 74 % 15.42 C
663 10-08-2009 12:36:51 19.7 C 79 % 15.96 C
664 10-08-2009 12:48:51 19.6 C 83 % 16.63 C
665 10-08-2009 13:00:51 20.2 C 83 % 17.22 C
666 10-08-2009 13:12:51 21.6 C 82 % 18.39 C
667 10-08-2009 13:24:51 21.8 C 78 % 17.79 C
668 10-08-2009 13:36:51 22.5 C 76 % 18.06 C
669 10-08-2009 13:48:50 24 C 72 % 18.64 C
670 10-08-2009 14:00:50 26 C 61 % 17.9 C
671 10-08-2009 14:12:50 26.4 C 57 % 17.19 C
672 10-08-2009 14:24:50 26.8 C 55 % 17 C
673 10-08-2009 14:36:50 27 C 51 % 16 C
674 10-08-2009 14:48:49 26.6 C 53 % 16.23 C
675 10-08-2009 15:00:50 27.3 C 47 % 15 C
Sensor: Nr:Datum:Temp:Feuchte:Taupunkt:
Aussen-T/F 676 10-08-2009 15:12:50 27.7 C 43 % 13.99 C
677 10-08-2009 15:24:50 28.3 C 41 % 13.79 C
678 10-08-2009 15:36:49 29.1 C 37 % 12.93 C
679 10-08-2009 15:48:50 28.1 C 39 % 12.85 C
680 10-08-2009 16:00:49 27.2 C 41 % 12.81 C
681 10-08-2009 16:12:49 27.1 C 40 % 12.34 C
682 10-08-2009 16:24:49 27.9 C 38 % 12.27 C
683 10-08-2009 16:36:48 25.6 C 44 % 12.45 C
684 10-08-2009 16:48:49 26.1 C 42 % 12.19 C
685 10-08-2009 17:00:48 26.9 C 41 % 12.54 C
686 10-08-2009 17:12:48 25.7 C 43 % 12.19 C
687 10-08-2009 17:24:48 24.5 C 47 % 12.45 C
688 10-08-2009 17:36:49 24.9 C 47 % 12.82 C
689 10-08-2009 17:48:48 25 C 46 % 12.58 C
690 10-08-2009 18:00:48 25.8 C 46 % 13.31 C
691 10-08-2009 18:12:48 25.7 C 43 % 12.19 C
692 10-08-2009 18:24:48 25 C 43 % 11.56 C
693 10-08-2009 18:36:48 25.8 C 40 % 11.18 C
694 10-08-2009 18:48:47 25.6 C 41 % 11.38 C
695 10-08-2009 19:00:47 26.2 C 37 % 10.37 C
696 10-08-2009 19:12:47 25.8 C 39 % 10.8 C
697 10-08-2009 19:24:47 25.4 C 39 % 10.45 C
698 10-08-2009 19:36:47 25.1 C 39 % 10.18 C
699 10-08-2009 19:48:47 24.8 C 37 % 9.13 C
700 10-08-2009 20:00:47 24.9 C 35 % 8.4 C
Sensor: Nr:Datum:Temp:Feuchte:Taupunkt:
Aussen-T/F 701 10-08-2009 20:12:47 24.1 C 38 % 8.9 C
702 10-08-2009 20:24:47 23.5 C 38 % 8.37 C
703 10-08-2009 20:36:46 22.9 C 38 % 7.84 C
704 10-08-2009 20:48:47 22.4 C 39 % 7.78 C
705 10-08-2009 21:00:46 21.7 C 45 % 9.26 C
706 10-08-2009 21:12:46 21.2 C 47 % 9.45 C
707 10-08-2009 21:24:46 20.6 C 47 % 8.9 C
708 10-08-2009 21:36:46 20.1 C 50 % 9.36 C
709 10-08-2009 21:48:45 19.6 C 54 % 10.05 C
710 10-08-2009 22:00:46 19.4 C 54 % 9.86 C
711 10-08-2009 22:12:46 19.2 C 54 % 9.67 C
712 10-08-2009 22:25:45 18.9 C 56 % 9.94 C
713 10-08-2009 22:37:45 18.6 C 58 % 10.18 C
714 10-08-2009 22:49:45 18.4 C 58 % 9.99 C
715 10-08-2009 23:01:45 18.1 C 58 % 9.71 C
716 10-08-2009 23:13:45 17.9 C 60 % 10.03 C
717 10-08-2009 23:25:45 18.1 C 60 % 10.22 C
718 10-08-2009 23:37:45 18.3 C 60 % 10.41 C
719 10-08-2009 23:49:45 18.4 C 60 % 10.5 C
720 11-08-2009 00:01:45 18.5 C 61 % 10.84 C
721 11-08-2009 00:13:45 18.5 C 61 % 10.84 C
722 11-08-2009 00:25:45 18.5 C 61 % 10.84 C
723 11-08-2009 00:37:46 18.4 C 62 % 10.99 C
724 11-08-2009 00:49:46 18.3 C 62 % 10.9 C
725 11-08-2009 01:01:46 18.3 C 62 % 10.9 C
Sensor: Nr:Datum:Temp:Feuchte:Taupunkt:
Aussen-T/F 726 11-08-2009 01:13:46 18.2 C 63 % 11.05 C
727 11-08-2009 01:25:46 18.2 C 63 % 11.05 C
728 11-08-2009 01:37:46 18.1 C 63 % 10.95 C
729 11-08-2009 01:49:46 17.9 C 65 % 11.23 C
730 11-08-2009 02:01:46 17.9 C 66 % 11.46 C
731 11-08-2009 02:13:46 17.8 C 66 % 11.37 C
732 11-08-2009 02:25:46 18 C 65 % 11.33 C
733 11-08-2009 02:37:46 17.9 C 66 % 11.46 C
734 11-08-2009 02:49:46 17.7 C 67 % 11.5 C
735 11-08-2009 03:01:46 17.8 C 66 % 11.37 C
736 11-08-2009 03:13:46 17.9 C 68 % 11.91 C
737 11-08-2009 03:25:46 18 C 66 % 11.56 C
738 11-08-2009 03:37:46 18 C 66 % 11.56 C
739 11-08-2009 03:49:46 18.1 C 66 % 11.65 C
740 11-08-2009 04:01:46 18.1 C 66 % 11.65 C
741 11-08-2009 04:13:46 17.9 C 69 % 12.14 C
742 11-08-2009 04:25:47 17.8 C 71 % 12.47 C
743 11-08-2009 04:37:47 17.8 C 72 % 12.69 C
744 11-08-2009 04:49:47 17.8 C 73 % 12.9 C
745 11-08-2009 05:01:47 17.8 C 73 % 12.9 C
746 11-08-2009 05:13:47 17.8 C 73 % 12.9 C
747 11-08-2009 05:25:47 17.9 C 74 % 13.2 C
748 11-08-2009 05:37:47 17.8 C 76 % 13.52 C
749 11-08-2009 05:49:47 17.6 C 77 % 13.52 C
750 11-08-2009 06:01:47 17.6 C 77 % 13.52 C
Sensor: Nr:Datum:Temp:Feuchte:Taupunkt:
Aussen-T/F 751 11-08-2009 06:13:47 17.7 C 77 % 13.62 C
752 11-08-2009 06:25:47 17.6 C 77 % 13.52 C
753 11-08-2009 06:37:47 17.7 C 76 % 13.42 C
754 11-08-2009 06:49:47 17.8 C 76 % 13.52 C
755 11-08-2009 07:01:46 17.9 C 76 % 13.61 C
756 11-08-2009 07:13:45 18.1 C 74 % 13.4 C
757 11-08-2009 07:25:45 18.3 C 73 % 13.38 C
758 11-08-2009 07:37:45 18.5 C 73 % 13.57 C
759 11-08-2009 07:49:45 18.6 C 72 % 13.46 C
760 11-08-2009 08:01:45 18.8 C 72 % 13.65 C
761 11-08-2009 08:13:45 19 C 69 % 13.19 C
762 11-08-2009 08:25:45 19.2 C 68 % 13.15 C
763 11-08-2009 08:37:45 19.1 C 67 % 12.83 C
764 11-08-2009 08:49:45 19.2 C 65 % 12.47 C
765 11-08-2009 09:01:44 18.7 C 70 % 13.12 C
766 11-08-2009 09:13:45 18 C 76 % 13.71 C
767 11-08-2009 09:25:46 17.9 C 81 % 14.59 C
768 11-08-2009 09:37:44 18.1 C 80 % 14.6 C
769 11-08-2009 09:49:44 17.9 C 81 % 14.59 C
770 11-08-2009 10:01:44 18.3 C 79 % 14.6 C
771 11-08-2009 10:13:44 19.3 C 72 % 14.13 C
772 11-08-2009 10:25:44 19.8 C 69 % 13.95 C
773 11-08-2009 10:37:44 20.3 C 65 % 13.51 C
774 11-08-2009 10:49:43 20.5 C 63 % 13.22 C
775 11-08-2009 11:01:44 20.4 C 63 % 13.12 C
Sensor: Nr:Datum:Temp:Feuchte:Taupunkt:
Aussen-T/F 776 11-08-2009 11:13:43 20.2 C 63 % 12.94 C
777 11-08-2009 11:25:43 20.8 C 63 % 13.5 C
778 11-08-2009 11:37:43 21.3 C 61 % 13.48 C
779 11-08-2009 11:49:43 20.7 C 63 % 13.41 C
780 11-08-2009 12:01:43 19.4 C 72 % 14.22 C
781 11-08-2009 12:13:43 19.2 C 80 % 15.67 C
782 11-08-2009 12:25:43 20.4 C 78 % 16.44 C
783 11-08-2009 12:37:42 21.5 C 68 % 15.35 C
784 11-08-2009 12:49:43 21.5 C 66 % 14.88 C
785 11-08-2009 13:01:42 21.2 C 66 % 14.6 C
786 11-08-2009 13:13:42 22.3 C 61 % 14.42 C
787 11-08-2009 13:25:42 21.3 C 63 % 13.97 C
788 11-08-2009 13:37:42 19.7 C 78 % 15.76 C
789 11-08-2009 13:49:42 20 C 82 % 16.83 C
790 11-08-2009 14:01:41 21.1 C 79 % 17.32 C
791 11-08-2009 14:13:42 21.9 C 72 % 16.62 C
792 11-08-2009 14:25:42 22.2 C 69 % 16.24 C
793 11-08-2009 14:37:42 22.5 C 65 % 15.59 C
794 11-08-2009 14:49:41 23.1 C 64 % 15.92 C
795 11-08-2009 15:01:42 23 C 61 % 15.08 C
796 11-08-2009 15:13:41 22.9 C 68 % 16.68 C
797 11-08-2009 15:25:41 22.9 C 69 % 16.91 C
798 11-08-2009 15:37:41 23.3 C 65 % 16.35 C
799 11-08-2009 15:49:40 23.7 C 59 % 15.21 C
800 11-08-2009 16:01:41 24.4 C 62 % 16.65 C
Sensor: Nr:Datum:Temp:Feuchte:Taupunkt:
Aussen-T/F 801 11-08-2009 16:13:40 25.6 C 53 % 15.31 C
802 11-08-2009 16:25:40 26.3 C 49 % 14.74 C
803 11-08-2009 16:37:40 27 C 44 % 13.71 C
804 11-08-2009 16:49:40 26.3 C 47 % 14.09 C
805 11-08-2009 17:01:40 26 C 51 % 15.08 C
806 11-08-2009 17:13:40 26.6 C 45 % 13.69 C
807 11-08-2009 17:25:40 26.8 C 45 % 13.87 C
808 11-08-2009 17:37:40 26.2 C 44 % 12.99 C
809 11-08-2009 17:49:40 26.2 C 47 % 14 C
810 11-08-2009 18:01:39 24.9 C 51 % 14.07 C
811 11-08-2009 18:13:39 24.4 C 48 % 12.68 C
812 11-08-2009 18:25:39 24.1 C 48 % 12.41 C
813 11-08-2009 18:37:40 24.2 C 53 % 14.02 C
814 11-08-2009 18:49:39 24 C 47 % 12 C
815 11-08-2009 19:01:39 24.1 C 46 % 11.76 C
816 11-08-2009 19:13:39 24 C 47 % 12 C
817 11-08-2009 19:25:39 23.8 C 53 % 13.65 C
818 11-08-2009 19:37:39 23.3 C 53 % 13.19 C
819 11-08-2009 19:49:38 23.1 C 55 % 13.57 C
820 11-08-2009 20:01:39 22.6 C 58 % 13.92 C
821 11-08-2009 20:13:38 22.3 C 60 % 14.16 C
822 11-08-2009 20:25:38 22.2 C 58 % 13.55 C
823 11-08-2009 20:37:38 21.9 C 61 % 14.04 C
824 11-08-2009 20:49:38 21.6 C 62 % 14.01 C
825 11-08-2009 21:01:38 21.3 C 63 % 13.97 C
Sensor: Nr:Datum:Temp:Feuchte:Taupunkt:
Aussen-T/F 826 11-08-2009 21:13:37 21 C 64 % 13.93 C
827 11-08-2009 21:25:37 20.8 C 66 % 14.22 C
828 11-08-2009 21:37:38 20.6 C 66 % 14.03 C
829 11-08-2009 21:49:37 20.4 C 66 % 13.84 C
830 11-08-2009 22:02:39 20.2 C 68 % 14.11 C
831 11-08-2009 22:14:39 19.9 C 69 % 14.05 C
832 11-08-2009 22:26:40 19.7 C 70 % 14.08 C
833 11-08-2009 22:38:40 19.5 C 71 % 14.1 C
834 11-08-2009 22:50:40 19.4 C 72 % 14.22 C
835 11-08-2009 23:02:40 19.3 C 72 % 14.13 C
836 11-08-2009 23:14:40 19.3 C 72 % 14.13 C
837 11-08-2009 23:26:40 19.5 C 72 % 14.32 C
838 11-08-2009 23:38:40 19.7 C 73 % 14.73 C
839 11-08-2009 23:50:40 19.6 C 73 % 14.63 C
840 12-08-2009 00:02:40 19.7 C 72 % 14.51 C
841 12-08-2009 00:14:40 19.3 C 73 % 14.34 C
842 12-08-2009 00:26:40 19.1 C 74 % 14.36 C
843 12-08-2009 00:38:40 19 C 74 % 14.26 C
844 12-08-2009 00:50:40 18.8 C 76 % 14.48 C
845 12-08-2009 01:02:40 18.5 C 76 % 14.19 C
846 12-08-2009 01:14:40 18.6 C 74 % 13.88 C
847 12-08-2009 01:26:40 18.6 C 72 % 13.46 C
848 12-08-2009 01:38:40 18.7 C 71 % 13.34 C
849 12-08-2009 01:50:40 18.6 C 70 % 13.02 C
850 12-08-2009 02:02:40 18.4 C 72 % 13.26 C
Sensor: Nr:Datum:Temp:Feuchte:Taupunkt:
Aussen-T/F 851 12-08-2009 02:14:40 18.3 C 72 % 13.17 C
852 12-08-2009 02:26:41 18.1 C 75 % 13.6 C
853 12-08-2009 02:38:41 18.1 C 75 % 13.6 C
854 12-08-2009 02:50:41 18.1 C 75 % 13.6 C
855 12-08-2009 03:02:41 18.2 C 75 % 13.7 C
856 12-08-2009 03:14:41 18.1 C 76 % 13.81 C
857 12-08-2009 03:26:41 17.9 C 78 % 14.01 C
858 12-08-2009 03:38:41 17.7 C 78 % 13.82 C
859 12-08-2009 03:50:41 17.3 C 80 % 13.82 C
860 12-08-2009 04:02:41 17.3 C 81 % 14.01 C
861 12-08-2009 04:14:41 17.3 C 81 % 14.01 C
862 12-08-2009 04:26:41 17.3 C 80 % 13.82 C
863 12-08-2009 04:38:41 17.4 C 81 % 14.11 C
864 12-08-2009 04:50:41 16.8 C 82 % 13.71 C
865 12-08-2009 05:02:41 16.4 C 82 % 13.32 C
866 12-08-2009 05:14:41 16.2 C 83 % 13.31 C
867 12-08-2009 05:26:41 16 C 83 % 13.12 C
868 12-08-2009 05:38:41 15.8 C 84 % 13.1 C
869 12-08-2009 05:50:41 15.6 C 85 % 13.09 C
870 12-08-2009 06:02:41 15.3 C 86 % 12.97 C
871 12-08-2009 06:14:38 15.2 C 86 % 12.88 C
872 12-08-2009 06:26:38 15.2 C 87 % 13.05 C
873 12-08-2009 06:38:38 15 C 88 % 13.03 C
874 12-08-2009 06:50:38 15 C 88 % 13.03 C
875 12-08-2009 07:02:38 15 C 88 % 13.03 C
Sensor: Nr:Datum:Temp:Feuchte:Taupunkt:
Aussen-T/F 876 12-08-2009 07:14:01 14.9 C 89 % 13.1 C
877 12-08-2009 07:26:01 15 C 88 % 13.03 C
878 12-08-2009 07:38:01 15.1 C 88 % 13.13 C
879 12-08-2009 07:50:01 15.4 C 88 % 13.42 C
880 12-08-2009 08:02:01 15.8 C 86 % 13.46 C
881 12-08-2009 08:14:01 16.2 C 84 % 13.5 C
882 12-08-2009 08:26:00 16.5 C 81 % 13.23 C
883 12-08-2009 08:38:01 16.8 C 78 % 12.94 C
884 12-08-2009 08:50:01 16.7 C 77 % 12.65 C
885 12-08-2009 09:02:00 17 C 75 % 12.54 C
886 12-08-2009 09:14:00 17.2 C 74 % 12.53 C
887 12-08-2009 09:26:00 17.5 C 71 % 12.19 C
888 12-08-2009 09:38:00 18.3 C 67 % 12.07 C
889 12-08-2009 09:50:00 19.2 C 61 % 11.5 C
890 12-08-2009 10:02:00 19.4 C 58 % 10.93 C
891 12-08-2009 10:14:00 19.5 C 58 % 11.02 C
892 12-08-2009 10:26:00 20.1 C 59 % 11.84 C
893 12-08-2009 10:38:00 20.7 C 54 % 11.07 C
894 12-08-2009 10:50:59 21.2 C 51 % 10.67 C
895 12-08-2009 11:13:59 21.8 C 51 % 11.22 C
896 12-08-2009 11:14:59 22.3 C 48 % 10.77 C
897 12-08-2009 11:26:59 22.6 C 47 % 10.72 C
898 12-08-2009 11:38:59 22.9 C 47 % 11 C
899 12-08-2009 11:50:58 23.9 C 44 % 10.91 C
900 12-08-2009 12:02:59 24.1 C 42 % 10.39 C
Sensor: Nr:Datum:Temp:Feuchte:Taupunkt:
Aussen-T/F 901 12-08-2009 12:14:59 24.4 C 41 % 10.3 C
902 12-08-2009 12:26:59 24.8 C 40 % 10.29 C
903 12-08-2009 12:38:58 25.5 C 37 % 9.75 C
904 12-08-2009 12:50:59 25.2 C 37 % 9.48 C
905 12-08-2009 13:02:58 24.8 C 40 % 10.29 C
906 12-08-2009 13:14:58 25.2 C 37 % 9.48 C
907 12-08-2009 13:26:58 25.5 C 36 % 9.34 C
908 12-08-2009 13:38:58 26.7 C 35 % 9.98 C
909 12-08-2009 13:50:58 26.2 C 33 % 8.67 C
910 12-08-2009 14:02:58 27.1 C 32 % 8.99 C
911 12-08-2009 14:14:57 26.7 C 33 % 9.1 C
912 12-08-2009 14:26:57 27 C 31 % 8.44 C
913 12-08-2009 14:38:57 26.7 C 31 % 8.18 C
914 12-08-2009 14:50:57 27.2 C 30 % 8.13 C
915 12-08-2009 15:02:57 26.9 C 31 % 8.35 C
916 12-08-2009 15:14:56 27.3 C 30 % 8.21 C
917 12-08-2009 15:26:56 27.5 C 30 % 8.39 C
918 12-08-2009 15:38:57 28 C 28 % 7.8 C
919 12-08-2009 15:50:56 27.2 C 30 % 8.13 C
920 12-08-2009 16:02:56 26.6 C 32 % 8.56 C
921 12-08-2009 16:14:57 26 C 35 % 9.36 C
922 12-08-2009 16:26:57 26.2 C 34 % 9.11 C
923 12-08-2009 16:38:56 26.3 C 33 % 8.75 C
924 12-08-2009 16:50:56 25.7 C 36 % 9.52 C
925 12-08-2009 17:02:56 25.7 C 36 % 9.52 C
Sensor: Nr:Datum:Temp:Feuchte:Taupunkt:
Aussen-T/F 926 12-08-2009 17:14:56 25.9 C 36 % 9.69 C
927 12-08-2009 17:26:56 26.2 C 35 % 9.54 C
928 12-08-2009 17:38:56 25.8 C 37 % 10.01 C
929 12-08-2009 17:50:55 25.5 C 37 % 9.75 C
930 12-08-2009 18:02:56 25.5 C 38 % 10.15 C
931 12-08-2009 18:14:55 25.5 C 38 % 10.15 C
932 12-08-2009 18:26:55 25.6 C 38 % 10.23 C
933 12-08-2009 18:38:55 25.5 C 39 % 10.53 C
934 12-08-2009 18:50:55 25.5 C 39 % 10.53 C
935 12-08-2009 19:02:55 25.3 C 39 % 10.36 C
936 12-08-2009 19:14:54 24.8 C 41 % 10.66 C
937 12-08-2009 19:26:54 24.9 C 41 % 10.75 C
938 12-08-2009 19:38:54 24.7 C 42 % 10.93 C
939 12-08-2009 19:50:54 24.6 C 43 % 11.2 C
940 12-08-2009 20:02:54 24.5 C 44 % 11.45 C
941 12-08-2009 20:14:54 24.3 C 45 % 11.61 C
942 12-08-2009 20:26:54 24.2 C 46 % 11.85 C
943 12-08-2009 20:38:54 23.3 C 51 % 12.6 C
944 12-08-2009 20:50:54 22.1 C 61 % 14.23 C
945 12-08-2009 21:02:54 20.4 C 76 % 16.03 C
946 12-08-2009 21:14:54 19.7 C 82 % 16.54 C
947 12-08-2009 21:26:54 19.5 C 84 % 16.72 C
948 12-08-2009 21:38:53 19.6 C 85 % 17.01 C
949 12-08-2009 21:50:54 19.3 C 84 % 16.53 C
950 12-08-2009 22:02:53 19.3 C 83 % 16.34 C
Sensor: Nr:Datum:Temp:Feuchte:Taupunkt:
Aussen-T/F 951 12-08-2009 22:15:55 19.3 C 82 % 16.15 C
952 12-08-2009 22:27:55 19.2 C 81 % 15.86 C
953 12-08-2009 22:39:55 19.3 C 81 % 15.96 C
954 12-08-2009 22:51:55 19.3 C 81 % 15.96 C
955 12-08-2009 23:03:55 19.2 C 82 % 16.05 C
956 12-08-2009 23:15:55 19.1 C 82 % 15.96 C
957 12-08-2009 23:27:55 19.1 C 82 % 15.96 C
958 12-08-2009 23:39:55 19.1 C 82 % 15.96 C
959 12-08-2009 23:51:55 19.2 C 82 % 16.05 C
960 13-08-2009 00:03:55 19.1 C 83 % 16.15 C
961 13-08-2009 00:15:55 19.1 C 83 % 16.15 C
962 13-08-2009 00:27:55 18.9 C 84 % 16.14 C
963 13-08-2009 00:39:55 18.5 C 85 % 15.93 C
964 13-08-2009 00:51:55 18.3 C 86 % 15.92 C
965 13-08-2009 01:03:55 18.3 C 86 % 15.92 C
966 13-08-2009 01:15:55 18.1 C 87 % 15.9 C
967 13-08-2009 01:27:55 18.2 C 88 % 16.18 C
968 13-08-2009 01:39:56 18.2 C 88 % 16.18 C
969 13-08-2009 01:51:56 18.1 C 87 % 15.9 C
970 13-08-2009 02:03:56 18.1 C 87 % 15.9 C
971 13-08-2009 02:15:56 18.1 C 88 % 16.08 C
972 13-08-2009 02:27:56 18 C 88 % 15.98 C
973 13-08-2009 02:39:56 17.7 C 89 % 15.86 C
974 13-08-2009 02:51:56 17.6 C 90 % 15.94 C
975 13-08-2009 03:03:56 17.6 C 90 % 15.94 C
Sensor: Nr:Datum:Temp:Feuchte:Taupunkt:
Aussen-T/F 976 13-08-2009 03:15:56 17.7 C 91 % 16.21 C
977 13-08-2009 03:27:56 17.7 C 91 % 16.21 C
978 13-08-2009 03:39:56 17.7 C 91 % 16.21 C
979 13-08-2009 03:51:56 17 C 91 % 15.52 C
980 13-08-2009 04:03:56 16.7 C 91 % 15.22 C
981 13-08-2009 04:15:56 16.6 C 92 % 15.3 C
982 13-08-2009 04:27:56 16.4 C 92 % 15.1 C
983 13-08-2009 04:39:56 16.3 C 92 % 15 C
984 13-08-2009 04:51:56 16.4 C 92 % 15.1 C
985 13-08-2009 05:03:56 16.3 C 93 % 15.17 C
986 13-08-2009 05:15:56 16.5 C 93 % 15.36 C
987 13-08-2009 05:27:56 16.4 C 93 % 15.27 C
988 13-08-2009 05:39:57 16.3 C 93 % 15.17 C
989 13-08-2009 05:51:57 16.2 C 93 % 15.07 C
990 13-08-2009 06:03:57 16.3 C 93 % 15.17 C
991 13-08-2009 06:15:57 16.2 C 93 % 15.07 C
992 13-08-2009 06:27:57 16.1 C 93 % 14.97 C
993 13-08-2009 06:39:57 16.2 C 94 % 15.23 C
994 13-08-2009 06:51:54 16.2 C 94 % 15.23 C
995 13-08-2009 07:03:54 16.2 C 93 % 15.07 C
996 13-08-2009 07:15:54 16.4 C 94 % 15.43 C
997 13-08-2009 07:27:54 16.5 C 93 % 15.36 C
998 13-08-2009 07:39:54 16.9 C 94 % 15.93 C
999 13-08-2009 07:51:53 17 C 93 % 15.86 C
1000 13-08-2009 08:03:54 16.9 C 93 % 15.76 C
Sensor: Nr:Datum:Temp:Feuchte:Taupunkt:
Aussen-T/F 1001 13-08-2009 08:15:53 17.1 C 92 % 15.79 C
1002 13-08-2009 08:27:53 17.1 C 92 % 15.79 C
1003 13-08-2009 08:39:53 17.1 C 91 % 15.62 C
1004 13-08-2009 08:51:54 17.2 C 90 % 15.55 C
1005 13-08-2009 09:03:53 17.9 C 90 % 16.24 C
1006 13-08-2009 09:15:52 17.7 C 86 % 15.33 C
1007 13-08-2009 09:27:52 18.4 C 84 % 15.65 C
1008 13-08-2009 09:39:53 18.3 C 83 % 15.36 C
1009 13-08-2009 09:51:52 18.7 C 82 % 15.57 C
1010 13-08-2009 10:03:52 18.7 C 80 % 15.18 C
1011 13-08-2009 10:15:53 19.4 C 78 % 15.47 C
1012 13-08-2009 10:27:53 19.8 C 72 % 14.61 C
1013 13-08-2009 10:39:52 20 C 67 % 13.69 C
1014 13-08-2009 10:51:52 20 C 67 % 13.69 C
1015 13-08-2009 11:03:52 20.2 C 63 % 12.94 C
1016 13-08-2009 11:15:52 20.4 C 62 % 12.88 C
1017 13-08-2009 11:27:52 20.6 C 59 % 12.31 C
1018 13-08-2009 11:39:51 21.3 C 59 % 12.97 C
1019 13-08-2009 11:51:52 22.2 C 49 % 10.98 C
1020 13-08-2009 12:03:51 22.5 C 48 % 10.95 C
1021 13-08-2009 12:15:51 23.8 C 47 % 11.82 C
1022 13-08-2009 12:27:51 23.4 C 43 % 10.12 C
1023 13-08-2009 12:39:51 23.7 C 51 % 12.97 C
1024 13-08-2009 12:51:51 23.5 C 52 % 13.08 C
1025 13-08-2009 13:03:51 23 C 55 % 13.48 C
Sensor: Nr:Datum:Temp:Feuchte:Taupunkt:
Aussen-T/F 1026 13-08-2009 13:15:50 23 C 56 % 13.75 C
1027 13-08-2009 13:27:50 23.5 C 54 % 13.66 C
1028 13-08-2009 13:39:51 24.1 C 45 % 11.43 C
1029 13-08-2009 13:51:50 24.2 C 49 % 12.81 C
1030 13-08-2009 14:03:50 24.2 C 50 % 13.12 C
1031 13-08-2009 14:15:50 24.7 C 48 % 12.96 C
1032 13-08-2009 14:27:50 24.6 C 41 % 10.48 C
1033 13-08-2009 14:39:50 24.8 C 48 % 13.05 C
1034 13-08-2009 14:51:50 24.5 C 50 % 13.4 C
1035 13-08-2009 15:03:49 24.1 C 51 % 13.34 C
1036 13-08-2009 15:15:50 23.8 C 54 % 13.94 C
1037 13-08-2009 15:27:50 23.6 C 54 % 13.75 C
1038 13-08-2009 15:39:49 22 C 64 % 14.88 C
1039 13-08-2009 15:51:49 21 C 71 % 15.54 C
1040 13-08-2009 16:03:49 20.1 C 69 % 14.24 C
1041 13-08-2009 16:15:49 19.4 C 76 % 15.06 C
1042 13-08-2009 16:27:49 19 C 78 % 15.08 C
1043 13-08-2009 16:39:49 19 C 80 % 15.47 C
1044 13-08-2009 16:51:48 19.1 C 81 % 15.76 C
1045 13-08-2009 17:03:49 19 C 81 % 15.67 C
1046 13-08-2009 17:15:48 19 C 82 % 15.86 C
1047 13-08-2009 17:27:48 18.9 C 84 % 16.14 C
1048 13-08-2009 17:39:48 18.7 C 84 % 15.94 C
1049 13-08-2009 17:51:48 18.1 C 85 % 15.54 C
1050 13-08-2009 18:03:48 18.1 C 87 % 15.9 C
Sensor: Nr:Datum:Temp:Feuchte:Taupunkt:
Aussen-T/F 1051 13-08-2009 18:15:48 18.1 C 88 % 16.08 C
1052 13-08-2009 18:27:48 17.9 C 90 % 16.24 C
1053 13-08-2009 18:39:47 17.9 C 90 % 16.24 C
1054 13-08-2009 18:51:48 17.9 C 91 % 16.41 C
1055 13-08-2009 19:03:47 17.9 C 91 % 16.41 C
1056 13-08-2009 19:15:47 18 C 90 % 16.34 C
1057 13-08-2009 19:27:47 17.6 C 91 % 16.11 C
1058 13-08-2009 19:39:47 17.2 C 89 % 15.37 C
1059 13-08-2009 19:51:47 17.5 C 89 % 15.67 C
1060 13-08-2009 20:03:46 17.5 C 89 % 15.67 C
1061 13-08-2009 20:15:47 17.6 C 89 % 15.77 C
1062 13-08-2009 20:27:47 17.6 C 89 % 15.77 C
1063 13-08-2009 20:39:47 17.6 C 90 % 15.94 C
1064 13-08-2009 20:51:46 17.5 C 90 % 15.84 C
1065 13-08-2009 21:03:46 17.3 C 90 % 15.64 C
1066 13-08-2009 21:15:46 16.9 C 90 % 15.25 C
1067 13-08-2009 21:27:46 16.5 C 90 % 14.85 C
1068 13-08-2009 21:39:46 16.3 C 90 % 14.66 C
1069 13-08-2009 21:51:45 15.8 C 91 % 14.33 C
1070 13-08-2009 22:04:47 15.5 C 91 % 14.04 C
1071 13-08-2009 22:16:47 15.2 C 91 % 13.74 C
1072 13-08-2009 22:28:47 15.1 C 91 % 13.64 C
1073 13-08-2009 22:40:47 15 C 91 % 13.54 C
1074 13-08-2009 22:52:47 14.7 C 92 % 13.41 C
1075 13-08-2009 23:04:47 14.7 C 92 % 13.41 C
Sensor: Nr:Datum:Temp:Feuchte:Taupunkt:
Aussen-T/F 1076 13-08-2009 23:16:47 14.2 C 92 % 12.92 C
1077 13-08-2009 23:28:47 14.2 C 92 % 12.92 C
1078 13-08-2009 23:40:47 14.2 C 92 % 12.92 C
1079 13-08-2009 23:52:47 14.2 C 92 % 12.92 C
1080 14-08-2009 00:04:47 14.2 C 92 % 12.92 C
1081 14-08-2009 00:16:47 14.1 C 92 % 12.82 C
1082 14-08-2009 00:28:47 14 C 92 % 12.72 C
1083 14-08-2009 00:40:47 14.2 C 93 % 13.08 C
1084 14-08-2009 00:52:47 14.4 C 93 % 13.28 C
1085 14-08-2009 01:04:47 14.4 C 93 % 13.28 C
1086 14-08-2009 01:16:47 14.4 C 93 % 13.28 C
1087 14-08-2009 01:28:48 14.2 C 93 % 13.08 C
1088 14-08-2009 01:40:48 14.3 C 94 % 13.35 C
1089 14-08-2009 01:52:48 14.3 C 94 % 13.35 C
1090 14-08-2009 02:04:48 14.4 C 94 % 13.45 C
1091 14-08-2009 02:16:48 14.4 C 94 % 13.45 C
1092 14-08-2009 02:28:48 14.1 C 94 % 13.15 C
1093 14-08-2009 02:40:48 14.4 C 94 % 13.45 C
1094 14-08-2009 02:52:48 14.5 C 94 % 13.55 C
1095 14-08-2009 03:04:48 14.4 C 94 % 13.45 C
1096 14-08-2009 03:16:48 14.2 C 93 % 13.08 C
1097 14-08-2009 03:28:48 14 C 93 % 12.89 C
1098 14-08-2009 03:40:48 13.9 C 93 % 12.79 C
1099 14-08-2009 03:52:48 14 C 92 % 12.72 C
1100 14-08-2009 04:04:48 14.1 C 92 % 12.82 C
Sensor: Nr:Datum:Temp:Feuchte:Taupunkt:
Aussen-T/F 1101 14-08-2009 04:16:48 14.1 C 92 % 12.82 C
1102 14-08-2009 04:28:48 14.1 C 92 % 12.82 C
1103 14-08-2009 04:40:48 14 C 91 % 12.56 C
1104 14-08-2009 04:52:48 13.9 C 91 % 12.46 C
1105 14-08-2009 05:04:48 14 C 90 % 12.39 C
1106 14-08-2009 05:16:49 14.1 C 90 % 12.49 C
1107 14-08-2009 05:28:49 14.1 C 90 % 12.49 C
1108 14-08-2009 05:40:49 14.2 C 91 % 12.75 C
1109 14-08-2009 05:52:49 14.3 C 91 % 12.85 C
1110 14-08-2009 06:04:49 14.1 C 90 % 12.49 C
1111 14-08-2009 06:16:49 14 C 91 % 12.56 C
1112 14-08-2009 06:28:49 14 C 91 % 12.56 C
1113 14-08-2009 06:40:49 14 C 91 % 12.56 C
1114 14-08-2009 06:52:49 14 C 91 % 12.56 C
1115 14-08-2009 07:04:46 14.1 C 91 % 12.65 C
1116 14-08-2009 07:16:47 14.1 C 91 % 12.65 C
1117 14-08-2009 07:28:47 14.2 C 91 % 12.75 C
1118 14-08-2009 07:40:46 14.2 C 91 % 12.75 C
1119 14-08-2009 07:52:46 14.4 C 90 % 12.78 C
1120 14-08-2009 08:04:45 14.5 C 90 % 12.88 C
1121 14-08-2009 08:16:46 14.8 C 89 % 13.01 C
1122 14-08-2009 08:28:47 15.2 C 88 % 13.23 C
1123 14-08-2009 08:40:45 15.6 C 86 % 13.27 C
1124 14-08-2009 08:52:45 16 C 84 % 13.3 C
1125 14-08-2009 09:04:45 16.2 C 83 % 13.31 C
Sensor: Nr:Datum:Temp:Feuchte:Taupunkt:
Aussen-T/F 1126 14-08-2009 09:16:45 16.6 C 82 % 13.52 C
1127 14-08-2009 09:28:45 16.9 C 80 % 13.43 C
1128 14-08-2009 09:40:45 16.8 C 77 % 12.75 C
1129 14-08-2009 09:52:45 16.8 C 76 % 12.55 C
1130 14-08-2009 10:04:44 16.9 C 75 % 12.44 C
1131 14-08-2009 10:16:44 17 C 74 % 12.34 C
1132 14-08-2009 10:28:44 17.6 C 74 % 12.91 C
1133 14-08-2009 10:40:45 17.9 C 71 % 12.57 C
1134 14-08-2009 10:52:44 18.3 C 68 % 12.3 C
1135 14-08-2009 11:04:44 18.4 C 68 % 12.39 C
1136 14-08-2009 11:16:44 18.8 C 66 % 12.32 C
1137 14-08-2009 11:28:44 19.1 C 64 % 12.14 C
1138 14-08-2009 11:40:44 19.5 C 63 % 12.27 C
1139 14-08-2009 11:52:43 19.7 C 62 % 12.22 C
1140 14-08-2009 12:04:44 19.5 C 61 % 11.78 C
1141 14-08-2009 12:16:43 20.4 C 61 % 12.63 C
1142 14-08-2009 12:28:43 21.7 C 53 % 11.71 C
1143 14-08-2009 12:40:43 21.5 C 52 % 11.24 C
1144 14-08-2009 12:52:43 22.1 C 49 % 10.89 C
1145 14-08-2009 13:04:43 22 C 49 % 10.8 C
1146 14-08-2009 13:16:43 22.3 C 49 % 11.08 C
1147 14-08-2009 13:28:43 22.8 C 48 % 11.22 C
1148 14-08-2009 13:40:42 23.8 C 44 % 10.82 C
1149 14-08-2009 13:52:43 24 C 40 % 9.58 C
1150 14-08-2009 14:04:42 24.2 C 40 % 9.75 C
Sensor: Nr:Datum:Temp:Feuchte:Taupunkt:
Aussen-T/F 1151 14-08-2009 14:16:42 24.9 C 40 % 10.38 C
1152 14-08-2009 14:28:42 25.3 C 38 % 9.97 C
1153 14-08-2009 14:40:42 25.1 C 35 % 8.57 C
1154 14-08-2009 14:52:42 25.8 C 34 % 8.76 C
1155 14-08-2009 15:04:42 26.2 C 32 % 8.21 C
1156 14-08-2009 15:16:41 26 C 30 % 7.09 C
1157 14-08-2009 15:28:41 26.5 C 30 % 7.53 C
1158 14-08-2009 15:40:42 25.8 C 31 % 7.4 C
1159 14-08-2009 15:52:41 26.6 C 29 % 7.12 C
1160 14-08-2009 16:04:41 25.6 C 31 % 7.23 C
1161 14-08-2009 16:16:41 26.2 C 29 % 6.77 C
1162 14-08-2009 16:28:41 27.6 C 28 % 7.46 C
1163 14-08-2009 16:40:41 27.5 C 27 % 6.84 C
1164 14-08-2009 16:52:40 27.7 C 27 % 7.01 C
1165 14-08-2009 17:04:41 28.2 C 25 % 6.32 C
1166 14-08-2009 17:16:41 28.4 C 25 % 6.49 C
1167 14-08-2009 17:28:41 29 C 25 % 6.99 C
1168 14-08-2009 17:40:40 29.2 C 25 % 7.16 C
1169 14-08-2009 17:52:41 30 C 24 % 7.24 C
1170 14-08-2009 18:04:40 29.7 C 22 % 5.73 C
1171 14-08-2009 18:16:40 29.1 C 25 % 7.08 C
1172 14-08-2009 18:28:40 29.5 C 28 % 9.08 C
1173 14-08-2009 18:40:39 28.9 C 26 % 7.48 C
1174 14-08-2009 18:52:40 28.9 C 28 % 8.57 C
1175 14-08-2009 19:04:40 27.8 C 32 % 9.6 C
Sensor: Nr:Datum:Temp:Feuchte:Taupunkt:
Aussen-T/F 1176 14-08-2009 19:16:39 26.7 C 35 % 9.98 C
1177 14-08-2009 19:28:39 25.8 C 37 % 10.01 C
1178 14-08-2009 19:40:40 25.4 C 38 % 10.06 C
1179 14-08-2009 19:52:39 24.9 C 40 % 10.38 C
1180 14-08-2009 20:04:39 24.5 C 41 % 10.39 C
1181 14-08-2009 20:16:39 23.7 C 43 % 10.39 C
1182 14-08-2009 20:28:39 22.5 C 46 % 10.31 C
1183 14-08-2009 20:40:39 21.4 C 50 % 10.55 C
1184 14-08-2009 20:52:38 20.5 C 53 % 10.6 C
1185 14-08-2009 21:04:38 20.1 C 52 % 9.94 C
1186 14-08-2009 21:16:39 19.7 C 55 % 10.41 C
1187 14-08-2009 21:28:39 19.7 C 55 % 10.41 C
1188 14-08-2009 21:40:38 19.2 C 57 % 10.48 C
1189 14-08-2009 21:52:38 19.2 C 61 % 11.5 C
1190 14-08-2009 22:05:38 19 C 61 % 11.31 C
1191 14-08-2009 22:17:38 18.8 C 63 % 11.61 C
1192 14-08-2009 22:29:38 18.6 C 62 % 11.18 C
1193 14-08-2009 22:41:38 18.5 C 63 % 11.33 C
1194 14-08-2009 22:53:38 18.2 C 64 % 11.28 C
1195 14-08-2009 23:05:39 17.9 C 66 % 11.46 C
1196 14-08-2009 23:17:39 17.6 C 66 % 11.18 C
1197 14-08-2009 23:29:39 17.5 C 67 % 11.31 C
1198 14-08-2009 23:41:39 17.2 C 66 % 10.8 C
1199 14-08-2009 23:53:39 17.1 C 67 % 10.93 C
1200 15-08-2009 00:05:39 16.9 C 69 % 11.18 C
Sensor: Nr:Datum:Temp:Feuchte:Taupunkt:
Aussen-T/F 1201 15-08-2009 00:17:39 16.7 C 69 % 10.99 C
1202 15-08-2009 00:29:39 16.6 C 70 % 11.11 C
1203 15-08-2009 00:41:39 16.5 C 71 % 11.23 C
1204 15-08-2009 00:53:39 16.3 C 73 % 11.46 C
1205 15-08-2009 01:05:39 16.1 C 74 % 11.47 C
1206 15-08-2009 01:17:39 15.9 C 76 % 11.68 C
1207 15-08-2009 01:29:39 15.8 C 77 % 11.78 C
1208 15-08-2009 01:41:39 15.8 C 77 % 11.78 C
1209 15-08-2009 01:53:39 15.4 C 78 % 11.59 C
1210 15-08-2009 02:05:39 15.2 C 79 % 11.59 C
1211 15-08-2009 02:17:39 15.2 C 80 % 11.78 C
1212 15-08-2009 02:29:39 15.1 C 80 % 11.68 C
1213 15-08-2009 02:41:39 15 C 81 % 11.77 C
1214 15-08-2009 02:53:40 14.9 C 82 % 11.86 C
1215 15-08-2009 03:05:40 14.9 C 82 % 11.86 C
1216 15-08-2009 03:17:40 14.8 C 83 % 11.94 C
1217 15-08-2009 03:29:40 14.4 C 83 % 11.55 C
1218 15-08-2009 03:41:40 14.3 C 83 % 11.45 C
1219 15-08-2009 03:53:40 14.2 C 83 % 11.36 C
1220 15-08-2009 04:05:40 14.2 C 83 % 11.36 C
1221 15-08-2009 04:17:40 14.1 C 83 % 11.26 C
1222 15-08-2009 04:29:40 13.9 C 85 % 11.42 C
1223 15-08-2009 04:41:40 13.8 C 86 % 11.5 C
1224 15-08-2009 04:53:40 13.7 C 87 % 11.58 C
1225 15-08-2009 05:05:40 13.8 C 88 % 11.85 C
Sensor: Nr:Datum:Temp:Feuchte:Taupunkt:
Aussen-T/F 1226 15-08-2009 05:17:40 13.7 C 88 % 11.75 C
1227 15-08-2009 05:29:40 13.5 C 88 % 11.55 C
1228 15-08-2009 05:41:40 13.8 C 88 % 11.85 C
1229 15-08-2009 05:53:40 13.9 C 87 % 11.77 C
1230 15-08-2009 06:05:40 14 C 87 % 11.87 C
1231 15-08-2009 06:17:40 14 C 86 % 11.7 C
1232 15-08-2009 06:29:40 14 C 85 % 11.52 C
1233 15-08-2009 06:41:41 13.8 C 86 % 11.5 C
1234 15-08-2009 06:53:41 13.9 C 85 % 11.42 C
1235 15-08-2009 07:05:41 13.9 C 85 % 11.42 C
1236 15-08-2009 07:17:41 13.7 C 85 % 11.23 C
1237 15-08-2009 07:29:41 13.6 C 85 % 11.13 C
1238 15-08-2009 07:41:41 13.8 C 86 % 11.5 C
1239 15-08-2009 07:53:41 13.8 C 85 % 11.32 C
1240 15-08-2009 08:05:41 14.1 C 84 % 11.44 C
1241 15-08-2009 08:17:41 14.1 C 83 % 11.26 C
1242 15-08-2009 08:29:41 14.4 C 84 % 11.73 C
1243 15-08-2009 08:41:38 14.2 C 82 % 11.17 C
1244 15-08-2009 08:53:38 14.6 C 83 % 11.75 C
1245 15-08-2009 09:05:38 15 C 79 % 11.39 C
1246 15-08-2009 09:17:37 14.8 C 80 % 11.39 C
1247 15-08-2009 09:29:37 15 C 79 % 11.39 C
1248 15-08-2009 09:41:37 15.3 C 80 % 11.87 C
1249 15-08-2009 09:53:37 15.9 C 78 % 12.07 C
1250 15-08-2009 10:05:37 16.2 C 75 % 11.77 C
Sensor: Nr:Datum:Temp:Feuchte:Taupunkt:
Aussen-T/F 1251 15-08-2009 10:17:37 17.1 C 74 % 12.43 C
1252 15-08-2009 10:29:37 17.9 C 73 % 12.99 C
1253 15-08-2009 10:41:36 18.5 C 72 % 13.36 C
1254 15-08-2009 10:53:37 19.2 C 68 % 13.15 C
1255 15-08-2009 11:05:36 19.8 C 65 % 13.03 C
1256 15-08-2009 11:17:36 20.8 C 62 % 13.26 C
1257 15-08-2009 11:29:36 21.4 C 59 % 13.06 C
1258 15-08-2009 11:41:37 22.1 C 56 % 12.92 C
1259 15-08-2009 11:53:36 22.9 C 53 % 12.82 C
1260 15-08-2009 12:05:36 23.3 C 48 % 11.68 C
1261 15-08-2009 12:17:36 23.9 C 43 % 10.57 C
1262 15-08-2009 12:29:36 24 C 40 % 9.58 C
1263 15-08-2009 12:41:36 24.5 C 40 % 10.02 C
1264 15-08-2009 12:53:35 24.9 C 36 % 8.81 C
1265 15-08-2009 13:05:35 25.3 C 35 % 8.75 C
1266 15-08-2009 13:17:35 25.6 C 32 % 7.69 C
1267 15-08-2009 13:29:35 26.6 C 31 % 8.09 C
1268 15-08-2009 13:41:35 27.2 C 30 % 8.13 C
1269 15-08-2009 13:53:34 27.2 C 30 % 8.13 C
1270 15-08-2009 14:05:35 27.4 C 30 % 8.3 C
1271 15-08-2009 14:17:35 27.7 C 31 % 9.04 C
1272 15-08-2009 14:29:35 27.9 C 30 % 8.73 C
1273 15-08-2009 14:41:34 28.3 C 30 % 9.07 C
1274 15-08-2009 14:53:34 28.8 C 29 % 9 C
1275 15-08-2009 15:05:35 29.4 C 29 % 9.52 C
Sensor: Nr:Datum:Temp:Feuchte:Taupunkt:
Aussen-T/F 1276 15-08-2009 15:17:34 29.8 C 27 % 8.8 C
1277 15-08-2009 15:29:34 30 C 25 % 7.83 C
1278 15-08-2009 15:41:34 30.2 C 26 % 8.58 C
1279 15-08-2009 15:53:34 30.4 C 26 % 8.75 C
1280 15-08-2009 16:05:34 30.8 C 23 % 7.28 C
1281 15-08-2009 16:17:33 30.6 C 23 % 7.12 C
1282 15-08-2009 16:29:33 30.8 C 23 % 7.28 C
1283 15-08-2009 16:41:33 31.4 C 23 % 7.78 C
1284 15-08-2009 16:53:33 31.8 C 20 % 6.08 C
1285 15-08-2009 17:05:33 31.4 C 20 % 5.75 C
1286 15-08-2009 17:17:33 32 C 20 % 6.24 C
1287 15-08-2009 17:29:33 31.9 C 20 % 6.16 C
1288 15-08-2009 17:41:33 31.7 C 20 % 6 C
1289 15-08-2009 17:53:33 31.7 C 20 % 6 C
1290 15-08-2009 18:05:32 31.5 C 20 % 5.83 C
1291 15-08-2009 18:17:32 31.7 C 20 % 6 C
1292 15-08-2009 18:29:33 31.3 C 20 % 5.67 C
1293 15-08-2009 18:41:32 31.4 C 20 % 5.75 C
1294 15-08-2009 18:53:32 31.2 C 20 % 5.59 C
1295 15-08-2009 19:05:32 31.2 C 20 % 5.59 C
1296 15-08-2009 19:17:32 31.2 C 20 % 5.59 C
1297 15-08-2009 19:29:32 31.2 C 23 % 7.62 C
1298 15-08-2009 19:41:32 30.9 C 25 % 8.59 C
1299 15-08-2009 19:53:31 30.2 C 25 % 8 C
1300 15-08-2009 20:05:32 29.4 C 27 % 8.46 C
Sensor: Nr:Datum:Temp:Feuchte:Taupunkt:
Aussen-T/F 1301 15-08-2009 20:17:31 28.3 C 30 % 9.07 C
1302 15-08-2009 20:29:31 26.9 C 33 % 9.28 C
1303 15-08-2009 20:41:31 25.9 C 37 % 10.1 C
1304 15-08-2009 20:53:31 25.2 C 39 % 10.27 C
1305 15-08-2009 21:05:31 24.5 C 40 % 10.02 C
1306 15-08-2009 21:17:31 24 C 43 % 10.66 C
1307 15-08-2009 21:29:31 23.7 C 46 % 11.4 C
1308 15-08-2009 21:41:30 23.2 C 48 % 11.59 C
1309 15-08-2009 21:53:30 22.8 C 48 % 11.22 C
1310 15-08-2009 22:05:30 22.4 C 48 % 10.86 C
1311 15-08-2009 22:17:30 22 C 50 % 11.11 C
1312 15-08-2009 22:29:30 21.9 C 51 % 11.31 C
1313 15-08-2009 22:42:31 21.8 C 51 % 11.22 C
1314 15-08-2009 22:54:31 21.5 C 53 % 11.52 C
1315 15-08-2009 23:06:31 21.3 C 53 % 11.34 C
1316 15-08-2009 23:18:31 20.9 C 55 % 11.53 C
1317 15-08-2009 23:30:31 20.6 C 56 % 11.52 C
1318 15-08-2009 23:42:31 20.5 C 56 % 11.43 C
1319 15-08-2009 23:54:31 20.2 C 57 % 11.42 C
1320 16-08-2009 00:06:31 20.1 C 58 % 11.58 C
1321 16-08-2009 00:18:31 19.8 C 59 % 11.56 C
1322 16-08-2009 00:30:31 19.7 C 59 % 11.47 C
1323 16-08-2009 00:42:31 19.3 C 61 % 11.6 C
1324 16-08-2009 00:54:31 19.1 C 62 % 11.65 C
1325 16-08-2009 01:06:31 18.9 C 63 % 11.71 C
Sensor: Nr:Datum:Temp:Feuchte:Taupunkt:
Aussen-T/F 1326 16-08-2009 01:18:31 18.5 C 64 % 11.57 C
1327 16-08-2009 01:30:31 18.5 C 64 % 11.57 C
1328 16-08-2009 01:42:31 18.3 C 66 % 11.84 C
1329 16-08-2009 01:54:32 18.2 C 66 % 11.75 C
1330 16-08-2009 02:06:32 18 C 66 % 11.56 C
1331 16-08-2009 02:18:32 17.9 C 67 % 11.69 C
1332 16-08-2009 02:30:32 17.8 C 69 % 12.04 C
1333 16-08-2009 02:42:32 17.6 C 70 % 12.07 C
1334 16-08-2009 02:54:32 17.5 C 71 % 12.19 C
1335 16-08-2009 03:06:32 17.3 C 71 % 12 C
1336 16-08-2009 03:18:32 17.1 C 72 % 12.02 C
1337 16-08-2009 03:30:32 17 C 72 % 11.92 C
1338 16-08-2009 03:42:32 16.8 C 73 % 11.94 C
1339 16-08-2009 03:54:32 16.7 C 74 % 12.05 C
1340 16-08-2009 04:06:32 16.5 C 74 % 11.85 C
1341 16-08-2009 04:18:32 16.4 C 75 % 11.96 C
1342 16-08-2009 04:30:32 16.3 C 76 % 12.07 C
1343 16-08-2009 04:42:32 16.2 C 77 % 12.17 C
1344 16-08-2009 04:54:32 16 C 77 % 11.97 C
1345 16-08-2009 05:06:32 15.9 C 79 % 12.27 C
1346 16-08-2009 05:18:32 15.9 C 79 % 12.27 C
1347 16-08-2009 05:30:32 15.9 C 79 % 12.27 C
1348 16-08-2009 05:42:33 15.8 C 79 % 12.17 C
1349 16-08-2009 05:54:33 15.7 C 79 % 12.07 C
1350 16-08-2009 06:06:33 15.6 C 79 % 11.97 C
Sensor: Nr:Datum:Temp:Feuchte:Taupunkt:
Aussen-T/F 1351 16-08-2009 06:18:33 15.6 C 79 % 11.97 C
1352 16-08-2009 06:30:33 15.5 C 79 % 11.88 C
1353 16-08-2009 06:42:33 15.5 C 80 % 12.07 C
1354 16-08-2009 06:54:33 15.4 C 79 % 11.78 C
1355 16-08-2009 07:06:33 15.5 C 79 % 11.88 C
1356 16-08-2009 07:18:33 15.5 C 80 % 12.07 C
1357 16-08-2009 07:30:33 15.5 C 80 % 12.07 C
1358 16-08-2009 07:42:33 15.6 C 80 % 12.16 C
1359 16-08-2009 07:54:33 15.7 C 80 % 12.26 C
1360 16-08-2009 08:06:33 15.9 C 80 % 12.46 C
1361 16-08-2009 08:18:30 16 C 79 % 12.36 C
1362 16-08-2009 08:30:30 16.4 C 79 % 12.75 C
1363 16-08-2009 08:42:30 16.6 C 78 % 12.75 C
1364 16-08-2009 08:54:30 16.8 C 78 % 12.94 C
1365 16-08-2009 09:06:30 17.2 C 76 % 12.94 C
1366 16-08-2009 09:18:30 17.6 C 74 % 12.91 C
1367 16-08-2009 09:30:30 18.1 C 73 % 13.19 C
1368 16-08-2009 09:42:30 18.7 C 73 % 13.76 C
1369 16-08-2009 09:54:29 19.3 C 70 % 13.69 C
1370 16-08-2009 10:06:29 20 C 67 % 13.69 C
1371 16-08-2009 10:18:29 20.8 C 65 % 13.98 C
1372 16-08-2009 10:30:29 21.5 C 62 % 13.92 C
1373 16-08-2009 10:42:29 21.9 C 62 % 14.29 C
1374 16-08-2009 10:54:28 22.6 C 62 % 14.95 C
1375 16-08-2009 11:06:29 23.6 C 62 % 15.89 C
Sensor: Nr:Datum:Temp:Feuchte:Taupunkt:
Aussen-T/F 1376 16-08-2009 11:18:29 24 C 55 % 14.41 C
1377 16-08-2009 11:30:28 25 C 48 % 13.23 C
1378 16-08-2009 11:42:28 25.8 C 42 % 11.92 C
1379 16-08-2009 11:54:29 26.8 C 42 % 12.82 C
1380 16-08-2009 12:06:28 27.2 C 38 % 11.65 C
1381 16-08-2009 12:18:28 27.6 C 35 % 10.77 C
1382 16-08-2009 12:30:27 28.1 C 35 % 11.2 C
1383 16-08-2009 12:42:27 28.6 C 33 % 10.76 C
1384 16-08-2009 12:54:28 29 C 32 % 10.64 C
1385 16-08-2009 13:06:27 29.6 C 31 % 10.68 C
1386 16-08-2009 13:18:27 30 C 28 % 9.51 C
1387 16-08-2009 13:30:28 30.6 C 26 % 8.92 C
1388 16-08-2009 13:42:28 30.7 C 25 % 8.42 C
1389 16-08-2009 13:54:27 31.1 C 25 % 8.76 C
1390 16-08-2009 14:06:27 31 C 25 % 8.67 C
1391 16-08-2009 14:18:27 31.4 C 24 % 8.41 C
1392 16-08-2009 14:30:27 31.7 C 22 % 7.38 C
1393 16-08-2009 14:42:27 31.8 C 20 % 6.08 C
1394 16-08-2009 14:54:26 32 C 20 % 6.24 C
1395 16-08-2009 15:06:27 32.2 C 20 % 6.41 C
1396 16-08-2009 15:18:26 32 C 20 % 6.24 C
1397 16-08-2009 15:30:26 32.3 C 20 % 6.49 C
1398 16-08-2009 15:42:26 32.4 C 20 % 6.57 C
1399 16-08-2009 15:54:26 32.9 C 20 % 6.98 C
1400 16-08-2009 16:06:26 32.9 C 20 % 6.98 C
Sensor: Nr:Datum:Temp:Feuchte:Taupunkt:
Aussen-T/F 1401 16-08-2009 16:18:26 32.9 C 20 % 6.98 C
1402 16-08-2009 16:30:25 32.9 C 20 % 6.98 C
1403 16-08-2009 16:42:25 32.6 C 20 % 6.73 C
1404 16-08-2009 16:54:26 32.9 C 20 % 6.98 C
1405 16-08-2009 17:06:25 33 C 20 % 7.06 C
1406 16-08-2009 17:18:25 32.8 C 20 % 6.9 C
1407 16-08-2009 17:30:25 32.5 C 20 % 6.65 C
1408 16-08-2009 17:42:25 32.9 C 20 % 6.98 C
1409 16-08-2009 17:54:25 32.7 C 20 % 6.81 C
1410 16-08-2009 18:06:24 32.6 C 20 % 6.73 C
1411 16-08-2009 18:18:24 32.4 C 20 % 6.57 C
1412 16-08-2009 18:30:25 32.4 C 21 % 7.28 C
1413 16-08-2009 18:42:25 32.1 C 24 % 8.99 C
1414 16-08-2009 18:54:24 32 C 24 % 8.91 C
1415 16-08-2009 19:06:24 31.6 C 28 % 10.87 C
1416 16-08-2009 19:18:24 32 C 27 % 10.66 C
1417 16-08-2009 19:30:24 31.9 C 26 % 10.02 C
1418 16-08-2009 19:42:24 31.7 C 26 % 9.85 C
1419 16-08-2009 19:54:23 30.7 C 31 % 11.63 C
1420 16-08-2009 20:06:24 30.4 C 32 % 11.85 C
1421 16-08-2009 20:18:23 30.1 C 32 % 11.59 C
1422 16-08-2009 20:30:23 29 C 35 % 11.99 C
1423 16-08-2009 20:42:23 28.3 C 38 % 12.63 C
1424 16-08-2009 20:54:23 27.1 C 40 % 12.34 C
1425 16-08-2009 21:06:23 26.9 C 43 % 13.27 C
Sensor: Nr:Datum:Temp:Feuchte:Taupunkt:
Aussen-T/F 1426 16-08-2009 21:18:23 26.5 C 44 % 13.26 C
1427 16-08-2009 21:30:22 26.4 C 44 % 13.17 C
1428 16-08-2009 21:42:22 25.9 C 45 % 13.06 C
1429 16-08-2009 21:54:23 25.7 C 47 % 13.55 C
1430 16-08-2009 22:07:23 25.3 C 48 % 13.5 C
1431 16-08-2009 22:19:23 25 C 49 % 13.55 C
1432 16-08-2009 22:31:23 24.7 C 52 % 14.19 C
1433 16-08-2009 22:43:23 24.4 C 51 % 13.61 C
1434 16-08-2009 22:55:23 24.2 C 52 % 13.73 C
1435 16-08-2009 23:07:23 23.8 C 54 % 13.94 C
1436 16-08-2009 23:19:23 23.7 C 55 % 14.13 C
1437 16-08-2009 23:31:23 23.4 C 56 % 14.13 C
1438 16-08-2009 23:43:24 23.2 C 57 % 14.21 C
1439 16-08-2009 23:55:24 23.1 C 57 % 14.12 C
1440 17-08-2009 00:07:24 22.9 C 59 % 14.47 C
1441 17-08-2009 00:19:24 22.8 C 59 % 14.37 C
1442 17-08-2009 00:31:24 22.7 C 59 % 14.28 C
1443 17-08-2009 00:43:24 22.3 C 60 % 14.16 C
1444 17-08-2009 00:55:24 22 C 61 % 14.14 C
1445 17-08-2009 01:07:24 21.8 C 61 % 13.95 C
1446 17-08-2009 01:19:24 21.6 C 62 % 14.01 C
1447 17-08-2009 01:31:24 21.6 C 61 % 13.76 C
1448 17-08-2009 01:43:24 21.3 C 62 % 13.73 C
1449 17-08-2009 01:55:24 21.2 C 62 % 13.63 C
1450 17-08-2009 02:07:24 21 C 64 % 13.93 C
Sensor: Nr:Datum:Temp:Feuchte:Taupunkt:
Aussen-T/F 1451 17-08-2009 02:19:24 20.8 C 65 % 13.98 C
1452 17-08-2009 02:31:24 20.7 C 66 % 14.12 C
1453 17-08-2009 02:43:24 20.6 C 66 % 14.03 C
1454 17-08-2009 02:55:24 20.2 C 68 % 14.11 C
1455 17-08-2009 03:07:24 20 C 68 % 13.92 C
1456 17-08-2009 03:19:24 19.7 C 70 % 14.08 C
1457 17-08-2009 03:31:25 19.6 C 72 % 14.42 C
1458 17-08-2009 03:43:25 19.4 C 73 % 14.44 C
1459 17-08-2009 03:55:25 19.3 C 72 % 14.13 C
1460 17-08-2009 04:07:25 19.2 C 73 % 14.25 C
1461 17-08-2009 04:19:25 18.9 C 75 % 14.37 C
1462 17-08-2009 04:31:25 18.8 C 76 % 14.48 C
1463 17-08-2009 04:43:25 18.7 C 75 % 14.18 C
1464 17-08-2009 04:55:25 18.6 C 76 % 14.29 C
1465 17-08-2009 05:07:25 18.4 C 77 % 14.3 C
1466 17-08-2009 05:19:25 18.3 C 77 % 14.2 C
1467 17-08-2009 05:31:25 18.1 C 78 % 14.21 C
1468 17-08-2009 05:43:25 18 C 78 % 14.11 C
1469 17-08-2009 05:55:25 18 C 78 % 14.11 C
1470 17-08-2009 06:07:25 18 C 78 % 14.11 C
1471 17-08-2009 06:19:25 17.8 C 80 % 14.31 C
1472 17-08-2009 06:31:25 17.7 C 80 % 14.21 C
1473 17-08-2009 06:43:25 17.8 C 80 % 14.31 C
1474 17-08-2009 06:55:23 18 C 79 % 14.31 C
1475 17-08-2009 07:07:23 18.2 C 78 % 14.3 C
Sensor: Nr:Datum:Temp:Feuchte:Taupunkt:
Aussen-T/F 1476 17-08-2009 07:19:23 18.3 C 78 % 14.4 C
1477 17-08-2009 07:31:23 18.4 C 77 % 14.3 C
1478 17-08-2009 07:43:23 18.3 C 77 % 14.2 C
1479 17-08-2009 07:55:23 18.7 C 77 % 14.59 C
1480 17-08-2009 08:07:22 18.8 C 75 % 14.28 C
1481 17-08-2009 08:19:02 18.8 C 75 % 14.28 C
1482 17-08-2009 08:31:01 19.1 C 74 % 14.36 C
1483 17-08-2009 08:43:01 19.5 C 73 % 14.53 C
1484 17-08-2009 08:55:02 19.7 C 71 % 14.3 C
1485 17-08-2009 09:07:02 19.9 C 71 % 14.49 C
1486 17-08-2009 09:19:01 20.5 C 68 % 14.39 C
1487 17-08-2009 09:31:01 21.1 C 65 % 14.27 C
1488 17-08-2009 09:43:02 21.4 C 64 % 14.31 C
1489 17-08-2009 09:55:01 21.2 C 64 % 14.12 C
1490 17-08-2009 10:07:01 21.6 C 64 % 14.5 C
1491 17-08-2009 10:19:01 22.2 C 62 % 14.58 C
1492 17-08-2009 10:31:00 23 C 58 % 14.29 C
1493 17-08-2009 10:43:00 23.5 C 58 % 14.76 C
1494 17-08-2009 10:55:01 24.1 C 54 % 14.21 C
1495 17-08-2009 11:07:00 25 C 51 % 14.16 C
1496 17-08-2009 11:19:00 25.5 C 49 % 14 C
1497 17-08-2009 11:30:59 26.1 C 48 % 14.23 C
1498 17-08-2009 11:42:59 27 C 45 % 14.06 C
1499 17-08-2009 11:55:00 27.2 C 44 % 13.89 C
1500 17-08-2009 12:07:59 27.5 C 44 % 14.16 C
Sensor: Nr:Datum:Temp:Feuchte:Taupunkt:
Aussen-T/F 1501 17-08-2009 12:19:59 27.9 C 40 % 13.05 C
1502 17-08-2009 12:31:00 28.1 C 40 % 13.23 C
1503 17-08-2009 12:43:00 28.5 C 38 % 12.8 C
1504 17-08-2009 12:55:59 29.1 C 38 % 13.34 C
1505 17-08-2009 13:07:59 29.7 C 35 % 12.61 C
1506 17-08-2009 13:19:59 29.4 C 34 % 11.9 C
1507 17-08-2009 13:31:59 30 C 34 % 12.43 C
1508 17-08-2009 13:43:59 29.9 C 33 % 11.89 C
1509 17-08-2009 13:55:58 29.7 C 35 % 12.61 C
1510 17-08-2009 14:07:59 30.3 C 34 % 12.69 C
1511 17-08-2009 14:19:59 30.3 C 32 % 11.77 C
1512 17-08-2009 14:31:58 29.4 C 34 % 11.9 C
1513 17-08-2009 14:43:58 30.1 C 31 % 11.12 C
1514 17-08-2009 14:55:58 30.6 C 31 % 11.55 C
1515 17-08-2009 15:07:58 30.9 C 30 % 11.31 C
1516 17-08-2009 15:19:58 29.8 C 34 % 12.25 C
1517 17-08-2009 15:31:57 28.9 C 36 % 12.33 C
1518 17-08-2009 15:43:57 30 C 32 % 11.51 C
1519 17-08-2009 15:55:58 29.5 C 35 % 12.43 C
1520 17-08-2009 16:07:57 29.5 C 36 % 12.86 C
1521 17-08-2009 16:19:57 29.5 C 34 % 11.99 C
1522 17-08-2009 16:31:57 29.1 C 35 % 12.08 C
1523 17-08-2009 16:43:57 30.8 C 31 % 11.72 C
1524 17-08-2009 16:55:57 30.6 C 30 % 11.05 C
1525 17-08-2009 17:07:57 29.3 C 33 % 11.37 C
Sensor: Nr:Datum:Temp:Feuchte:Taupunkt:
Aussen-T/F 1526 17-08-2009 17:19:56 29.4 C 34 % 11.9 C
1527 17-08-2009 17:31:57 28.7 C 34 % 11.29 C
1528 17-08-2009 17:43:57 29 C 33 % 11.1 C
1529 17-08-2009 17:55:56 29.6 C 30 % 10.19 C
1530 17-08-2009 18:07:56 30.3 C 28 % 9.76 C
1531 17-08-2009 18:19:56 29.4 C 30 % 10.02 C
1532 17-08-2009 18:31:56 28.4 C 32 % 10.12 C
1533 17-08-2009 18:43:56 28.2 C 32 % 9.95 C
1534 17-08-2009 18:55:56 28.1 C 31 % 9.39 C
1535 17-08-2009 19:07:55 27.9 C 32 % 9.69 C
1536 17-08-2009 19:19:56 27.6 C 32 % 9.43 C
1537 17-08-2009 19:31:55 26 C 35 % 9.36 C
1538 17-08-2009 19:43:55 26.2 C 36 % 9.96 C
1539 17-08-2009 19:55:55 25.8 C 38 % 10.41 C
1540 17-08-2009 20:07:55 24.6 C 41 % 10.48 C
1541 17-08-2009 20:19:55 23.8 C 43 % 10.48 C
1542 17-08-2009 20:31:55 23.3 C 42 % 9.68 C
1543 17-08-2009 20:43:55 23.2 C 42 % 9.59 C
1544 17-08-2009 20:55:55 23 C 40 % 8.68 C
1545 17-08-2009 21:07:54 22.8 C 40 % 8.5 C
1546 17-08-2009 21:19:54 22.3 C 41 % 8.42 C
1547 17-08-2009 21:31:54 22.4 C 43 % 9.22 C
1548 17-08-2009 21:43:54 22 C 43 % 8.85 C
1549 17-08-2009 21:55:54 21.6 C 46 % 9.49 C
1550 17-08-2009 22:08:55 21.4 C 47 % 9.63 C
Sensor: Nr:Datum:Temp:Feuchte:Taupunkt:
Aussen-T/F 1551 17-08-2009 22:20:55 21.2 C 48 % 9.76 C
1552 17-08-2009 22:32:55 21 C 48 % 9.58 C
1553 17-08-2009 22:44:55 20.9 C 49 % 9.79 C
1554 17-08-2009 22:56:55 20.8 C 50 % 10 C
1555 17-08-2009 23:08:55 20.8 C 51 % 10.3 C
1556 17-08-2009 23:20:55 20.8 C 51 % 10.3 C
1557 17-08-2009 23:32:55 20.6 C 53 % 10.69 C
1558 17-08-2009 23:44:55 20.8 C 53 % 10.88 C
1559 17-08-2009 23:56:55 20.6 C 54 % 10.97 C
1560 18-08-2009 00:08:55 20.2 C 55 % 10.88 C
1561 18-08-2009 00:20:55 20 C 55 % 10.69 C
1562 18-08-2009 00:32:55 20 C 56 % 10.96 C
1563 18-08-2009 00:44:55 19.8 C 56 % 10.78 C
1564 18-08-2009 00:56:55 19.5 C 56 % 10.5 C
1565 18-08-2009 01:08:55 19.2 C 57 % 10.48 C
1566 18-08-2009 01:20:56 19 C 57 % 10.3 C
1567 18-08-2009 01:32:56 18.8 C 58 % 10.37 C
1568 18-08-2009 01:44:56 18.6 C 59 % 10.44 C
1569 18-08-2009 01:56:56 18.4 C 60 % 10.5 C
1570 18-08-2009 02:08:56 18.3 C 60 % 10.41 C
1571 18-08-2009 02:20:56 18.1 C 61 % 10.47 C
1572 18-08-2009 02:32:56 18 C 61 % 10.37 C
1573 18-08-2009 02:44:56 17.9 C 63 % 10.76 C
1574 18-08-2009 02:56:56 17.7 C 64 % 10.81 C
1575 18-08-2009 03:08:56 17.4 C 65 % 10.76 C
Sensor: Nr:Datum:Temp:Feuchte:Taupunkt:
Aussen-T/F 1576 18-08-2009 03:20:56 17.2 C 66 % 10.8 C
1577 18-08-2009 03:32:56 16.9 C 67 % 10.74 C
1578 18-08-2009 03:44:56 16.6 C 69 % 10.89 C
1579 18-08-2009 03:56:56 16.4 C 70 % 10.92 C
1580 18-08-2009 04:08:56 16.2 C 73 % 11.36 C
1581 18-08-2009 04:20:56 16.1 C 73 % 11.26 C
1582 18-08-2009 04:32:56 15.8 C 74 % 11.18 C
1583 18-08-2009 04:44:56 15.8 C 73 % 10.97 C
1584 18-08-2009 04:56:56 15.6 C 74 % 10.99 C
1585 18-08-2009 05:08:57 15.5 C 74 % 10.89 C
1586 18-08-2009 05:20:57 15.3 C 76 % 11.1 C
1587 18-08-2009 05:32:57 15.2 C 76 % 11 C
1588 18-08-2009 05:44:57 14.9 C 78 % 11.1 C
1589 18-08-2009 05:56:57 14.8 C 79 % 11.2 C
1590 18-08-2009 06:08:57 14.6 C 80 % 11.19 C
1591 18-08-2009 06:20:57 14.5 C 80 % 11.09 C
1592 18-08-2009 06:32:57 14.2 C 81 % 10.99 C
1593 18-08-2009 06:44:57 14.3 C 81 % 11.09 C
1594 18-08-2009 06:56:57 14.3 C 81 % 11.09 C
1595 18-08-2009 07:08:55 14.2 C 81 % 10.99 C
1596 18-08-2009 07:20:55 14.3 C 82 % 11.27 C
1597 18-08-2009 07:32:54 14.4 C 82 % 11.37 C
1598 18-08-2009 07:44:55 14.3 C 82 % 11.27 C
1599 18-08-2009 07:56:55 14.4 C 82 % 11.37 C
1600 18-08-2009 08:08:54 14.4 C 82 % 11.37 C
Sensor: Nr:Datum:Temp:Feuchte:Taupunkt:
Aussen-T/F 1601 18-08-2009 08:20:54 14.7 C 82 % 11.66 C
1602 18-08-2009 08:32:54 14.9 C 81 % 11.67 C
1603 18-08-2009 08:44:54 15.2 C 80 % 11.78 C
1604 18-08-2009 08:56:54 15.4 C 79 % 11.78 C
1605 18-08-2009 09:08:54 15.7 C 78 % 11.88 C
1606 18-08-2009 09:20:53 16.2 C 77 % 12.17 C
1607 18-08-2009 09:32:54 16.9 C 75 % 12.44 C
1608 18-08-2009 09:44:53 17.5 C 71 % 12.19 C
1609 18-08-2009 09:56:53 18.1 C 68 % 12.11 C
1610 18-08-2009 10:08:53 18.5 C 66 % 12.03 C
1611 18-08-2009 10:20:53 19.1 C 63 % 11.9 C
1612 18-08-2009 10:32:53 19.5 C 60 % 11.53 C
1613 18-08-2009 10:44:52 20.1 C 59 % 11.84 C
1614 18-08-2009 10:56:52 20.7 C 55 % 11.34 C
1615 18-08-2009 11:08:52 21.1 C 51 % 10.58 C
1616 18-08-2009 11:20:53 21.6 C 46 % 9.49 C
1617 18-08-2009 11:32:52 22 C 45 % 9.53 C
1618 18-08-2009 11:44:52 22.2 C 42 % 8.69 C
1619 18-08-2009 11:56:52 22.8 C 41 % 8.87 C
1620 18-08-2009 12:08:52 23 C 38 % 7.93 C
1621 18-08-2009 12:20:52 23.4 C 37 % 7.89 C
1622 18-08-2009 12:32:51 24.2 C 36 % 8.2 C
1623 18-08-2009 12:44:52 24.5 C 33 % 7.18 C
1624 18-08-2009 12:56:52 24.3 C 32 % 6.56 C
1625 18-08-2009 13:08:52 25.2 C 33 % 7.79 C
Sensor: Nr:Datum:Temp:Feuchte:Taupunkt:
Aussen-T/F 1626 18-08-2009 13:20:51 26.1 C 30 % 7.18 C
1627 18-08-2009 13:32:51 27.2 C 27 % 6.59 C
1628 18-08-2009 13:44:51 27.6 C 25 % 5.81 C
1629 18-08-2009 13:56:51 26.8 C 25 % 5.14 C
1630 18-08-2009 14:08:51 27 C 25 % 5.31 C
1631 18-08-2009 14:20:50 27.1 C 24 % 4.81 C
1632 18-08-2009 14:32:51 28.3 C 23 % 5.2 C
1633 18-08-2009 14:44:50 28.3 C 21 % 3.9 C
1634 18-08-2009 14:56:50 28.8 C 20 % 3.62 C
1635 18-08-2009 15:08:50 29.6 C 20 % 4.28 C
1636 18-08-2009 15:20:50 30.3 C 20 % 4.85 C
1637 18-08-2009 15:32:50 30.7 C 20 % 5.18 C
1638 18-08-2009 15:44:50 30.7 C 20 % 5.18 C
1639 18-08-2009 15:56:50 30.4 C 20 % 4.93 C
1640 18-08-2009 16:08:49 30.3 C 20 % 4.85 C
1641 18-08-2009 16:20:50 30.6 C 20 % 5.1 C
1642 18-08-2009 16:32:49 30.9 C 20 % 5.34 C
1643 18-08-2009 16:44:49 31.7 C 20 % 6 C
1644 18-08-2009 16:56:49 32.1 C 20 % 6.32 C
1645 18-08-2009 17:08:50 32.3 C 20 % 6.49 C
1646 18-08-2009 17:20:49 32.3 C 20 % 6.49 C
1647 18-08-2009 17:32:49 32.5 C 20 % 6.65 C
1648 18-08-2009 17:44:48 32.5 C 20 % 6.65 C
1649 18-08-2009 17:56:48 32.6 C 20 % 6.73 C
1650 18-08-2009 18:08:49 32.9 C 20 % 6.98 C
Sensor: Nr:Datum:Temp:Feuchte:Taupunkt:
Aussen-T/F 1651 18-08-2009 18:20:48 32.4 C 20 % 6.57 C
1652 18-08-2009 18:32:48 31.8 C 20 % 6.08 C
1653 18-08-2009 18:44:48 31.5 C 20 % 5.83 C
1654 18-08-2009 18:56:48 31.8 C 20 % 6.08 C
1655 18-08-2009 19:08:48 31.4 C 20 % 5.75 C
1656 18-08-2009 19:20:48 30.3 C 22 % 6.22 C
1657 18-08-2009 19:32:47 29.3 C 24 % 6.65 C
1658 18-08-2009 19:44:48 28.7 C 25 % 6.74 C
1659 18-08-2009 19:56:48 28.1 C 25 % 6.24 C
1660 18-08-2009 20:08:47 26.6 C 26 % 5.53 C
1661 18-08-2009 20:20:47 25.7 C 28 % 5.84 C
1662 18-08-2009 20:32:47 25.2 C 30 % 6.41 C
1663 18-08-2009 20:44:47 24.5 C 32 % 6.74 C
1664 18-08-2009 20:56:47 24 C 35 % 7.61 C
1665 18-08-2009 21:08:47 23.7 C 35 % 7.34 C
1666 18-08-2009 21:20:46 23.4 C 36 % 7.49 C
1667 18-08-2009 21:32:47 22.8 C 37 % 7.36 C
1668 18-08-2009 21:44:46 22.5 C 40 % 8.24 C
1669 18-08-2009 21:56:46 22.3 C 40 % 8.06 C
1670 18-08-2009 22:08:46 22 C 40 % 7.79 C
1671 18-08-2009 22:21:47 21.7 C 42 % 8.24 C
1672 18-08-2009 22:33:47 21.4 C 42 % 7.97 C
1673 18-08-2009 22:45:47 21.4 C 43 % 8.31 C
1674 18-08-2009 22:57:47 20.9 C 44 % 8.2 C
1675 18-08-2009 23:09:47 20.8 C 45 % 8.44 C
Sensor: Nr:Datum:Temp:Feuchte:Taupunkt:
Aussen-T/F 1676 18-08-2009 23:21:47 20.5 C 46 % 8.49 C
1677 18-08-2009 23:33:47 20.3 C 47 % 8.63 C
1678 18-08-2009 23:45:47 20.1 C 48 % 8.76 C
1679 18-08-2009 23:57:47 20 C 49 % 8.97 C
1680 19-08-2009 00:09:47 19.7 C 51 % 9.29 C
1681 19-08-2009 00:21:47 19.5 C 53 % 9.67 C
1682 19-08-2009 00:33:47 19.3 C 54 % 9.77 C
1683 19-08-2009 00:45:47 19.1 C 55 % 9.86 C
1684 19-08-2009 00:57:48 18.8 C 56 % 9.84 C
1685 19-08-2009 01:09:48 18.5 C 57 % 9.83 C
1686 19-08-2009 01:21:48 18.3 C 59 % 10.16 C
1687 19-08-2009 01:33:48 18.2 C 59 % 10.06 C
1688 19-08-2009 01:45:48 18.1 C 60 % 10.22 C
1689 19-08-2009 01:57:48 18 C 60 % 10.13 C
1690 19-08-2009 02:09:48 17.7 C 62 % 10.33 C
1691 19-08-2009 02:21:48 17.6 C 62 % 10.24 C
1692 19-08-2009 02:33:48 17.4 C 63 % 10.29 C
1693 19-08-2009 02:45:48 17.2 C 64 % 10.34 C
1694 19-08-2009 02:57:48 17 C 65 % 10.38 C
1695 19-08-2009 03:09:48 16.9 C 66 % 10.51 C
1696 19-08-2009 03:21:48 16.8 C 66 % 10.42 C
1697 19-08-2009 03:33:48 16.6 C 66 % 10.23 C
1698 19-08-2009 03:45:48 16.4 C 67 % 10.26 C
1699 19-08-2009 03:57:48 16.3 C 67 % 10.17 C
1700 19-08-2009 04:09:48 16.1 C 68 % 10.2 C
Sensor: Nr:Datum:Temp:Feuchte:Taupunkt:
Aussen-T/F 1701 19-08-2009 04:21:48 15.9 C 70 % 10.44 C
1702 19-08-2009 04:33:48 15.7 C 71 % 10.46 C
1703 19-08-2009 04:45:49 15.6 C 71 % 10.37 C
1704 19-08-2009 04:57:49 15.4 C 72 % 10.38 C
1705 19-08-2009 05:09:49 15.4 C 72 % 10.38 C
1706 19-08-2009 05:21:49 15.2 C 73 % 10.4 C
1707 19-08-2009 05:33:49 15.1 C 73 % 10.3 C
1708 19-08-2009 05:45:49 15 C 74 % 10.41 C
1709 19-08-2009 05:57:49 14.8 C 75 % 10.42 C
1710 19-08-2009 06:09:49 14.7 C 75 % 10.32 C
1711 19-08-2009 06:21:49 14.7 C 76 % 10.52 C
1712 19-08-2009 06:33:49 14.7 C 76 % 10.52 C
1713 19-08-2009 06:45:47 14.3 C 76 % 10.13 C
1714 19-08-2009 06:57:47 14.2 C 77 % 10.23 C
1715 19-08-2009 07:09:46 14.5 C 77 % 10.52 C
1716 19-08-2009 07:21:47 14.4 C 77 % 10.42 C
1717 19-08-2009 07:33:46 14.7 C 77 % 10.71 C
1718 19-08-2009 07:45:46 14.5 C 79 % 10.91 C
1719 19-08-2009 07:57:47 14.8 C 79 % 11.2 C
1720 19-08-2009 08:09:46 15 C 78 % 11.2 C
1721 19-08-2009 08:21:46 15.2 C 78 % 11.39 C
1722 19-08-2009 08:33:46 15.5 C 77 % 11.49 C
1723 19-08-2009 08:45:45 15.8 C 77 % 11.78 C
1724 19-08-2009 08:57:45 16.2 C 74 % 11.56 C
1725 19-08-2009 09:09:45 16.6 C 73 % 11.74 C
Sensor: Nr:Datum:Temp:Feuchte:Taupunkt:
Aussen-T/F 1726 19-08-2009 09:21:45 17 C 72 % 11.92 C
1727 19-08-2009 09:33:46 17.5 C 70 % 11.97 C
1728 19-08-2009 09:45:45 18.1 C 67 % 11.88 C
1729 19-08-2009 09:57:45 18.7 C 65 % 11.99 C
1730 19-08-2009 10:09:45 19.4 C 60 % 11.44 C
1731 19-08-2009 10:21:44 20.1 C 58 % 11.58 C
1732 19-08-2009 10:33:45 20.8 C 56 % 11.71 C
1733 19-08-2009 10:45:44 21.5 C 54 % 11.81 C
1734 19-08-2009 10:57:44 22.2 C 53 % 12.17 C
1735 19-08-2009 11:09:44 22.7 C 53 % 12.63 C
1736 19-08-2009 11:21:44 23.5 C 51 % 12.78 C
1737 19-08-2009 11:33:44 24.1 C 47 % 12.09 C
1738 19-08-2009 11:45:44 25 C 42 % 11.2 C
1739 19-08-2009 11:57:44 25.6 C 38 % 10.23 C
1740 19-08-2009 12:09:44 26.7 C 36 % 10.4 C
1741 19-08-2009 12:21:44 27.1 C 36 % 10.75 C
1742 19-08-2009 12:33:43 27.5 C 35 % 10.68 C
1743 19-08-2009 12:45:43 27.8 C 32 % 9.6 C
1744 19-08-2009 12:57:43 28.2 C 30 % 8.99 C
1745 19-08-2009 13:09:43 28.8 C 30 % 9.51 C
1746 19-08-2009 13:21:43 30 C 27 % 8.97 C
1747 19-08-2009 13:33:43 30.6 C 25 % 8.34 C
1748 19-08-2009 13:45:43 30.7 C 25 % 8.42 C
1749 19-08-2009 13:57:43 30.7 C 25 % 8.42 C
1750 19-08-2009 14:09:43 30.9 C 25 % 8.59 C
Sensor: Nr:Datum:Temp:Feuchte:Taupunkt:
Aussen-T/F 1751 19-08-2009 14:21:42 31.5 C 23 % 7.87 C
1752 19-08-2009 14:33:42 31.8 C 22 % 7.46 C
1753 19-08-2009 14:45:42 32.2 C 22 % 7.79 C
1754 19-08-2009 14:57:42 32.3 C 20 % 6.49 C
1755 19-08-2009 15:09:42 32.6 C 21 % 7.44 C
1756 19-08-2009 15:21:41 32.9 C 20 % 6.98 C
1757 19-08-2009 15:33:42 33 C 20 % 7.06 C
1758 19-08-2009 15:45:41 33 C 20 % 7.06 C
1759 19-08-2009 15:57:41 32.9 C 20 % 6.98 C
1760 19-08-2009 16:09:41 33.5 C 20 % 7.47 C
1761 19-08-2009 16:21:42 33.4 C 20 % 7.39 C
1762 19-08-2009 16:33:41 33 C 20 % 7.06 C
1763 19-08-2009 16:45:41 33 C 20 % 7.06 C
1764 19-08-2009 16:57:41 33.6 C 20 % 7.55 C
1765 19-08-2009 17:09:41 33.3 C 20 % 7.3 C
1766 19-08-2009 17:21:41 33.5 C 20 % 7.47 C
1767 19-08-2009 17:33:40 33.7 C 20 % 7.63 C
1768 19-08-2009 17:45:40 33.8 C 20 % 7.71 C
1769 19-08-2009 17:57:40 34.4 C 20 % 8.2 C
1770 19-08-2009 18:09:41 34.2 C 20 % 8.04 C
1771 19-08-2009 18:21:40 33.9 C 20 % 7.8 C
1772 19-08-2009 18:33:40 34.2 C 20 % 8.04 C
1773 19-08-2009 18:45:40 34.2 C 20 % 8.04 C
1774 19-08-2009 18:57:40 33.8 C 20 % 7.71 C
1775 19-08-2009 19:09:40 33.5 C 20 % 7.47 C
Sensor: Nr:Datum:Temp:Feuchte:Taupunkt:
Aussen-T/F 1776 19-08-2009 19:21:39 32.9 C 20 % 6.98 C
1777 19-08-2009 19:33:39 32.5 C 21 % 7.36 C
1778 19-08-2009 19:45:39 32.1 C 21 % 7.03 C
1779 19-08-2009 19:57:39 31.8 C 23 % 8.12 C
1780 19-08-2009 20:09:39 31.2 C 26 % 9.42 C
1781 19-08-2009 20:21:39 30.3 C 30 % 10.79 C
1782 19-08-2009 20:33:39 29.2 C 32 % 10.81 C
1783 19-08-2009 20:45:39 28.3 C 34 % 10.94 C
1784 19-08-2009 20:57:39 27.9 C 35 % 11.03 C
1785 19-08-2009 21:09:38 27.8 C 35 % 10.94 C
1786 19-08-2009 21:21:38 27.4 C 36 % 11.01 C
1787 19-08-2009 21:33:39 27 C 37 % 11.07 C
1788 19-08-2009 21:45:38 26.3 C 38 % 10.86 C
1789 19-08-2009 21:57:38 26 C 40 % 11.36 C
1790 19-08-2009 22:09:38 25.7 C 41 % 11.47 C
1791 19-08-2009 22:21:37 25.4 C 42 % 11.56 C
1792 19-08-2009 22:33:38 24.8 C 44 % 11.72 C
1793 19-08-2009 22:46:38 24.8 C 44 % 11.72 C
1794 19-08-2009 22:58:38 24.4 C 46 % 12.04 C
1795 19-08-2009 23:10:38 23.9 C 47 % 11.91 C
1796 19-08-2009 23:22:38 23.7 C 48 % 12.04 C
1797 19-08-2009 23:34:38 23.7 C 49 % 12.36 C
1798 19-08-2009 23:46:38 23.3 C 50 % 12.3 C
1799 19-08-2009 23:58:39 23 C 51 % 12.32 C
1800 20-08-2009 00:10:39 22.7 C 53 % 12.63 C
Sensor: Nr:Datum:Temp:Feuchte:Taupunkt:
Aussen-T/F 1801 20-08-2009 00:22:39 22.6 C 53 % 12.54 C
1802 20-08-2009 00:34:39 22.2 C 55 % 12.73 C
1803 20-08-2009 00:46:39 21.9 C 57 % 13 C
1804 20-08-2009 00:58:39 21.9 C 56 % 12.73 C
1805 20-08-2009 01:10:39 21.6 C 58 % 12.99 C
1806 20-08-2009 01:22:39 21.4 C 58 % 12.8 C
1807 20-08-2009 01:34:39 21.3 C 58 % 12.71 C
1808 20-08-2009 01:46:39 21.2 C 58 % 12.61 C
1809 20-08-2009 01:58:39 20.9 C 59 % 12.59 C
1810 20-08-2009 02:10:39 20.8 C 61 % 13.01 C
1811 20-08-2009 02:22:39 20.6 C 62 % 13.07 C
1812 20-08-2009 02:34:39 20.3 C 62 % 12.79 C
1813 20-08-2009 02:46:39 20.2 C 62 % 12.69 C
1814 20-08-2009 02:58:39 20 C 63 % 12.75 C
1815 20-08-2009 03:10:39 19.9 C 65 % 13.13 C
1816 20-08-2009 03:22:39 19.8 C 65 % 13.03 C
1817 20-08-2009 03:34:39 19.7 C 65 % 12.94 C
1818 20-08-2009 03:46:40 19.5 C 66 % 12.98 C
1819 20-08-2009 03:58:40 19.3 C 67 % 13.02 C
1820 20-08-2009 04:10:40 19.3 C 68 % 13.25 C
1821 20-08-2009 04:22:40 19.1 C 68 % 13.06 C
1822 20-08-2009 04:34:40 18.9 C 70 % 13.31 C
1823 20-08-2009 04:46:40 18.7 C 70 % 13.12 C
1824 20-08-2009 04:58:40 18.5 C 71 % 13.15 C
1825 20-08-2009 05:10:40 18.3 C 71 % 12.95 C
Sensor: Nr:Datum:Temp:Feuchte:Taupunkt:
Aussen-T/F 1826 20-08-2009 05:22:40 18.3 C 72 % 13.17 C
1827 20-08-2009 05:34:40 18.2 C 72 % 13.07 C
1828 20-08-2009 05:46:40 18.2 C 72 % 13.07 C
1829 20-08-2009 05:58:40 18.1 C 73 % 13.19 C
1830 20-08-2009 06:10:40 17.9 C 74 % 13.2 C
1831 20-08-2009 06:22:40 17.7 C 75 % 13.22 C
1832 20-08-2009 06:34:40 17.6 C 75 % 13.12 C
1833 20-08-2009 06:46:40 17.6 C 75 % 13.12 C
1834 20-08-2009 06:58:40 17.6 C 76 % 13.32 C
1835 20-08-2009 07:10:39 17.6 C 76 % 13.32 C
1836 20-08-2009 07:22:38 17.8 C 76 % 13.52 C
1837 20-08-2009 07:34:38 17.9 C 76 % 13.61 C
1838 20-08-2009 07:46:38 18.3 C 75 % 13.79 C
1839 20-08-2009 07:58:38 18.9 C 73 % 13.96 C
1840 20-08-2009 08:10:38 19.5 C 70 % 13.89 C
1841 20-08-2009 08:22:37 19.6 C 69 % 13.76 C
1842 20-08-2009 08:34:38 19.8 C 69 % 13.95 C
1843 20-08-2009 08:46:38 20.1 C 67 % 13.78 C
1844 20-08-2009 08:58:38 20.2 C 67 % 13.88 C
1845 20-08-2009 09:10:37 20.2 C 67 % 13.88 C
1846 20-08-2009 09:22:37 20.6 C 66 % 14.03 C
1847 20-08-2009 09:34:37 21.2 C 64 % 14.12 C
1848 20-08-2009 09:46:37 21.9 C 63 % 14.54 C
1849 20-08-2009 09:58:37 22.4 C 60 % 14.26 C
1850 20-08-2009 10:10:37 22.7 C 59 % 14.28 C
Sensor: Nr:Datum:Temp:Feuchte:Taupunkt:
Aussen-T/F 1851 20-08-2009 10:22:36 23.6 C 58 % 14.86 C
1852 20-08-2009 10:34:37 24.7 C 55 % 15.05 C
1853 20-08-2009 10:46:36 25.4 C 53 % 15.13 C
1854 20-08-2009 10:58:36 25.9 C 54 % 15.88 C
1855 20-08-2009 11:10:36 26.4 C 52 % 15.75 C
1856 20-08-2009 11:22:36 27.1 C 53 % 16.7 C
1857 20-08-2009 11:34:36 27.7 C 51 % 16.64 C
1858 20-08-2009 11:46:36 28.4 C 49 % 16.65 C
1859 20-08-2009 11:58:36 29.4 C 45 % 16.23 C
1860 20-08-2009 12:10:35 30.4 C 42 % 16.04 C
1861 20-08-2009 12:22:36 30.9 C 35 % 13.66 C
1862 20-08-2009 12:34:35 31.3 C 34 % 13.56 C
1863 20-08-2009 12:46:35 31.5 C 30 % 11.83 C
1864 20-08-2009 12:58:35 31.9 C 29 % 11.66 C
1865 20-08-2009 13:10:35 32.4 C 29 % 12.08 C
1866 20-08-2009 13:22:35 32.7 C 26 % 10.69 C
1867 20-08-2009 13:34:35 32.7 C 29 % 12.34 C
1868 20-08-2009 13:46:35 32.5 C 30 % 12.68 C
1869 20-08-2009 13:58:35 32.5 C 29 % 12.17 C
1870 20-08-2009 14:10:35 33.1 C 26 % 11.03 C
1871 20-08-2009 14:22:34 33.5 C 25 % 10.77 C
1872 20-08-2009 14:34:34 33.8 C 24 % 10.41 C
1873 20-08-2009 14:46:34 34 C 24 % 10.58 C
1874 20-08-2009 14:58:34 34.2 C 20 % 8.04 C
1875 20-08-2009 15:10:34 34.2 C 20 % 8.04 C
Sensor: Nr:Datum:Temp:Feuchte:Taupunkt:
Aussen-T/F 1876 20-08-2009 15:22:33 34.7 C 20 % 8.45 C
1877 20-08-2009 15:34:34 34.4 C 20 % 8.2 C
1878 20-08-2009 15:46:33 34.4 C 20 % 8.2 C
1879 20-08-2009 15:58:33 34.4 C 20 % 8.2 C
1880 20-08-2009 16:10:33 34.2 C 20 % 8.04 C
1881 20-08-2009 16:22:33 34 C 20 % 7.88 C
1882 20-08-2009 16:34:33 33.4 C 20 % 7.39 C
1883 20-08-2009 16:46:33 33.4 C 22 % 8.79 C
1884 20-08-2009 16:58:33 33.2 C 23 % 9.28 C
1885 20-08-2009 17:10:33 33.4 C 24 % 10.08 C
1886 20-08-2009 17:22:02 34.4 C 20 % 8.2 C
1887 20-08-2009 17:34:01 34.2 C 20 % 8.04 C
1888 20-08-2009 17:46:02 33.6 C 21 % 8.27 C
1889 20-08-2009 17:58:02 33.1 C 25 % 10.44 C
1890 20-08-2009 18:10:01 33 C 24 % 9.75 C
1891 20-08-2009 18:22:01 33.8 C 20 % 7.71 C
1892 20-08-2009 18:34:01 33.8 C 20 % 7.71 C
1893 20-08-2009 18:46:01 33.6 C 22 % 8.95 C
1894 20-08-2009 18:58:02 32.9 C 24 % 9.66 C
1895 20-08-2009 19:10:00 32.7 C 25 % 10.1 C
1896 20-08-2009 19:22:01 32.4 C 24 % 9.24 C
1897 20-08-2009 19:34:01 32.1 C 26 % 10.18 C
1898 20-08-2009 19:46:00 31.8 C 27 % 10.49 C
1899 20-08-2009 19:58:00 31.4 C 28 % 10.7 C
1900 20-08-2009 20:10:01 31.1 C 30 % 11.48 C
Sensor: Nr:Datum:Temp:Feuchte:Taupunkt:
Aussen-T/F 1901 20-08-2009 20:22:00 30.6 C 31 % 11.55 C
1902 20-08-2009 20:34:00 30.2 C 32 % 11.68 C
1903 20-08-2009 20:45:59 30 C 33 % 11.97 C
1904 20-08-2009 20:57:59 29.7 C 32 % 11.25 C
1905 20-08-2009 21:10:00 29.6 C 32 % 11.16 C
1906 20-08-2009 21:22:00 30.7 C 26 % 9 C
1907 20-08-2009 21:34:59 30.7 C 25 % 8.42 C
1908 20-08-2009 21:45:59 29.5 C 31 % 10.6 C
1909 20-08-2009 21:57:59 27.8 C 36 % 11.37 C
1910 20-08-2009 22:10:59 27.2 C 37 % 11.25 C
1911 20-08-2009 22:22:59 26.6 C 39 % 11.51 C
1912 20-08-2009 22:34:59 25.8 C 42 % 11.92 C
1913 20-08-2009 22:47:59 24.2 C 50 % 13.12 C
1914 20-08-2009 22:59:59 24.5 C 50 % 13.4 C
1915 20-08-2009 23:11:59 24.6 C 48 % 12.87 C
1916 20-08-2009 23:24:00 24.6 C 48 % 12.87 C
1917 20-08-2009 23:35:00 24.5 C 48 % 12.77 C
1918 20-08-2009 23:47:00 24.6 C 48 % 12.87 C
1919 20-08-2009 23:59:00 24.3 C 49 % 12.91 C
1920 21-08-2009 00:11:00 24 C 49 % 12.63 C
1921 21-08-2009 00:23:00 24.1 C 49 % 12.72 C
1922 21-08-2009 00:35:00 23.8 C 51 % 13.06 C
1923 21-08-2009 00:47:00 23.6 C 52 % 13.17 C
1924 21-08-2009 00:59:00 23.5 C 53 % 13.37 C
1925 21-08-2009 01:11:00 23.4 C 56 % 14.13 C
Sensor: Nr:Datum:Temp:Feuchte:Taupunkt:
Aussen-T/F 1926 21-08-2009 01:23:00 21.7 C 72 % 16.43 C
1927 21-08-2009 01:35:00 21.2 C 80 % 17.61 C
1928 21-08-2009 01:47:00 20.9 C 83 % 17.9 C
1929 21-08-2009 01:59:00 20.4 C 83 % 17.42 C
1930 21-08-2009 02:11:00 20.5 C 79 % 16.73 C
1931 21-08-2009 02:23:00 20.4 C 78 % 16.44 C
1932 21-08-2009 02:35:00 20.2 C 78 % 16.24 C
1933 21-08-2009 02:47:00 20.8 C 74 % 16 C
1934 21-08-2009 02:59:00 20.6 C 76 % 16.22 C
1935 21-08-2009 03:11:00 20.5 C 76 % 16.12 C
1936 21-08-2009 03:23:01 20.7 C 75 % 16.11 C
1937 21-08-2009 03:35:01 20.5 C 76 % 16.12 C
1938 21-08-2009 03:47:01 20.3 C 79 % 16.54 C
1939 21-08-2009 03:59:01 19.9 C 81 % 16.54 C
1940 21-08-2009 04:11:01 19.8 C 82 % 16.64 C
1941 21-08-2009 04:23:01 20.1 C 81 % 16.74 C
1942 21-08-2009 04:35:01 20.4 C 80 % 16.83 C
1943 21-08-2009 04:47:01 20.4 C 75 % 15.82 C
1944 21-08-2009 04:59:01 20.5 C 74 % 15.71 C
1945 21-08-2009 05:11:01 20.5 C 74 % 15.71 C
1946 21-08-2009 05:23:01 20 C 74 % 15.23 C
1947 21-08-2009 05:35:01 19.6 C 75 % 15.05 C
1948 21-08-2009 05:47:01 19.3 C 72 % 14.13 C
1949 21-08-2009 05:59:01 19.3 C 68 % 13.25 C
1950 21-08-2009 06:11:01 19.1 C 68 % 13.06 C
Sensor: Nr:Datum:Temp:Feuchte:Taupunkt:
Aussen-T/F 1951 21-08-2009 06:23:01 18.1 C 70 % 12.55 C
1952 21-08-2009 06:35:01 18 C 63 % 10.86 C
1953 21-08-2009 06:47:01 18 C 63 % 10.86 C
1954 21-08-2009 06:59:01 18.2 C 64 % 11.28 C
1955 21-08-2009 07:11:59 18.2 C 63 % 11.05 C
1956 21-08-2009 07:23:59 18.4 C 61 % 10.75 C
1957 21-08-2009 07:35:59 18.7 C 63 % 11.52 C
1958 21-08-2009 07:47:59 18.9 C 63 % 11.71 C
1959 21-08-2009 07:59:59 19.1 C 63 % 11.9 C
1960 21-08-2009 08:11:59 19.3 C 65 % 12.56 C
1961 21-08-2009 08:23:58 19.4 C 65 % 12.66 C
1962 21-08-2009 08:35:58 19.3 C 65 % 12.56 C
1963 21-08-2009 08:47:58 19.3 C 63 % 12.09 C
1964 21-08-2009 08:59:58 19.4 C 61 % 11.69 C
1965 21-08-2009 09:11:58 19.5 C 59 % 11.28 C
1966 21-08-2009 09:23:58 19.5 C 60 % 11.53 C
1967 21-08-2009 09:35:57 19.5 C 56 % 10.5 C
1968 21-08-2009 09:47:58 19.5 C 54 % 9.95 C
1969 21-08-2009 09:59:59 19.4 C 52 % 9.3 C
1970 21-08-2009 10:11:57 19.5 C 51 % 9.1 C
1971 21-08-2009 10:23:57 19.5 C 51 % 9.1 C
1972 21-08-2009 10:35:58 19.7 C 47 % 8.08 C
1973 21-08-2009 10:47:57 19.2 C 50 % 8.53 C
1974 21-08-2009 10:59:57 17.1 C 58 % 8.78 C
1975 21-08-2009 11:11:57 17.7 C 56 % 8.82 C
Sensor: Nr:Datum:Temp:Feuchte:Taupunkt:
Aussen-T/F 1976 21-08-2009 11:23:56 17.9 C 50 % 7.34 C
1977 21-08-2009 11:35:57 17.2 C 53 % 7.55 C
1978 21-08-2009 11:47:56 16.4 C 60 % 8.62 C
1979 21-08-2009 11:59:56 15.2 C 73 % 10.4 C
1980 21-08-2009 12:11:56 15.1 C 79 % 11.49 C
1981 21-08-2009 12:23:57 15.5 C 81 % 12.26 C
1982 21-08-2009 12:35:56 15.6 C 81 % 12.35 C
1983 21-08-2009 12:47:56 15.8 C 81 % 12.55 C
1984 21-08-2009 12:59:56 15.9 C 82 % 12.83 C
1985 21-08-2009 13:11:56 16 C 80 % 12.55 C
1986 21-08-2009 13:23:56 16.4 C 80 % 12.94 C
1987 21-08-2009 13:35:55 16.1 C 79 % 12.46 C
1988 21-08-2009 13:47:55 16.3 C 80 % 12.85 C
1989 21-08-2009 13:59:56 16.7 C 80 % 13.23 C
1990 21-08-2009 14:11:55 17.4 C 73 % 12.51 C
1991 21-08-2009 14:23:55 17.5 C 71 % 12.19 C
1992 21-08-2009 14:35:55 17.8 C 68 % 11.82 C
1993 21-08-2009 14:47:55 18.9 C 65 % 12.18 C
1994 21-08-2009 14:59:55 19.1 C 61 % 11.41 C
1995 21-08-2009 15:11:55 19.6 C 59 % 11.37 C
1996 21-08-2009 15:23:54 20.2 C 57 % 11.42 C
1997 21-08-2009 15:35:54 21.1 C 54 % 11.44 C
1998 21-08-2009 15:47:54 22.5 C 50 % 11.56 C
1999 21-08-2009 15:59:54 23.7 C 43 % 10.39 C
2000 21-08-2009 16:11:54 24.9 C 37 % 9.22 C
Sensor: Nr:Datum:Temp:Feuchte:Taupunkt:
Aussen-T/F 2001 21-08-2009 16:23:54 24.5 C 36 % 8.46 C
2002 21-08-2009 16:35:54 25.7 C 34 % 8.67 C
2003 21-08-2009 16:47:54 26 C 31 % 7.57 C
2004 21-08-2009 16:59:54 26.3 C 34 % 9.19 C
2005 21-08-2009 17:11:53 27.5 C 30 % 8.39 C
2006 21-08-2009 17:23:54 28 C 30 % 8.82 C
2007 21-08-2009 17:35:53 27.6 C 28 % 7.46 C
2008 21-08-2009 17:47:53 27.4 C 30 % 8.3 C
2009 21-08-2009 17:59:54 26.9 C 31 % 8.35 C
2010 21-08-2009 18:11:53 27.5 C 30 % 8.39 C
2011 21-08-2009 18:23:53 26.9 C 31 % 8.35 C
2012 21-08-2009 18:35:53 25.5 C 33 % 8.06 C
2013 21-08-2009 18:47:52 25.4 C 35 % 8.84 C
2014 21-08-2009 18:59:52 25.7 C 34 % 8.67 C
2015 21-08-2009 19:11:53 26 C 33 % 8.49 C
2016 21-08-2009 19:23:52 25.9 C 35 % 9.27 C
2017 21-08-2009 19:35:52 25.7 C 37 % 9.92 C
2018 21-08-2009 19:47:52 24.9 C 38 % 9.61 C
2019 21-08-2009 19:59:52 23.3 C 43 % 10.03 C
2020 21-08-2009 20:11:52 22.2 C 47 % 10.36 C
2021 21-08-2009 20:23:52 21 C 51 % 10.48 C
2022 21-08-2009 20:35:52 20 C 54 % 10.42 C
2023 21-08-2009 20:47:51 19.8 C 58 % 11.3 C
2024 21-08-2009 20:59:51 19.5 C 59 % 11.28 C
2025 21-08-2009 21:11:51 19.2 C 59 % 11 C
Sensor: Nr:Datum:Temp:Feuchte:Taupunkt:
Aussen-T/F 2026 21-08-2009 21:23:51 18.8 C 63 % 11.61 C
2027 21-08-2009 21:35:52 18.6 C 63 % 11.42 C
2028 21-08-2009 21:47:51 18.5 C 64 % 11.57 C
2029 21-08-2009 21:59:51 18.1 C 64 % 11.19 C
2030 21-08-2009 22:11:50 17.9 C 66 % 11.46 C
2031 21-08-2009 22:23:51 17.7 C 67 % 11.5 C
2032 21-08-2009 22:35:51 17.5 C 69 % 11.75 C
2033 21-08-2009 22:47:50 17.3 C 69 % 11.56 C
2034 21-08-2009 22:59:50 17.1 C 69 % 11.37 C
2035 21-08-2009 23:12:51 17 C 70 % 11.49 C
2036 21-08-2009 23:24:51 16.9 C 71 % 11.61 C
2037 21-08-2009 23:36:51 16.8 C 72 % 11.73 C
2038 21-08-2009 23:48:51 16.5 C 72 % 11.44 C
2039 22-08-2009 00:00:51 16.3 C 73 % 11.46 C
2040 22-08-2009 00:12:51 16 C 73 % 11.17 C
2041 22-08-2009 00:24:51 15.9 C 75 % 11.48 C
2042 22-08-2009 00:36:51 15.8 C 75 % 11.38 C
2043 22-08-2009 00:48:51 15.8 C 75 % 11.38 C
2044 22-08-2009 01:00:51 15.6 C 76 % 11.39 C
2045 22-08-2009 01:12:51 15.6 C 77 % 11.59 C
2046 22-08-2009 01:24:51 15.3 C 78 % 11.49 C
2047 22-08-2009 01:36:51 15.1 C 78 % 11.3 C
2048 22-08-2009 01:48:51 15 C 79 % 11.39 C
2049 22-08-2009 02:00:51 14.8 C 81 % 11.57 C
2050 22-08-2009 02:12:51 14.7 C 82 % 11.66 C
Sensor: Nr:Datum:Temp:Feuchte:Taupunkt:
Aussen-T/F 2051 22-08-2009 02:24:52 14.7 C 81 % 11.48 C
2052 22-08-2009 02:36:52 14.4 C 81 % 11.18 C
2053 22-08-2009 02:48:52 14.3 C 83 % 11.45 C
2054 22-08-2009 03:00:52 14.1 C 84 % 11.44 C
2055 22-08-2009 03:12:52 13.9 C 85 % 11.42 C
2056 22-08-2009 03:24:52 14 C 84 % 11.34 C
2057 22-08-2009 03:36:52 14 C 84 % 11.34 C
2058 22-08-2009 03:48:52 13.9 C 84 % 11.24 C
2059 22-08-2009 04:00:52 13.8 C 84 % 11.15 C
2060 22-08-2009 04:12:52 13.7 C 83 % 10.87 C
2061 22-08-2009 04:24:52 13.5 C 83 % 10.67 C
2062 22-08-2009 04:36:52 13.3 C 85 % 10.83 C
2063 22-08-2009 04:48:52 13.2 C 86 % 10.91 C
2064 22-08-2009 05:00:52 13.1 C 86 % 10.81 C
2065 22-08-2009 05:12:52 13.2 C 86 % 10.91 C
2066 22-08-2009 05:24:52 13.2 C 86 % 10.91 C
2067 22-08-2009 05:36:52 13.1 C 85 % 10.64 C
2068 22-08-2009 05:48:52 13 C 84 % 10.36 C
2069 22-08-2009 06:00:52 13 C 84 % 10.36 C
2070 22-08-2009 06:12:52 13 C 85 % 10.54 C
2071 22-08-2009 06:24:53 13.1 C 84 % 10.46 C
2072 22-08-2009 06:36:53 13.1 C 84 % 10.46 C
2073 22-08-2009 06:48:53 13.3 C 84 % 10.66 C
2074 22-08-2009 07:00:53 13.2 C 83 % 10.38 C
2075 22-08-2009 07:12:53 13.1 C 83 % 10.28 C
Sensor: Nr:Datum:Temp:Feuchte:Taupunkt:
Aussen-T/F 2076 22-08-2009 07:24:53 13.1 C 83 % 10.28 C
2077 22-08-2009 07:36:53 13.4 C 83 % 10.57 C
2078 22-08-2009 07:48:53 13.6 C 83 % 10.77 C
2079 22-08-2009 08:00:53 13.8 C 82 % 10.78 C
2080 22-08-2009 08:12:53 14.1 C 81 % 10.89 C
2081 22-08-2009 08:24:53 14.5 C 78 % 10.71 C
2082 22-08-2009 08:36:53 14.6 C 76 % 10.42 C
2083 22-08-2009 08:48:53 15.1 C 74 % 10.5 C
2084 22-08-2009 09:00:53 15.6 C 72 % 10.57 C
2085 22-08-2009 09:12:53 16.2 C 69 % 10.51 C
2086 22-08-2009 09:24:51 16.4 C 66 % 10.04 C
2087 22-08-2009 09:36:51 16.9 C 65 % 10.28 C
2088 22-08-2009 09:48:50 16.7 C 67 % 10.55 C
2089 22-08-2009 10:00:51 16.6 C 67 % 10.45 C
2090 22-08-2009 10:12:51 17.5 C 66 % 11.08 C
2091 22-08-2009 10:24:50 18.2 C 62 % 10.81 C
2092 22-08-2009 10:36:50 19.2 C 58 % 10.74 C
2093 22-08-2009 10:48:50 19.8 C 55 % 10.51 C
2094 22-08-2009 11:00:50 20.5 C 53 % 10.6 C
2095 22-08-2009 11:12:50 21 C 50 % 10.19 C
2096 22-08-2009 11:24:49 21.4 C 49 % 10.25 C
2097 22-08-2009 11:36:49 21.6 C 47 % 9.81 C
2098 22-08-2009 11:48:49 22 C 46 % 9.86 C
2099 22-08-2009 12:00:49 22 C 45 % 9.53 C
2100 22-08-2009 12:12:49 21.8 C 47 % 9.99 C
Sensor: Nr:Datum:Temp:Feuchte:Taupunkt:
Aussen-T/F 2101 22-08-2009 12:24:49 22.6 C 42 % 9.05 C
2102 22-08-2009 12:36:49 22.8 C 40 % 8.5 C
2103 22-08-2009 12:48:48 22.9 C 39 % 8.22 C
2104 22-08-2009 13:00:48 22.9 C 38 % 7.84 C
2105 22-08-2009 13:12:48 24 C 34 % 7.18 C
2106 22-08-2009 13:24:49 24.8 C 35 % 8.31 C
2107 22-08-2009 13:36:48 24.9 C 33 % 7.53 C
2108 22-08-2009 13:48:48 25.5 C 31 % 7.14 C
2109 22-08-2009 14:00:48 25.3 C 31 % 6.97 C
2110 22-08-2009 14:12:48 25.9 C 27 % 5.48 C
2111 22-08-2009 14:24:48 26 C 26 % 5.03 C
2112 22-08-2009 14:36:48 26.2 C 26 % 5.2 C
2113 22-08-2009 14:48:50 26.9 C 25 % 5.22 C
2114 22-08-2009 15:00:02 27.2 C 25 % 5.48 C
2115 22-08-2009 15:12:02 28.2 C 21 % 3.82 C
2116 22-08-2009 15:24:01 26.8 C 23 % 3.95 C
2117 22-08-2009 15:36:02 25.6 C 26 % 4.69 C
2118 22-08-2009 15:48:01 25.5 C 25 % 4.04 C
2119 22-08-2009 16:00:01 26.6 C 24 % 4.39 C
2120 22-08-2009 16:12:02 28.4 C 21 % 3.99 C
2121 22-08-2009 16:24:01 29.2 C 20 % 3.95 C
2122 22-08-2009 16:36:02 30.3 C 20 % 4.85 C
2123 22-08-2009 16:48:01 30.6 C 20 % 5.1 C
2124 22-08-2009 17:00:01 26.8 C 20 % 1.98 C
2125 22-08-2009 17:12:02 27.5 C 21 % 3.24 C
Sensor: Nr:Datum:Temp:Feuchte:Taupunkt:
Aussen-T/F 2126 22-08-2009 17:24:01 29.2 C 20 % 3.95 C
2127 22-08-2009 17:36:02 28.5 C 20 % 3.38 C
2128 22-08-2009 17:48:01 28.7 C 20 % 3.54 C
2129 22-08-2009 18:00:01 28.9 C 20 % 3.7 C
2130 22-08-2009 18:12:02 28.5 C 20 % 3.38 C
2131 22-08-2009 18:24:01 29.6 C 20 % 4.28 C
2132 22-08-2009 18:36:02 28.4 C 20 % 3.29 C
2133 22-08-2009 18:48:02 27.4 C 20 % 2.47 C
2134 22-08-2009 19:00:02 27.4 C 21 % 3.16 C
2135 22-08-2009 19:12:01 26.8 C 22 % 3.32 C
2136 22-08-2009 19:24:02 26.7 C 24 % 4.47 C
2137 22-08-2009 19:36:02 26.2 C 25 % 4.63 C
2138 22-08-2009 19:48:02 26 C 28 % 6.09 C
2139 22-08-2009 20:00:02 25.3 C 29 % 6 C
2140 22-08-2009 20:12:03 24.3 C 31 % 6.1 C
2141 22-08-2009 20:24:02 23.2 C 32 % 5.61 C
2142 22-08-2009 20:36:03 22.1 C 34 % 5.52 C
2143 22-08-2009 20:48:02 21.4 C 35 % 5.32 C
2144 22-08-2009 21:00:02 20.8 C 36 % 5.2 C
2145 22-08-2009 21:12:02 20 C 37 % 4.88 C
2146 22-08-2009 21:24:02 19.7 C 40 % 5.73 C
2147 22-08-2009 21:36:03 19.6 C 40 % 5.64 C
2148 22-08-2009 21:48:02 19.5 C 41 % 5.91 C
2149 22-08-2009 22:00:03 19.1 C 42 % 5.9 C
2150 22-08-2009 22:12:01 18.7 C 43 % 5.88 C
Sensor: Nr:Datum:Temp:Feuchte:Taupunkt:
Aussen-T/F 2151 22-08-2009 22:24:02 18.3 C 45 % 6.17 C
2152 22-08-2009 22:36:02 18.1 C 45 % 5.99 C
2153 22-08-2009 22:48:02 17.9 C 46 % 6.13 C
2154 22-08-2009 23:00:02 17.6 C 46 % 5.86 C
2155 22-08-2009 23:12:02 17.4 C 47 % 5.98 C
2156 22-08-2009 23:24:02 17.2 C 48 % 6.11 C
2157 22-08-2009 23:36:02 17 C 49 % 6.22 C
2158 22-08-2009 23:48:01 16.8 C 51 % 6.62 C
2159 23-08-2009 00:00:01 16.4 C 53 % 6.81 C
2160 23-08-2009 00:12:02 16.1 C 54 % 6.8 C
2161 23-08-2009 00:25:03 15.8 C 56 % 7.05 C
2162 23-08-2009 00:37:03 15.7 C 55 % 6.69 C
2163 23-08-2009 00:49:03 15.4 C 57 % 6.93 C
2164 23-08-2009 01:01:03 15.2 C 59 % 7.25 C
2165 23-08-2009 01:13:03 15 C 60 % 7.31 C
2166 23-08-2009 01:25:03 14.8 C 61 % 7.36 C
2167 23-08-2009 01:37:03 14.7 C 61 % 7.27 C
2168 23-08-2009 01:49:03 14.4 C 61 % 6.98 C
2169 23-08-2009 02:01:03 14.2 C 61 % 6.8 C
2170 23-08-2009 02:13:03 14.2 C 63 % 7.27 C
2171 23-08-2009 02:25:03 14 C 65 % 7.53 C
2172 23-08-2009 02:37:03 13.7 C 66 % 7.47 C
2173 23-08-2009 02:49:03 13.7 C 66 % 7.47 C
2174 23-08-2009 03:01:03 13.5 C 68 % 7.72 C
2175 23-08-2009 03:13:04 13.4 C 68 % 7.62 C
Sensor: Nr:Datum:Temp:Feuchte:Taupunkt:
Aussen-T/F 2176 23-08-2009 03:25:04 13.2 C 69 % 7.64 C
2177 23-08-2009 03:37:04 13.1 C 70 % 7.76 C
2178 23-08-2009 03:49:04 13 C 71 % 7.87 C
2179 23-08-2009 04:01:04 12.9 C 73 % 8.18 C
2180 23-08-2009 04:13:04 12.7 C 73 % 7.99 C
2181 23-08-2009 04:25:04 12.6 C 74 % 8.09 C
2182 23-08-2009 04:37:04 12.4 C 74 % 7.9 C
2183 23-08-2009 04:49:04 12.2 C 74 % 7.71 C
2184 23-08-2009 05:01:04 12.3 C 75 % 8 C
2185 23-08-2009 05:13:04 12 C 76 % 7.91 C
2186 23-08-2009 05:25:04 12 C 76 % 7.91 C
2187 23-08-2009 05:37:04 11.8 C 77 % 7.9 C
2188 23-08-2009 05:49:04 11.7 C 78 % 8 C
2189 23-08-2009 06:01:04 11.6 C 78 % 7.9 C
2190 23-08-2009 06:13:04 11.5 C 78 % 7.8 C
2191 23-08-2009 06:25:04 11.4 C 78 % 7.71 C
2192 23-08-2009 06:37:04 11.4 C 78 % 7.71 C
2193 23-08-2009 06:49:04 11.3 C 79 % 7.8 C
2194 23-08-2009 07:01:04 11.4 C 80 % 8.08 C
2195 23-08-2009 07:13:05 11.4 C 79 % 7.89 C
2196 23-08-2009 07:25:05 11.5 C 79 % 7.99 C
2197 23-08-2009 07:37:05 11.6 C 79 % 8.09 C
2198 23-08-2009 07:49:05 11.7 C 79 % 8.18 C
2199 23-08-2009 08:01:05 11.9 C 80 % 8.56 C
2200 23-08-2009 08:13:05 12.1 C 79 % 8.57 C
Sensor: Nr:Datum:Temp:Feuchte:Taupunkt:
Aussen-T/F 2201 23-08-2009 08:25:05 12.4 C 79 % 8.86 C
2202 23-08-2009 08:37:05 12.7 C 79 % 9.16 C
2203 23-08-2009 08:49:05 13 C 77 % 9.07 C
2204 23-08-2009 09:01:05 13.5 C 76 % 9.36 C
2205 23-08-2009 09:13:05 13.8 C 74 % 9.25 C
2206 23-08-2009 09:25:03 14.2 C 74 % 9.64 C
2207 23-08-2009 09:37:02 14.7 C 72 % 9.71 C
2208 23-08-2009 09:49:02 15.3 C 70 % 9.87 C
2209 23-08-2009 10:01:01 16 C 68 % 10.1 C
2210 23-08-2009 10:13:01 16.6 C 66 % 10.23 C
2211 23-08-2009 10:25:01 17.2 C 63 % 10.1 C
2212 23-08-2009 10:37:02 17.7 C 62 % 10.33 C
2213 23-08-2009 10:49:02 17.7 C 63 % 10.57 C
2214 23-08-2009 11:01:01 18.7 C 61 % 11.03 C
2215 23-08-2009 11:13:01 19.7 C 54 % 10.14 C
2216 23-08-2009 11:25:02 20.8 C 47 % 9.08 C
2217 23-08-2009 11:37:02 21.6 C 43 % 8.49 C
2218 23-08-2009 11:49:02 22.1 C 42 % 8.6 C
2219 23-08-2009 12:01:02 22.6 C 39 % 7.95 C
2220 23-08-2009 12:13:02 23.1 C 36 % 7.23 C
2221 23-08-2009 12:25:02 23.4 C 33 % 6.22 C
2222 23-08-2009 12:37:02 23.7 C 32 % 6.04 C
2223 23-08-2009 12:49:02 24.2 C 30 % 5.54 C
2224 23-08-2009 13:01:03 24.5 C 29 % 5.31 C
2225 23-08-2009 13:13:03 24.9 C 27 % 4.63 C
Sensor: Nr:Datum:Temp:Feuchte:Taupunkt:
Aussen-T/F 2226 23-08-2009 13:25:02 25.5 C 26 % 4.6 C
2227 23-08-2009 13:37:02 25.7 C 25 % 4.21 C
2228 23-08-2009 13:49:01 26.1 C 23 % 3.37 C
2229 23-08-2009 14:01:02 26.3 C 22 % 2.91 C
2230 23-08-2009 14:13:02 26.6 C 23 % 3.78 C
2231 23-08-2009 14:25:01 27.1 C 21 % 2.91 C
2232 23-08-2009 14:37:01 27.3 C 21 % 3.08 C
2233 23-08-2009 14:49:01 27.7 C 21 % 3.41 C
2234 23-08-2009 15:01:02 27.8 C 21 % 3.49 C
2235 23-08-2009 15:13:02 28.3 C 21 % 3.9 C
2236 23-08-2009 15:25:01 28.4 C 20 % 3.29 C
2237 23-08-2009 15:37:01 28.2 C 20 % 3.13 C
2238 23-08-2009 15:49:01 29.2 C 20 % 3.95 C
2239 23-08-2009 16:01:01 29.7 C 20 % 4.36 C
2240 23-08-2009 16:13:01 30.2 C 20 % 4.77 C
2241 23-08-2009 16:25:01 30.1 C 20 % 4.69 C
2242 23-08-2009 16:37:01 30.5 C 20 % 5.01 C
2243 23-08-2009 16:49:01 30.6 C 20 % 5.1 C
2244 23-08-2009 17:01:02 30.8 C 20 % 5.26 C
2245 23-08-2009 17:13:03 30.9 C 20 % 5.34 C
2246 23-08-2009 17:25:01 31.1 C 20 % 5.51 C
2247 23-08-2009 17:37:01 31 C 20 % 5.42 C
2248 23-08-2009 17:49:01 31 C 20 % 5.42 C
2249 23-08-2009 18:01:01 31.1 C 20 % 5.51 C
2250 23-08-2009 18:13:01 31.2 C 20 % 5.59 C
Sensor: Nr:Datum:Temp:Feuchte:Taupunkt:
Aussen-T/F 2251 23-08-2009 18:25:01 31.1 C 20 % 5.51 C
2252 23-08-2009 18:37:01 30.6 C 20 % 5.1 C
2253 23-08-2009 18:49:01 30 C 20 % 4.61 C
2254 23-08-2009 19:01:01 30.6 C 20 % 5.1 C
2255 23-08-2009 19:13:01 30.7 C 20 % 5.18 C
2256 23-08-2009 19:25:02 30.1 C 20 % 4.69 C
2257 23-08-2009 19:37:01 30 C 20 % 4.61 C
2258 23-08-2009 19:49:02 28.8 C 20 % 3.62 C
2259 23-08-2009 20:01:02 27.9 C 22 % 4.23 C
2260 23-08-2009 20:13:02 26.1 C 25 % 4.55 C
2261 23-08-2009 20:25:02 24.8 C 28 % 5.07 C
2262 23-08-2009 20:37:02 23.7 C 30 % 5.11 C
2263 23-08-2009 20:49:02 22.9 C 31 % 4.89 C
2264 23-08-2009 21:01:01 22.4 C 32 % 4.91 C
2265 23-08-2009 21:13:01 21.7 C 35 % 5.58 C
2266 23-08-2009 21:25:01 21.3 C 35 % 5.23 C
2267 23-08-2009 21:37:02 21 C 36 % 5.37 C
2268 23-08-2009 21:49:02 20.7 C 37 % 5.5 C
2269 23-08-2009 22:01:02 20.4 C 39 % 5.99 C
2270 23-08-2009 22:13:02 20.1 C 40 % 6.09 C
2271 23-08-2009 22:25:02 19.8 C 41 % 6.18 C
2272 23-08-2009 22:37:02 19.5 C 43 % 6.6 C
2273 23-08-2009 22:49:02 19.3 C 43 % 6.42 C
2274 23-08-2009 23:01:02 19.1 C 43 % 6.24 C
2275 23-08-2009 23:13:02 18.9 C 45 % 6.72 C
Sensor: Nr:Datum:Temp:Feuchte:Taupunkt:
Aussen-T/F 2276 23-08-2009 23:25:02 18.7 C 45 % 6.54 C
2277 23-08-2009 23:37:02 18.6 C 45 % 6.45 C
2278 23-08-2009 23:49:02 18.3 C 45 % 6.17 C
2279 24-08-2009 00:01:02 18.1 C 46 % 6.31 C
2280 24-08-2009 00:13:03 17.9 C 48 % 6.75 C
2281 24-08-2009 00:25:02 17.8 C 48 % 6.65 C
2282 24-08-2009 00:37:02 17.4 C 49 % 6.59 C
2283 24-08-2009 00:49:01 17.4 C 49 % 6.59 C
2284 24-08-2009 01:01:02 17.2 C 51 % 6.98 C
2285 24-08-2009 01:13:02 17 C 51 % 6.8 C
2286 24-08-2009 01:25:01 16.9 C 52 % 6.99 C
2287 24-08-2009 01:37:02 16.6 C 54 % 7.26 C
2288 24-08-2009 01:49:02 16.3 C 54 % 6.98 C
2289 24-08-2009 02:01:02 16.1 C 55 % 7.07 C
2290 24-08-2009 02:13:02 15.9 C 57 % 7.4 C
2291 24-08-2009 02:25:02 15.8 C 58 % 7.56 C
2292 24-08-2009 02:37:02 15.5 C 58 % 7.28 C
2293 24-08-2009 02:50:03 15.4 C 59 % 7.44 C
2294 24-08-2009 03:02:03 15.3 C 59 % 7.34 C
2295 24-08-2009 03:14:04 15 C 61 % 7.55 C
2296 24-08-2009 03:26:04 14.8 C 62 % 7.6 C
2297 24-08-2009 03:38:02 14.7 C 66 % 8.42 C
2298 24-08-2009 03:50:02 14.3 C 66 % 8.04 C
2299 24-08-2009 04:02:02 14.2 C 66 % 7.95 C
2300 24-08-2009 04:14:02 14 C 67 % 7.98 C
Sensor: Nr:Datum:Temp:Feuchte:Taupunkt:
Aussen-T/F 2301 24-08-2009 04:26:02 13.9 C 68 % 8.1 C
2302 24-08-2009 04:38:02 13.7 C 68 % 7.91 C
2303 24-08-2009 04:50:01 13.5 C 70 % 8.14 C
2304 24-08-2009 05:02:02 13.4 C 72 % 8.46 C
2305 24-08-2009 05:14:02 13.3 C 73 % 8.57 C
2306 24-08-2009 05:26:01 13.2 C 73 % 8.47 C
2307 24-08-2009 05:38:02 13.1 C 73 % 8.38 C
2308 24-08-2009 05:50:02 13 C 74 % 8.48 C
2309 24-08-2009 06:02:02 12.9 C 75 % 8.58 C
2310 24-08-2009 06:14:02 12.8 C 75 % 8.48 C
2311 24-08-2009 06:26:01 12.6 C 75 % 8.29 C
2312 24-08-2009 06:38:02 12.7 C 75 % 8.39 C
2313 24-08-2009 06:50:01 12.5 C 75 % 8.19 C
2314 24-08-2009 07:02:02 12.6 C 76 % 8.49 C
2315 24-08-2009 07:14:02 12.7 C 77 % 8.78 C
2316 24-08-2009 07:26:02 12.8 C 77 % 8.87 C
2317 24-08-2009 07:38:02 12.9 C 77 % 8.97 C
2318 24-08-2009 07:50:02 12.9 C 78 % 9.16 C
2319 24-08-2009 08:02:02 13.1 C 77 % 9.16 C
2320 24-08-2009 08:14:02 13.2 C 77 % 9.26 C
2321 24-08-2009 08:26:02 13.6 C 77 % 9.65 C
2322 24-08-2009 08:38:01 13.8 C 77 % 9.84 C
2323 24-08-2009 08:50:02 14.2 C 77 % 10.23 C
2324 24-08-2009 09:02:01 14.6 C 76 % 10.42 C
2325 24-08-2009 09:14:01 15 C 73 % 10.2 C
Sensor: Nr:Datum:Temp:Feuchte:Taupunkt:
Aussen-T/F 2326 24-08-2009 09:26:02 15.5 C 72 % 10.48 C
2327 24-08-2009 09:38:01 16.5 C 68 % 10.58 C
2328 24-08-2009 09:50:02 17.2 C 65 % 10.57 C
2329 24-08-2009 10:02:02 17.9 C 63 % 10.76 C
2330 24-08-2009 10:14:02 18.7 C 59 % 10.53 C
2331 24-08-2009 10:26:02 19.4 C 57 % 10.67 C
2332 24-08-2009 10:38:02 20.1 C 53 % 10.23 C
2333 24-08-2009 10:50:02 20.7 C 52 % 10.5 C
2334 24-08-2009 11:02:01 21.5 C 48 % 10.04 C
2335 24-08-2009 11:14:01 22 C 46 % 9.86 C
2336 24-08-2009 11:26:01 22.4 C 43 % 9.22 C
2337 24-08-2009 11:38:02 22.9 C 44 % 10.01 C
2338 24-08-2009 11:50:02 23.6 C 41 % 9.59 C
2339 24-08-2009 12:02:02 23.9 C 39 % 9.11 C
2340 24-08-2009 12:14:02 24 C 39 % 9.2 C
2341 24-08-2009 12:26:01 24.9 C 37 % 9.22 C
2342 24-08-2009 12:38:02 25.2 C 36 % 9.08 C
2343 24-08-2009 12:50:02 25.2 C 35 % 8.66 C
2344 24-08-2009 13:02:02 25.9 C 34 % 8.85 C
2345 24-08-2009 13:14:02 26.7 C 32 % 8.65 C
2346 24-08-2009 13:26:02 27.6 C 30 % 8.47 C
2347 24-08-2009 13:38:02 28.2 C 30 % 8.99 C
2348 24-08-2009 13:50:02 28.5 C 29 % 8.75 C
2349 24-08-2009 14:02:02 28.8 C 29 % 9 C
2350 24-08-2009 14:14:02 29.3 C 28 % 8.91 C
Sensor: Nr:Datum:Temp:Feuchte:Taupunkt:
Aussen-T/F 2351 24-08-2009 14:26:02 29.9 C 27 % 8.88 C
2352 24-08-2009 14:38:02 30.4 C 26 % 8.75 C
2353 24-08-2009 14:50:02 30.6 C 25 % 8.34 C
2354 24-08-2009 15:02:02 31 C 23 % 7.45 C
2355 24-08-2009 15:14:02 31.2 C 21 % 6.29 C
2356 24-08-2009 15:26:02 31.6 C 21 % 6.62 C
2357 24-08-2009 15:38:02 32 C 20 % 6.24 C
2358 24-08-2009 15:50:02 32.3 C 20 % 6.49 C
2359 24-08-2009 16:02:02 32.6 C 20 % 6.73 C
2360 24-08-2009 16:14:02 32.6 C 20 % 6.73 C
2361 24-08-2009 16:26:02 32.5 C 20 % 6.65 C
2362 24-08-2009 16:38:02 31.9 C 20 % 6.16 C
2363 24-08-2009 16:50:02 31.9 C 20 % 6.16 C
2364 24-08-2009 17:02:02 32.4 C 20 % 6.57 C
2365 24-08-2009 17:14:02 32.9 C 20 % 6.98 C
2366 24-08-2009 17:26:02 33 C 20 % 7.06 C
2367 24-08-2009 17:38:02 33 C 20 % 7.06 C
2368 24-08-2009 17:50:02 33.1 C 20 % 7.14 C
2369 24-08-2009 18:02:02 33.1 C 20 % 7.14 C
2370 24-08-2009 18:14:02 33.1 C 20 % 7.14 C
2371 24-08-2009 18:26:02 33.1 C 20 % 7.14 C
2372 24-08-2009 18:38:01 33.1 C 20 % 7.14 C
2373 24-08-2009 18:50:02 32.9 C 20 % 6.98 C
2374 24-08-2009 19:02:02 32.6 C 20 % 6.73 C
2375 24-08-2009 19:14:02 32.1 C 21 % 7.03 C
Sensor: Nr:Datum:Temp:Feuchte:Taupunkt:
Aussen-T/F 2376 24-08-2009 19:26:02 31.4 C 24 % 8.41 C
2377 24-08-2009 19:38:01 30.6 C 27 % 9.48 C
2378 24-08-2009 19:50:02 30.3 C 29 % 10.29 C
2379 24-08-2009 20:02:01 29.7 C 31 % 10.77 C
2380 24-08-2009 20:14:01 28.5 C 33 % 10.67 C
2381 24-08-2009 20:26:02 27.5 C 35 % 10.68 C
2382 24-08-2009 20:38:01 26.7 C 37 % 10.81 C
2383 24-08-2009 20:50:03 26.1 C 39 % 11.07 C
2384 24-08-2009 21:02:03 25.8 C 40 % 11.18 C
2385 24-08-2009 21:14:03 25.6 C 41 % 11.38 C
2386 24-08-2009 21:26:02 25.5 C 42 % 11.65 C
2387 24-08-2009 21:38:03 25.5 C 42 % 11.65 C
2388 24-08-2009 21:50:02 25.3 C 42 % 11.47 C
2389 24-08-2009 22:02:01 25 C 43 % 11.56 C
2390 24-08-2009 22:14:01 24.6 C 45 % 11.88 C
2391 24-08-2009 22:26:02 24.2 C 45 % 11.52 C
2392 24-08-2009 22:38:01 24 C 46 % 11.67 C
2393 24-08-2009 22:50:02 24 C 46 % 11.67 C
2394 24-08-2009 23:02:01 23.9 C 47 % 11.91 C
2395 24-08-2009 23:14:01 23.6 C 49 % 12.27 C
2396 24-08-2009 23:26:02 23.2 C 50 % 12.21 C
2397 24-08-2009 23:38:02 23 C 49 % 11.72 C
2398 24-08-2009 23:50:02 22.5 C 52 % 12.16 C
2399 25-08-2009 00:02:02 22.2 C 51 % 11.59 C
2400 25-08-2009 00:14:02 22.1 C 52 % 11.79 C
Sensor: Nr:Datum:Temp:Feuchte:Taupunkt:
Aussen-T/F 2401 25-08-2009 00:26:02 22 C 51 % 11.4 C
2402 25-08-2009 00:38:02 21.8 C 53 % 11.8 C
2403 25-08-2009 00:50:01 21.4 C 52 % 11.14 C
2404 25-08-2009 01:02:02 21.2 C 53 % 11.25 C
2405 25-08-2009 01:14:02 21.2 C 54 % 11.53 C
2406 25-08-2009 01:26:01 21 C 55 % 11.62 C
2407 25-08-2009 01:38:02 20.6 C 56 % 11.52 C
2408 25-08-2009 01:50:02 20.8 C 56 % 11.71 C
2409 25-08-2009 02:02:02 20.9 C 56 % 11.8 C
2410 25-08-2009 02:14:02 20.7 C 57 % 11.88 C
2411 25-08-2009 02:26:02 20.6 C 57 % 11.79 C
2412 25-08-2009 02:38:02 20.7 C 57 % 11.88 C
2413 25-08-2009 02:50:01 20.8 C 58 % 12.24 C
2414 25-08-2009 03:02:01 20.5 C 58 % 11.96 C
2415 25-08-2009 03:14:02 20.5 C 59 % 12.22 C
2416 25-08-2009 03:26:02 20.3 C 59 % 12.03 C
2417 25-08-2009 03:38:01 20.2 C 59 % 11.94 C
2418 25-08-2009 03:50:01 20 C 60 % 12 C
2419 25-08-2009 04:02:02 20 C 60 % 12 C
2420 25-08-2009 04:14:02 20 C 61 % 12.26 C
2421 25-08-2009 04:26:01 19.9 C 62 % 12.41 C
2422 25-08-2009 04:38:02 20 C 60 % 12 C
2423 25-08-2009 04:50:01 20 C 60 % 12 C
2424 25-08-2009 05:02:02 20 C 60 % 12 C
2425 25-08-2009 05:14:02 19.7 C 63 % 12.46 C
Sensor: Nr:Datum:Temp:Feuchte:Taupunkt:
Aussen-T/F 2426 25-08-2009 05:26:01 20.1 C 57 % 11.32 C
2427 25-08-2009 05:38:01 20.3 C 55 % 10.97 C
2428 25-08-2009 05:50:01 19.9 C 57 % 11.14 C
2429 25-08-2009 06:02:02 19.6 C 59 % 11.37 C
2430 25-08-2009 06:14:02 19.2 C 61 % 11.5 C
2431 25-08-2009 06:26:01 19.1 C 63 % 11.9 C
2432 25-08-2009 06:38:01 19.1 C 63 % 11.9 C
2433 25-08-2009 06:50:01 19.2 C 62 % 11.75 C
2434 25-08-2009 07:02:01 19.4 C 63 % 12.18 C
2435 25-08-2009 07:14:01 19.6 C 62 % 12.13 C
2436 25-08-2009 07:26:01 19.8 C 61 % 12.07 C
2437 25-08-2009 07:38:01 20 C 59 % 11.75 C
2438 25-08-2009 07:50:01 20.1 C 59 % 11.84 C
2439 25-08-2009 08:02:01 20.2 C 59 % 11.94 C
2440 25-08-2009 08:14:01 20.1 C 60 % 12.1 C
2441 25-08-2009 08:26:02 20.3 C 61 % 12.54 C
2442 25-08-2009 08:38:01 20.4 C 62 % 12.88 C
2443 25-08-2009 08:50:01 20.8 C 60 % 12.76 C
2444 25-08-2009 09:02:01 21.3 C 57 % 12.44 C
2445 25-08-2009 09:14:01 21.5 C 57 % 12.63 C
2446 25-08-2009 09:26:02 21.4 C 59 % 13.06 C
2447 25-08-2009 09:38:01 22 C 58 % 13.36 C
2448 25-08-2009 09:50:02 22.5 C 56 % 13.29 C
2449 25-08-2009 10:02:01 23.2 C 52 % 12.8 C
2450 25-08-2009 10:14:01 23.6 C 51 % 12.88 C
Sensor: Nr:Datum:Temp:Feuchte:Taupunkt:
Aussen-T/F 2451 25-08-2009 10:26:02 23.7 C 49 % 12.36 C
2452 25-08-2009 10:38:01 23.9 C 49 % 12.54 C
2453 25-08-2009 10:50:02 23.8 C 50 % 12.76 C
2454 25-08-2009 11:02:01 23.7 C 53 % 13.56 C
2455 25-08-2009 11:14:01 23.4 C 53 % 13.28 C
2456 25-08-2009 11:26:01 23.6 C 53 % 13.46 C
2457 25-08-2009 11:38:01 24 C 50 % 12.94 C
2458 25-08-2009 11:50:02 23.8 C 51 % 13.06 C
2459 25-08-2009 12:02:01 24.6 C 48 % 12.87 C
2460 25-08-2009 12:14:01 25.2 C 46 % 12.76 C
2461 25-08-2009 12:26:01 26 C 45 % 13.15 C
2462 25-08-2009 12:38:02 26.7 C 43 % 13.09 C
2463 25-08-2009 12:50:01 27.5 C 39 % 12.31 C
2464 25-08-2009 13:02:02 28.1 C 38 % 12.45 C
2465 25-08-2009 13:14:02 28.1 C 38 % 12.45 C
2466 25-08-2009 13:26:01 28.7 C 36 % 12.16 C
2467 25-08-2009 13:38:02 28.3 C 33 % 10.49 C
2468 25-08-2009 13:50:01 27.8 C 34 % 10.51 C
2469 25-08-2009 14:02:02 28.7 C 33 % 10.84 C
2470 25-08-2009 14:14:02 28.3 C 33 % 10.49 C
2471 25-08-2009 14:26:01 28.7 C 32 % 10.38 C
2472 25-08-2009 14:38:02 28.3 C 33 % 10.49 C
2473 25-08-2009 14:50:01 28.3 C 33 % 10.49 C
2474 25-08-2009 15:02:02 28.1 C 33 % 10.32 C
2475 25-08-2009 15:14:02 27.5 C 36 % 11.1 C
Sensor: Nr:Datum:Temp:Feuchte:Taupunkt:
Aussen-T/F 2476 25-08-2009 15:26:01 27.9 C 36 % 11.45 C
2477 25-08-2009 15:38:01 29.1 C 32 % 10.73 C
2478 25-08-2009 15:50:01 27.9 C 34 % 10.59 C
2479 25-08-2009 16:02:01 28.1 C 34 % 10.77 C
2480 25-08-2009 16:14:02 28.5 C 31 % 9.73 C
2481 25-08-2009 16:26:01 28.3 C 33 % 10.49 C
2482 25-08-2009 16:38:01 28 C 33 % 10.23 C
2483 25-08-2009 16:50:01 27.6 C 33 % 9.89 C
2484 25-08-2009 17:02:01 27.4 C 36 % 11.01 C
2485 25-08-2009 17:14:01 26.8 C 36 % 10.49 C
2486 25-08-2009 17:26:01 26.6 C 37 % 10.72 C
2487 25-08-2009 17:38:01 25.7 C 38 % 10.32 C
2488 25-08-2009 17:50:01 25.6 C 39 % 10.62 C
2489 25-08-2009 18:02:01 25.5 C 38 % 10.15 C
2490 25-08-2009 18:14:01 25.6 C 39 % 10.62 C
2491 25-08-2009 18:26:02 25.4 C 41 % 11.2 C
2492 25-08-2009 18:38:01 25 C 42 % 11.2 C
2493 25-08-2009 18:50:02 24.8 C 45 % 12.06 C
2494 25-08-2009 19:02:01 24.4 C 48 % 12.68 C
2495 25-08-2009 19:14:01 24.3 C 49 % 12.91 C
2496 25-08-2009 19:26:02 24.1 C 50 % 13.03 C
2497 25-08-2009 19:38:01 23.9 C 53 % 13.74 C
2498 25-08-2009 19:50:02 23.7 C 54 % 13.84 C
2499 25-08-2009 20:02:01 23.5 C 55 % 13.94 C
2500 25-08-2009 20:14:01 23.2 C 56 % 13.94 C
Sensor: Nr:Datum:Temp:Feuchte:Taupunkt:
Aussen-T/F 2501 25-08-2009 20:26:02 23.2 C 57 % 14.21 C
2502 25-08-2009 20:38:01 23.2 C 56 % 13.94 C
2503 25-08-2009 20:50:02 23.1 C 56 % 13.85 C
2504 25-08-2009 21:02:02 22.6 C 58 % 13.92 C
2505 25-08-2009 21:14:02 22.1 C 60 % 13.98 C
2506 25-08-2009 21:26:01 22 C 61 % 14.14 C
2507 25-08-2009 21:38:02 21.9 C 62 % 14.29 C
2508 25-08-2009 21:50:01 21.9 C 63 % 14.54 C
2509 25-08-2009 22:03:03 21.9 C 62 % 14.29 C
2510 25-08-2009 22:15:03 21.7 C 63 % 14.35 C
2511 25-08-2009 22:27:03 21.5 C 64 % 14.41 C
2512 25-08-2009 22:39:03 21.3 C 64 % 14.22 C
2513 25-08-2009 22:51:03 21.2 C 65 % 14.36 C
2514 25-08-2009 23:03:03 21.2 C 66 % 14.6 C
2515 25-08-2009 23:15:03 21.2 C 66 % 14.6 C
2516 25-08-2009 23:27:03 21.3 C 66 % 14.69 C
2517 25-08-2009 23:39:03 20.9 C 62 % 13.35 C
2518 25-08-2009 23:51:03 20.6 C 61 % 12.82 C
2519 26-08-2009 00:03:03 20.8 C 59 % 12.5 C
2520 26-08-2009 00:15:03 20.7 C 58 % 12.15 C
2521 26-08-2009 00:27:03 20.4 C 59 % 12.12 C
2522 26-08-2009 00:39:04 20.4 C 59 % 12.12 C
2523 26-08-2009 00:51:04 20.3 C 59 % 12.03 C
2524 26-08-2009 01:03:04 20.3 C 59 % 12.03 C
2525 26-08-2009 01:15:04 19.9 C 61 % 12.16 C
Sensor: Nr:Datum:Temp:Feuchte:Taupunkt:
Aussen-T/F 2526 26-08-2009 01:27:04 19.8 C 61 % 12.07 C
2527 26-08-2009 01:39:04 19.7 C 61 % 11.97 C
2528 26-08-2009 01:51:04 19.3 C 62 % 11.84 C
2529 26-08-2009 02:03:04 18.8 C 64 % 11.85 C
2530 26-08-2009 02:15:04 18.7 C 64 % 11.76 C
2531 26-08-2009 02:27:04 18.5 C 65 % 11.8 C
2532 26-08-2009 02:39:04 18.2 C 66 % 11.75 C
2533 26-08-2009 02:51:04 17.8 C 68 % 11.82 C
2534 26-08-2009 03:03:04 17.7 C 69 % 11.95 C
2535 26-08-2009 03:15:04 17.5 C 70 % 11.97 C
2536 26-08-2009 03:27:04 17.1 C 70 % 11.59 C
2537 26-08-2009 03:39:04 16.9 C 71 % 11.61 C
2538 26-08-2009 03:51:04 16.7 C 72 % 11.63 C
2539 26-08-2009 04:03:04 16.6 C 73 % 11.74 C
2540 26-08-2009 04:15:04 16.4 C 73 % 11.55 C
2541 26-08-2009 04:27:05 16.3 C 73 % 11.46 C
2542 26-08-2009 04:39:05 16.1 C 73 % 11.26 C
2543 26-08-2009 04:51:05 15.8 C 75 % 11.38 C
2544 26-08-2009 05:03:05 15.7 C 76 % 11.48 C
2545 26-08-2009 05:15:05 15.6 C 76 % 11.39 C
2546 26-08-2009 05:27:05 15.4 C 76 % 11.19 C
2547 26-08-2009 05:39:05 15.3 C 77 % 11.3 C
2548 26-08-2009 05:51:05 15.4 C 77 % 11.39 C
2549 26-08-2009 06:03:05 15.6 C 77 % 11.59 C
2550 26-08-2009 06:15:05 15.4 C 77 % 11.39 C
Sensor: Nr:Datum:Temp:Feuchte:Taupunkt:
Aussen-T/F 2551 26-08-2009 06:27:05 15.2 C 77 % 11.2 C
2552 26-08-2009 06:39:05 15.1 C 78 % 11.3 C
2553 26-08-2009 06:51:05 14.9 C 79 % 11.29 C
2554 26-08-2009 07:03:02 14.8 C 80 % 11.39 C
2555 26-08-2009 07:15:02 14.7 C 81 % 11.48 C
2556 26-08-2009 07:27:02 14.7 C 81 % 11.48 C
2557 26-08-2009 07:39:02 14.8 C 81 % 11.57 C
2558 26-08-2009 07:51:02 15 C 80 % 11.58 C
2559 26-08-2009 08:03:02 15.1 C 80 % 11.68 C
2560 26-08-2009 08:15:02 15.2 C 80 % 11.78 C
2561 26-08-2009 08:27:03 15.4 C 80 % 11.97 C
2562 26-08-2009 08:39:02 15.6 C 80 % 12.16 C
2563 26-08-2009 08:51:02 15.9 C 79 % 12.27 C
2564 26-08-2009 09:03:01 16.1 C 77 % 12.07 C
2565 26-08-2009 09:15:02 16.4 C 77 % 12.36 C
2566 26-08-2009 09:27:02 16.8 C 76 % 12.55 C
2567 26-08-2009 09:39:02 17.4 C 73 % 12.51 C
2568 26-08-2009 09:51:02 17.9 C 73 % 12.99 C
2569 26-08-2009 10:03:02 18.5 C 68 % 12.49 C
2570 26-08-2009 10:15:02 19.1 C 65 % 12.37 C
2571 26-08-2009 10:27:02 19.6 C 62 % 12.13 C
2572 26-08-2009 10:39:03 20.2 C 59 % 11.94 C
2573 26-08-2009 10:51:02 20.9 C 46 % 8.86 C
2574 26-08-2009 11:03:02 21.3 C 44 % 8.56 C
2575 26-08-2009 11:15:01 21.8 C 42 % 8.33 C
Sensor: Nr:Datum:Temp:Feuchte:Taupunkt:
Aussen-T/F 2576 26-08-2009 11:27:01 22.3 C 37 % 6.92 C
2577 26-08-2009 11:39:02 22.5 C 37 % 7.1 C
2578 26-08-2009 11:51:02 22.7 C 36 % 6.87 C
2579 26-08-2009 12:03:02 23.4 C 35 % 7.08 C
2580 26-08-2009 12:15:02 23.8 C 33 % 6.57 C
2581 26-08-2009 12:27:02 24.1 C 31 % 5.93 C
2582 26-08-2009 12:39:02 24.5 C 30 % 5.8 C
2583 26-08-2009 12:51:02 24 C 31 % 5.84 C
2584 26-08-2009 13:03:02 24.9 C 31 % 6.62 C
2585 26-08-2009 13:15:02 25.5 C 29 % 6.17 C
2586 26-08-2009 13:27:02 25.9 C 29 % 6.52 C
2587 26-08-2009 13:39:02 26.6 C 28 % 6.61 C
2588 26-08-2009 13:51:02 26.9 C 27 % 6.33 C
2589 26-08-2009 14:03:02 27.2 C 28 % 7.12 C
2590 26-08-2009 14:15:02 27.8 C 27 % 7.1 C
2591 26-08-2009 14:27:02 27.8 C 27 % 7.1 C
2592 26-08-2009 14:39:02 27.8 C 27 % 7.1 C
2593 26-08-2009 14:51:02 28.6 C 27 % 7.78 C
2594 26-08-2009 15:03:02 28 C 30 % 8.82 C
2595 26-08-2009 15:15:02 27.8 C 31 % 9.13 C
2596 26-08-2009 15:27:02 27.9 C 29 % 8.23 C
2597 26-08-2009 15:39:02 27.8 C 32 % 9.6 C
2598 26-08-2009 15:51:02 27.1 C 30 % 8.04 C
2599 26-08-2009 16:03:02 27.7 C 30 % 8.56 C
2600 26-08-2009 16:15:02 28.7 C 27 % 7.86 C
Sensor: Nr:Datum:Temp:Feuchte:Taupunkt:
Aussen-T/F 2601 26-08-2009 16:27:02 28.9 C 26 % 7.48 C
2602 26-08-2009 16:39:02 28.6 C 27 % 7.78 C
2603 26-08-2009 16:51:02 29.6 C 26 % 8.07 C
2604 26-08-2009 17:03:02 29.8 C 25 % 7.67 C
2605 26-08-2009 17:15:02 29.5 C 25 % 7.41 C
2606 26-08-2009 17:27:02 28.1 C 26 % 6.8 C
2607 26-08-2009 17:39:02 28.4 C 26 % 7.06 C
2608 26-08-2009 17:51:02 28.7 C 26 % 7.31 C
2609 26-08-2009 18:03:02 29 C 24 % 6.4 C
2610 26-08-2009 18:15:02 28.1 C 24 % 5.65 C
2611 26-08-2009 18:27:03 27.8 C 26 % 6.55 C
2612 26-08-2009 18:39:01 27.7 C 26 % 6.47 C
2613 26-08-2009 18:51:02 28 C 26 % 6.72 C
2614 26-08-2009 19:03:01 28.6 C 25 % 6.66 C
2615 26-08-2009 19:15:01 28.5 C 25 % 6.57 C
2616 26-08-2009 19:27:01 27.6 C 28 % 7.46 C
2617 26-08-2009 19:39:02 27.4 C 28 % 7.29 C
2618 26-08-2009 19:51:02 26.4 C 31 % 7.92 C
2619 26-08-2009 20:03:02 25.3 C 34 % 8.32 C
2620 26-08-2009 20:15:02 24.3 C 36 % 8.28 C
2621 26-08-2009 20:27:02 23.5 C 39 % 8.76 C
2622 26-08-2009 20:39:02 23 C 40 % 8.68 C
2623 26-08-2009 20:51:02 22.8 C 42 % 9.23 C
2624 26-08-2009 21:03:01 22.8 C 43 % 9.58 C
2625 26-08-2009 21:15:02 22.7 C 44 % 9.83 C
Sensor: Nr:Datum:Temp:Feuchte:Taupunkt:
Aussen-T/F 2626 26-08-2009 21:27:02 22.6 C 44 % 9.74 C
2627 26-08-2009 21:39:01 22.7 C 45 % 10.16 C
2628 26-08-2009 21:51:02 22.5 C 46 % 10.31 C
2629 26-08-2009 22:04:03 22.4 C 47 % 10.54 C
2630 26-08-2009 22:16:04 22.1 C 49 % 10.89 C
2631 26-08-2009 22:28:04 22 C 50 % 11.11 C
2632 26-08-2009 22:40:04 21.8 C 53 % 11.8 C
2633 26-08-2009 22:52:04 21.9 C 53 % 11.89 C
2634 26-08-2009 23:04:04 21.6 C 54 % 11.9 C
2635 26-08-2009 23:16:04 21.4 C 55 % 11.99 C
2636 26-08-2009 23:28:04 21.3 C 56 % 12.17 C
2637 26-08-2009 23:40:04 21.1 C 57 % 12.25 C
2638 26-08-2009 23:52:04 20.8 C 59 % 12.5 C
2639 27-08-2009 00:04:04 20.7 C 59 % 12.41 C
2640 27-08-2009 00:16:04 20.4 C 60 % 12.38 C
2641 27-08-2009 00:28:04 20.3 C 61 % 12.54 C
2642 27-08-2009 00:40:04 20 C 61 % 12.26 C
2643 27-08-2009 00:52:04 19.9 C 63 % 12.65 C
2644 27-08-2009 01:04:04 19.9 C 63 % 12.65 C
2645 27-08-2009 01:16:04 19.8 C 64 % 12.8 C
2646 27-08-2009 01:28:04 19.6 C 65 % 12.84 C
2647 27-08-2009 01:40:04 19.3 C 66 % 12.79 C
2648 27-08-2009 01:52:04 19.2 C 67 % 12.93 C
2649 27-08-2009 02:04:05 19 C 67 % 12.74 C
2650 27-08-2009 02:16:05 18.8 C 69 % 13 C
Sensor: Nr:Datum:Temp:Feuchte:Taupunkt:
Aussen-T/F 2651 27-08-2009 02:28:05 18.7 C 69 % 12.9 C
2652 27-08-2009 02:40:05 18.5 C 70 % 12.93 C
2653 27-08-2009 02:52:05 18.4 C 71 % 13.05 C
2654 27-08-2009 03:04:05 18.3 C 71 % 12.95 C
2655 27-08-2009 03:16:05 18 C 72 % 12.88 C
2656 27-08-2009 03:28:05 17.9 C 73 % 12.99 C
2657 27-08-2009 03:40:05 17.8 C 73 % 12.9 C
2658 27-08-2009 03:52:05 17.6 C 74 % 12.91 C
2659 27-08-2009 04:04:05 17.5 C 75 % 13.02 C
2660 27-08-2009 04:16:05 17.4 C 75 % 12.93 C
2661 27-08-2009 04:28:05 17.3 C 75 % 12.83 C
2662 27-08-2009 04:40:05 17.2 C 76 % 12.94 C
2663 27-08-2009 04:52:05 17 C 77 % 12.94 C
2664 27-08-2009 05:04:05 17 C 78 % 13.14 C
2665 27-08-2009 05:16:05 16.8 C 80 % 13.33 C
2666 27-08-2009 05:28:05 16.6 C 80 % 13.14 C
2667 27-08-2009 05:40:05 16.5 C 81 % 13.23 C
2668 27-08-2009 05:52:06 16.4 C 81 % 13.13 C
2669 27-08-2009 06:04:06 16.3 C 81 % 13.04 C
2670 27-08-2009 06:16:06 16.2 C 81 % 12.94 C
2671 27-08-2009 06:28:06 16.1 C 81 % 12.84 C
2672 27-08-2009 06:40:06 16.1 C 81 % 12.84 C
2673 27-08-2009 06:52:02 16 C 81 % 12.74 C
2674 27-08-2009 07:04:02 16 C 82 % 12.93 C
2675 27-08-2009 07:16:02 16 C 82 % 12.93 C
Sensor: Nr:Datum:Temp:Feuchte:Taupunkt:
Aussen-T/F 2676 27-08-2009 07:28:02 16 C 82 % 12.93 C
2677 27-08-2009 07:40:01 16.2 C 82 % 13.13 C
2678 27-08-2009 07:52:02 16.3 C 82 % 13.22 C
2679 27-08-2009 08:04:01 16.4 C 83 % 13.51 C
2680 27-08-2009 08:16:02 16.5 C 83 % 13.6 C
2681 27-08-2009 08:28:02 16.6 C 83 % 13.7 C
2682 27-08-2009 08:40:01 16.8 C 83 % 13.9 C
2683 27-08-2009 08:52:02 17.1 C 82 % 14 C
2684 27-08-2009 09:04:02 17.4 C 81 % 14.11 C
2685 27-08-2009 09:16:02 17.7 C 80 % 14.21 C
2686 27-08-2009 09:28:03 18.1 C 78 % 14.21 C
2687 27-08-2009 09:40:01 18.8 C 77 % 14.68 C
2688 27-08-2009 09:52:02 19.4 C 73 % 14.44 C
2689 27-08-2009 10:04:01 20 C 69 % 14.14 C
2690 27-08-2009 10:16:01 20.5 C 68 % 14.39 C
2691 27-08-2009 10:28:01 21 C 65 % 14.17 C
2692 27-08-2009 10:40:02 22 C 56 % 12.82 C
2693 27-08-2009 10:52:02 23 C 50 % 12.02 C
2694 27-08-2009 11:04:01 23.7 C 45 % 11.07 C
2695 27-08-2009 11:16:02 24.3 C 42 % 10.57 C
2696 27-08-2009 11:28:02 24.8 C 40 % 10.29 C
2697 27-08-2009 11:40:02 25.2 C 38 % 9.88 C
2698 27-08-2009 11:52:02 25.5 C 36 % 9.34 C
2699 27-08-2009 12:04:03 25.8 C 35 % 9.19 C
2700 27-08-2009 12:16:02 25.7 C 35 % 9.1 C
Sensor: Nr:Datum:Temp:Feuchte:Taupunkt:
Aussen-T/F 2701 27-08-2009 12:28:02 26.4 C 33 % 8.84 C
2702 27-08-2009 12:40:02 26.5 C 31 % 8.01 C
2703 27-08-2009 12:52:01 26.9 C 30 % 7.87 C
2704 27-08-2009 13:04:02 27.1 C 30 % 8.04 C
2705 27-08-2009 13:16:01 27.7 C 28 % 7.55 C
2706 27-08-2009 13:28:01 28.1 C 27 % 7.35 C
2707 27-08-2009 13:40:02 28.2 C 26 % 6.89 C
2708 27-08-2009 13:52:02 28.6 C 26 % 7.23 C
2709 27-08-2009 14:04:02 29 C 26 % 7.57 C
2710 27-08-2009 14:16:01 29.5 C 25 % 7.41 C
2711 27-08-2009 14:28:01 30 C 24 % 7.24 C
2712 27-08-2009 14:40:02 30.1 C 23 % 6.7 C
2713 27-08-2009 14:52:01 30.3 C 22 % 6.22 C
2714 27-08-2009 15:04:02 30.4 C 21 % 5.63 C
2715 27-08-2009 15:16:01 30.3 C 20 % 4.85 C
2716 27-08-2009 15:28:01 30.5 C 21 % 5.72 C
2717 27-08-2009 15:40:02 30.3 C 21 % 5.55 C
2718 27-08-2009 15:52:01 30.6 C 21 % 5.8 C
2719 27-08-2009 16:04:02 30.5 C 22 % 6.39 C
2720 27-08-2009 16:16:01 30 C 22 % 5.97 C
2721 27-08-2009 16:28:01 30.3 C 23 % 6.87 C
2722 27-08-2009 16:40:01 30.6 C 21 % 5.8 C
2723 27-08-2009 16:52:01 30.5 C 23 % 7.03 C
2724 27-08-2009 17:04:02 30.1 C 24 % 7.32 C
2725 27-08-2009 17:16:02 30 C 25 % 7.83 C
Sensor: Nr:Datum:Temp:Feuchte:Taupunkt:
Aussen-T/F 2726 27-08-2009 17:28:02 29.7 C 25 % 7.58 C
2727 27-08-2009 17:40:01 29.5 C 26 % 7.99 C
2728 27-08-2009 17:52:01 29.2 C 25 % 7.16 C
2729 27-08-2009 18:04:01 29.2 C 25 % 7.16 C
2730 27-08-2009 18:16:02 30.6 C 22 % 6.47 C
2731 27-08-2009 18:28:02 31 C 21 % 6.13 C
2732 27-08-2009 18:40:01 30.7 C 22 % 6.55 C
2733 27-08-2009 18:52:03 29.8 C 24 % 7.07 C
2734 27-08-2009 19:04:02 29.4 C 25 % 7.33 C
2735 27-08-2009 19:16:02 30.5 C 25 % 8.25 C
2736 27-08-2009 19:28:02 30.7 C 23 % 7.2 C
2737 27-08-2009 19:40:02 30.3 C 25 % 8.09 C
2738 27-08-2009 19:52:03 29.2 C 26 % 7.73 C
2739 27-08-2009 20:04:02 28.4 C 28 % 8.14 C
2740 27-08-2009 20:16:02 27.2 C 30 % 8.13 C
2741 27-08-2009 20:28:02 26.5 C 32 % 8.47 C
2742 27-08-2009 20:40:02 25.9 C 34 % 8.85 C
2743 27-08-2009 20:52:02 25.3 C 35 % 8.75 C
2744 27-08-2009 21:04:02 24.7 C 37 % 9.04 C
2745 27-08-2009 21:16:01 24.7 C 38 % 9.44 C
2746 27-08-2009 21:28:01 24.2 C 40 % 9.75 C
2747 27-08-2009 21:40:02 24 C 42 % 10.3 C
2748 27-08-2009 21:52:02 23.7 C 42 % 10.03 C
2749 27-08-2009 22:04:02 23.6 C 43 % 10.3 C
2750 27-08-2009 22:16:02 23.4 C 44 % 10.46 C
Sensor: Nr:Datum:Temp:Feuchte:Taupunkt:
Aussen-T/F 2751 27-08-2009 22:28:02 22.9 C 47 % 11 C
2752 27-08-2009 22:41:03 22.6 C 48 % 11.04 C
2753 27-08-2009 22:53:03 22.5 C 49 % 11.26 C
2754 27-08-2009 23:05:03 22.3 C 50 % 11.38 C
2755 27-08-2009 23:17:03 22.3 C 50 % 11.38 C
2756 27-08-2009 23:29:03 22.1 C 50 % 11.2 C
2757 27-08-2009 23:41:03 22.1 C 51 % 11.5 C
2758 27-08-2009 23:53:03 22.2 C 50 % 11.29 C
2759 28-08-2009 00:05:03 22.1 C 51 % 11.5 C
2760 28-08-2009 00:17:03 22 C 51 % 11.4 C
2761 28-08-2009 00:29:03 22 C 52 % 11.7 C
2762 28-08-2009 00:41:03 22 C 52 % 11.7 C
2763 28-08-2009 00:53:04 21.9 C 53 % 11.89 C
2764 28-08-2009 01:05:04 21.8 C 54 % 12.08 C
2765 28-08-2009 01:17:04 21.6 C 54 % 11.9 C
2766 28-08-2009 01:29:04 21.3 C 55 % 11.9 C
2767 28-08-2009 01:41:04 21.3 C 56 % 12.17 C
2768 28-08-2009 01:53:04 21.2 C 56 % 12.08 C
2769 28-08-2009 02:05:04 21 C 56 % 11.89 C
2770 28-08-2009 02:17:04 21 C 57 % 12.16 C
2771 28-08-2009 02:29:04 20.9 C 58 % 12.33 C
2772 28-08-2009 02:41:04 20.9 C 58 % 12.33 C
2773 28-08-2009 02:53:04 20.8 C 58 % 12.24 C
2774 28-08-2009 03:05:04 20.8 C 58 % 12.24 C
2775 28-08-2009 03:17:04 20.8 C 59 % 12.5 C
Sensor: Nr:Datum:Temp:Feuchte:Taupunkt:
Aussen-T/F 2776 28-08-2009 03:29:04 20.6 C 59 % 12.31 C
2777 28-08-2009 03:41:04 20.4 C 60 % 12.38 C
2778 28-08-2009 03:53:04 20.4 C 60 % 12.38 C
2779 28-08-2009 04:05:04 20.4 C 60 % 12.38 C
2780 28-08-2009 04:17:04 20.3 C 60 % 12.29 C
2781 28-08-2009 04:29:04 20.1 C 60 % 12.1 C
2782 28-08-2009 04:41:04 20 C 61 % 12.26 C
2783 28-08-2009 04:53:05 20 C 61 % 12.26 C
2784 28-08-2009 05:05:05 19.8 C 62 % 12.31 C
2785 28-08-2009 05:17:05 19.7 C 63 % 12.46 C
2786 28-08-2009 05:29:05 19.7 C 63 % 12.46 C
2787 28-08-2009 05:41:05 19.6 C 64 % 12.61 C
2788 28-08-2009 05:53:05 19.5 C 64 % 12.51 C
2789 28-08-2009 06:05:05 19.6 C 63 % 12.37 C
2790 28-08-2009 06:17:05 19.7 C 62 % 12.22 C
2791 28-08-2009 06:29:05 19.6 C 62 % 12.13 C
2792 28-08-2009 06:41:05 19.5 C 63 % 12.27 C
2793 28-08-2009 06:53:05 19.3 C 64 % 12.32 C
2794 28-08-2009 07:05:03 19.2 C 65 % 12.47 C
2795 28-08-2009 07:17:03 19.2 C 66 % 12.7 C
2796 28-08-2009 07:29:03 19.4 C 65 % 12.66 C
2797 28-08-2009 07:41:03 19.5 C 65 % 12.75 C
2798 28-08-2009 07:53:02 19.5 C 65 % 12.75 C
2799 28-08-2009 08:05:02 19.7 C 65 % 12.94 C
2800 28-08-2009 08:17:02 20.2 C 63 % 12.94 C
Sensor: Nr:Datum:Temp:Feuchte:Taupunkt:
Aussen-T/F 2801 28-08-2009 08:29:02 20.1 C 63 % 12.84 C
2802 28-08-2009 08:41:02 20.3 C 62 % 12.79 C
2803 28-08-2009 08:53:01 20.6 C 61 % 12.82 C
2804 28-08-2009 09:05:02 21 C 59 % 12.69 C
2805 28-08-2009 09:17:01 21.3 C 55 % 11.9 C
2806 28-08-2009 09:29:01 21.7 C 53 % 11.71 C
2807 28-08-2009 09:41:01 21.8 C 53 % 11.8 C
2808 28-08-2009 09:53:01 22.1 C 51 % 11.5 C
2809 28-08-2009 10:05:02 22.3 C 50 % 11.38 C
2810 28-08-2009 10:17:01 22 C 51 % 11.4 C
2811 28-08-2009 10:29:01 21.8 C 53 % 11.8 C
2812 28-08-2009 10:41:02 21.9 C 51 % 11.31 C
2813 28-08-2009 10:53:01 22.1 C 49 % 10.89 C
2814 28-08-2009 11:05:02 22.1 C 49 % 10.89 C
2815 28-08-2009 11:17:02 22.7 C 47 % 10.81 C
2816 28-08-2009 11:29:02 22.4 C 48 % 10.86 C
2817 28-08-2009 11:41:02 22.4 C 45 % 9.89 C
2818 28-08-2009 11:53:01 23.1 C 40 % 8.77 C
2819 28-08-2009 12:05:02 23.2 C 39 % 8.49 C
2820 28-08-2009 12:17:02 23.3 C 37 % 7.8 C
2821 28-08-2009 12:29:02 23.9 C 36 % 7.93 C
2822 28-08-2009 12:41:02 23.8 C 35 % 7.43 C
2823 28-08-2009 12:53:01 23.4 C 36 % 7.49 C
2824 28-08-2009 13:05:02 22.9 C 37 % 7.45 C
2825 28-08-2009 13:17:02 22.3 C 40 % 8.06 C
Sensor: Nr:Datum:Temp:Feuchte:Taupunkt:
Aussen-T/F 2826 28-08-2009 13:29:02 21.8 C 42 % 8.33 C
2827 28-08-2009 13:41:01 22 C 41 % 8.15 C
2828 28-08-2009 13:53:02 22.8 C 41 % 8.87 C
2829 28-08-2009 14:05:01 24 C 37 % 8.42 C
2830 28-08-2009 14:17:02 24.2 C 37 % 8.6 C
2831 28-08-2009 14:29:02 24.2 C 35 % 7.78 C
2832 28-08-2009 14:41:01 24.5 C 35 % 8.05 C
2833 28-08-2009 14:53:02 24.6 C 35 % 8.13 C
2834 28-08-2009 15:05:01 24.3 C 35 % 7.87 C
2835 28-08-2009 15:17:01 24.9 C 32 % 7.08 C
2836 28-08-2009 15:29:01 25.3 C 30 % 6.49 C
2837 28-08-2009 15:41:01 25.5 C 28 % 5.67 C
2838 28-08-2009 15:53:02 25.7 C 27 % 5.31 C
2839 28-08-2009 16:05:02 25.3 C 28 % 5.49 C
2840 28-08-2009 16:17:02 25.4 C 26 % 4.52 C
2841 28-08-2009 16:29:02 25.7 C 25 % 4.21 C
2842 28-08-2009 16:41:02 25.7 C 25 % 4.21 C
2843 28-08-2009 16:53:02 24.7 C 27 % 4.46 C
2844 28-08-2009 17:05:02 24.9 C 26 % 4.09 C
2845 28-08-2009 17:17:01 24.8 C 25 % 3.45 C
2846 28-08-2009 17:29:01 24.7 C 25 % 3.37 C
2847 28-08-2009 17:41:02 24.8 C 23 % 2.28 C
2848 28-08-2009 17:53:02 23.7 C 25 % 2.53 C
2849 28-08-2009 18:05:02 25.1 C 22 % 1.91 C
2850 28-08-2009 18:17:02 24.8 C 20 % 0.34 C
Sensor: Nr:Datum:Temp:Feuchte:Taupunkt:
Aussen-T/F 2851 28-08-2009 18:29:02 25.1 C 20 % 0.59 C
2852 28-08-2009 18:41:02 24.5 C 20 % 0.09 C
2853 28-08-2009 18:53:01 24 C 20 % -0.32 C
2854 28-08-2009 19:05:02 23.7 C 23 % 1.36 C
2855 28-08-2009 19:17:01 23.4 C 24 % 1.7 C
2856 28-08-2009 19:29:01 22.9 C 25 % 1.85 C
2857 28-08-2009 19:41:01 22.5 C 25 % 1.51 C
2858 28-08-2009 19:53:01 22.4 C 26 % 1.97 C
2859 28-08-2009 20:05:02 21.4 C 26 % 1.12 C
2860 28-08-2009 20:17:01 20.8 C 29 % 2.13 C
2861 28-08-2009 20:29:01 20.5 C 30 % 2.35 C
2862 28-08-2009 20:41:02 20.2 C 31 % 2.55 C
2863 28-08-2009 20:53:01 19.9 C 32 % 2.73 C
2864 28-08-2009 21:05:02 19.7 C 32 % 2.56 C
2865 28-08-2009 21:17:01 19.5 C 33 % 2.82 C
2866 28-08-2009 21:29:01 19.4 C 32 % 2.3 C
2867 28-08-2009 21:41:02 19.1 C 34 % 2.89 C
2868 28-08-2009 21:53:01 18.9 C 35 % 3.12 C
2869 28-08-2009 22:06:02 18.6 C 36 % 3.25 C
2870 28-08-2009 22:18:02 18.4 C 38 % 3.84 C
2871 28-08-2009 22:30:03 18.1 C 38 % 3.57 C
2872 28-08-2009 22:42:03 17.9 C 40 % 4.12 C
2873 28-08-2009 22:54:03 17.7 C 40 % 3.95 C
2874 28-08-2009 23:06:03 17.8 C 40 % 4.03 C
2875 28-08-2009 23:18:03 17.7 C 39 % 3.59 C
Sensor: Nr:Datum:Temp:Feuchte:Taupunkt:
Aussen-T/F 2876 28-08-2009 23:30:03 17.6 C 39 % 3.5 C
2877 28-08-2009 23:42:03 17.4 C 40 % 3.68 C
2878 28-08-2009 23:54:03 17.4 C 40 % 3.68 C
2879 29-08-2009 00:06:03 17.3 C 40 % 3.59 C
2880 29-08-2009 00:18:03 16.9 C 42 % 3.92 C
2881 29-08-2009 00:30:03 16.6 C 42 % 3.65 C
2882 29-08-2009 00:42:03 16.5 C 43 % 3.89 C
2883 29-08-2009 00:54:03 16.7 C 41 % 3.4 C
2884 29-08-2009 01:06:03 16.9 C 41 % 3.58 C
2885 29-08-2009 01:18:03 16.6 C 41 % 3.31 C
2886 29-08-2009 01:30:03 16.2 C 42 % 3.29 C
2887 29-08-2009 01:42:03 16 C 42 % 3.11 C
2888 29-08-2009 01:54:03 15.9 C 43 % 3.35 C
2889 29-08-2009 02:06:03 15.9 C 43 % 3.35 C
2890 29-08-2009 02:18:03 15.7 C 43 % 3.17 C
2891 29-08-2009 02:30:04 15.5 C 45 % 3.63 C
2892 29-08-2009 02:42:04 15.1 C 46 % 3.58 C
2893 29-08-2009 02:54:04 15 C 46 % 3.49 C
2894 29-08-2009 03:06:04 15 C 46 % 3.49 C
2895 29-08-2009 03:18:04 14.8 C 47 % 3.61 C
2896 29-08-2009 03:30:04 14.7 C 47 % 3.52 C
2897 29-08-2009 03:42:04 14.8 C 47 % 3.61 C
2898 29-08-2009 03:54:04 14.7 C 48 % 3.82 C
2899 29-08-2009 04:06:04 14.5 C 49 % 3.93 C
2900 29-08-2009 04:18:04 14.4 C 50 % 4.12 C
Sensor: Nr:Datum:Temp:Feuchte:Taupunkt:
Aussen-T/F 2901 29-08-2009 04:30:04 14.2 C 51 % 4.22 C
2902 29-08-2009 04:42:04 14 C 53 % 4.58 C
2903 29-08-2009 04:54:04 13.8 C 55 % 4.93 C
2904 29-08-2009 05:06:04 13.8 C 56 % 5.19 C
2905 29-08-2009 05:18:04 13.6 C 57 % 5.25 C
2906 29-08-2009 05:30:04 13.6 C 57 % 5.25 C
2907 29-08-2009 05:42:04 13.5 C 58 % 5.41 C
2908 29-08-2009 05:54:04 13.5 C 58 % 5.41 C
2909 29-08-2009 06:06:04 13.3 C 59 % 5.47 C
2910 29-08-2009 06:18:04 13.2 C 60 % 5.61 C
2911 29-08-2009 06:30:05 13 C 61 % 5.66 C
2912 29-08-2009 06:42:05 12.8 C 63 % 5.94 C
2913 29-08-2009 06:54:05 12.6 C 65 % 6.2 C
2914 29-08-2009 07:06:05 12.7 C 65 % 6.3 C
2915 29-08-2009 07:18:02 12.7 C 65 % 6.3 C
2916 29-08-2009 07:30:02 12.7 C 66 % 6.52 C
2917 29-08-2009 07:42:02 12.7 C 66 % 6.52 C
2918 29-08-2009 07:54:01 12.8 C 66 % 6.61 C
2919 29-08-2009 08:06:02 12.9 C 66 % 6.71 C
2920 29-08-2009 08:18:01 13.1 C 65 % 6.68 C
2921 29-08-2009 08:30:01 13.3 C 65 % 6.87 C
2922 29-08-2009 08:42:01 13.7 C 64 % 7.02 C
2923 29-08-2009 08:54:02 14 C 62 % 6.84 C
2924 29-08-2009 09:06:02 14.5 C 60 % 6.84 C
2925 29-08-2009 09:18:01 14.8 C 57 % 6.37 C
Sensor: Nr:Datum:Temp:Feuchte:Taupunkt:
Aussen-T/F 2926 29-08-2009 09:30:01 15 C 55 % 6.04 C
2927 29-08-2009 09:42:02 15 C 56 % 6.3 C
2928 29-08-2009 09:54:02 15.6 C 53 % 6.06 C
2929 29-08-2009 10:06:02 16.1 C 50 % 5.69 C
2930 29-08-2009 10:18:01 16.6 C 48 % 5.56 C
2931 29-08-2009 10:30:01 16.8 C 47 % 5.44 C
2932 29-08-2009 10:42:02 17 C 47 % 5.62 C
2933 29-08-2009 10:54:01 17.8 C 45 % 5.72 C
2934 29-08-2009 11:06:02 17.9 C 41 % 4.48 C
2935 29-08-2009 11:18:02 17.8 C 40 % 4.03 C
2936 29-08-2009 11:30:02 18.1 C 38 % 3.57 C
2937 29-08-2009 11:42:02 18.4 C 37 % 3.46 C
2938 29-08-2009 11:54:01 18.4 C 35 % 2.68 C
2939 29-08-2009 12:06:02 18.1 C 37 % 3.2 C
2940 29-08-2009 12:18:02 18.4 C 38 % 3.84 C
2941 29-08-2009 12:30:02 19.2 C 35 % 3.38 C
2942 29-08-2009 12:42:02 19.1 C 34 % 2.89 C
2943 29-08-2009 12:54:02 19.3 C 31 % 1.77 C
2944 29-08-2009 13:06:01 19.4 C 32 % 2.3 C
2945 29-08-2009 13:18:02 19.4 C 33 % 2.73 C
2946 29-08-2009 13:30:02 20.5 C 29 % 1.87 C
2947 29-08-2009 13:42:01 20.2 C 29 % 1.62 C
2948 29-08-2009 13:54:02 19.6 C 30 % 1.57 C
2949 29-08-2009 14:06:01 19.3 C 32 % 2.21 C
2950 29-08-2009 14:18:02 20.6 C 29 % 1.96 C
Sensor: Nr:Datum:Temp:Feuchte:Taupunkt:
Aussen-T/F 2951 29-08-2009 14:30:02 20 C 26 % -0.06 C
2952 29-08-2009 14:42:01 20.4 C 28 % 1.3 C
2953 29-08-2009 14:54:02 20.4 C 27 % 0.8 C
2954 29-08-2009 15:06:02 20.8 C 27 % 1.14 C
2955 29-08-2009 15:18:02 21.6 C 25 % 0.75 C
2956 29-08-2009 15:30:02 22.6 C 21 % -0.81 C
2957 29-08-2009 15:42:02 22.6 C 21 % -0.81 C
2958 29-08-2009 15:54:02 21.3 C 22 % -1.25 C
2959 29-08-2009 16:06:02 21.1 C 27 % 1.39 C
2960 29-08-2009 16:18:01 20.9 C 30 % 2.69 C
2961 29-08-2009 16:30:01 21 C 28 % 1.81 C
2962 29-08-2009 16:42:02 21.5 C 28 % 2.24 C
2963 29-08-2009 16:54:02 20.5 C 30 % 2.35 C
2964 29-08-2009 17:06:02 20.4 C 30 % 2.26 C
2965 29-08-2009 17:18:02 20.7 C 30 % 2.52 C
2966 29-08-2009 17:30:02 21.5 C 27 % 1.73 C
2967 29-08-2009 17:42:02 20.6 C 29 % 1.96 C
2968 29-08-2009 17:54:01 20.7 C 28 % 1.56 C
2969 29-08-2009 18:06:02 20.7 C 29 % 2.05 C
2970 29-08-2009 18:18:01 20.3 C 29 % 1.7 C
2971 29-08-2009 18:30:01 19.4 C 36 % 3.96 C
2972 29-08-2009 18:42:01 15.8 C 67 % 9.69 C
2973 29-08-2009 18:54:01 15.4 C 74 % 10.79 C
2974 29-08-2009 19:06:02 16.6 C 72 % 11.54 C
2975 29-08-2009 19:18:01 17.2 C 64 % 10.34 C
Sensor: Nr:Datum:Temp:Feuchte:Taupunkt:
Aussen-T/F 2976 29-08-2009 19:30:01 17 C 63 % 9.91 C
2977 29-08-2009 19:42:02 16.3 C 63 % 9.25 C
2978 29-08-2009 19:54:02 15.6 C 64 % 8.82 C
2979 29-08-2009 20:06:02 14.8 C 65 % 8.29 C
2980 29-08-2009 20:18:01 14.2 C 65 % 7.72 C
2981 29-08-2009 20:30:01 13.9 C 65 % 7.44 C
2982 29-08-2009 20:42:02 13.6 C 64 % 6.93 C
2983 29-08-2009 20:54:02 13.3 C 64 % 6.64 C
2984 29-08-2009 21:06:02 13.2 C 62 % 6.09 C
2985 29-08-2009 21:18:02 13.2 C 60 % 5.61 C
2986 29-08-2009 21:30:02 13 C 60 % 5.43 C
2987 29-08-2009 21:42:02 12.9 C 64 % 6.26 C
2988 29-08-2009 21:54:02 13 C 59 % 5.19 C
2989 29-08-2009 22:06:02 13 C 61 % 5.66 C
2990 29-08-2009 22:18:02 12.8 C 62 % 5.71 C
2991 29-08-2009 22:30:02 12.7 C 60 % 5.14 C
2992 29-08-2009 22:42:02 12.5 C 61 % 5.19 C
2993 29-08-2009 22:55:02 12.3 C 60 % 4.77 C
2994 29-08-2009 23:07:02 12.3 C 61 % 5.01 C
2995 29-08-2009 23:19:02 12.1 C 60 % 4.58 C
2996 29-08-2009 23:31:02 12 C 62 % 4.96 C
2997 29-08-2009 23:43:02 11.8 C 62 % 4.77 C
2998 29-08-2009 23:55:02 11.8 C 62 % 4.77 C
2999 30-08-2009 00:07:02 11.6 C 62 % 4.58 C
3000 30-08-2009 00:19:02 11.5 C 62 % 4.48 C
Sensor: Nr:Datum:Temp:Feuchte:Taupunkt:
Aussen-T/F 3001 30-08-2009 00:31:02 11.4 C 62 % 4.39 C
3002 30-08-2009 00:43:02 11.2 C 63 % 4.43 C
3003 30-08-2009 00:55:02 11 C 63 % 4.24 C
3004 30-08-2009 01:07:02 10.8 C 64 % 4.27 C
3005 30-08-2009 01:19:02 10.6 C 65 % 4.3 C
3006 30-08-2009 01:31:02 10.4 C 66 % 4.33 C
3007 30-08-2009 01:43:02 10.5 C 67 % 4.64 C
3008 30-08-2009 01:55:02 10.4 C 67 % 4.55 C
3009 30-08-2009 02:07:02 10.3 C 67 % 4.45 C
3010 30-08-2009 02:19:02 10.4 C 67 % 4.55 C
3011 30-08-2009 02:31:03 10.2 C 67 % 4.36 C
3012 30-08-2009 02:43:03 9.9 C 69 % 4.49 C
3013 30-08-2009 02:55:03 9.7 C 70 % 4.5 C
3014 30-08-2009 03:07:03 9.5 C 72 % 4.71 C
3015 30-08-2009 03:19:03 9.4 C 73 % 4.81 C
3016 30-08-2009 03:31:03 9.3 C 73 % 4.72 C
3017 30-08-2009 03:43:03 9.1 C 74 % 4.72 C
3018 30-08-2009 03:55:03 9.1 C 75 % 4.91 C
3019 30-08-2009 04:07:03 9.1 C 76 % 5.1 C
3020 30-08-2009 04:19:03 8.9 C 77 % 5.09 C
3021 30-08-2009 04:31:03 8.9 C 77 % 5.09 C
3022 30-08-2009 04:43:03 8.7 C 77 % 4.9 C
3023 30-08-2009 04:55:03 8.8 C 79 % 5.36 C
3024 30-08-2009 05:07:03 8.8 C 81 % 5.72 C
3025 30-08-2009 05:19:03 8.7 C 82 % 5.8 C
Sensor: Nr:Datum:Temp:Feuchte:Taupunkt:
Aussen-T/F 3026 30-08-2009 05:31:03 8.7 C 81 % 5.63 C
3027 30-08-2009 05:43:03 8.7 C 81 % 5.63 C
3028 30-08-2009 05:55:03 8.6 C 81 % 5.53 C
3029 30-08-2009 06:07:03 8.6 C 81 % 5.53 C
3030 30-08-2009 06:19:03 8.6 C 82 % 5.71 C
3031 30-08-2009 06:31:03 8.7 C 81 % 5.63 C
3032 30-08-2009 06:43:04 8.6 C 80 % 5.35 C
3033 30-08-2009 06:55:01 8.5 C 80 % 5.25 C
3034 30-08-2009 07:07:02 8.6 C 81 % 5.53 C
3035 30-08-2009 07:19:01 8.8 C 81 % 5.72 C
3036 30-08-2009 07:31:01 9 C 78 % 5.38 C
3037 30-08-2009 07:43:01 9.1 C 78 % 5.47 C
3038 30-08-2009 07:55:01 9.6 C 78 % 5.96 C
3039 30-08-2009 08:07:02 9.9 C 77 % 6.06 C
3040 30-08-2009 08:19:02 10.3 C 74 % 5.88 C
3041 30-08-2009 08:31:01 10.8 C 71 % 5.76 C
3042 30-08-2009 08:43:01 11.2 C 69 % 5.73 C
3043 30-08-2009 08:55:01 11.4 C 69 % 5.92 C
3044 30-08-2009 09:07:02 11.7 C 69 % 6.21 C
3045 30-08-2009 09:19:02 12.4 C 64 % 5.79 C
3046 30-08-2009 09:31:02 12.8 C 63 % 5.94 C
3047 30-08-2009 09:43:02 13.4 C 59 % 5.56 C
3048 30-08-2009 09:55:02 13.8 C 58 % 5.69 C
3049 30-08-2009 10:07:02 14.3 C 56 % 5.65 C
3050 30-08-2009 10:19:01 14.7 C 52 % 4.96 C
Sensor: Nr:Datum:Temp:Feuchte:Taupunkt:
Aussen-T/F 3051 30-08-2009 10:31:01 15.2 C 51 % 5.14 C
3052 30-08-2009 10:43:01 15.7 C 48 % 4.73 C
3053 30-08-2009 10:55:01 16.2 C 46 % 4.58 C
3054 30-08-2009 11:07:02 16.6 C 43 % 3.98 C
3055 30-08-2009 11:19:02 17 C 42 % 4.01 C
3056 30-08-2009 11:31:01 17.7 C 41 % 4.3 C
3057 30-08-2009 11:43:01 18.1 C 41 % 4.66 C
3058 30-08-2009 11:55:01 18.4 C 40 % 4.57 C
3059 30-08-2009 12:07:02 18.9 C 38 % 4.29 C
3060 30-08-2009 12:19:02 19.2 C 36 % 3.78 C
3061 30-08-2009 12:31:01 19.3 C 36 % 3.87 C
3062 30-08-2009 12:43:01 20.1 C 34 % 3.77 C
3063 30-08-2009 12:55:02 20.7 C 33 % 3.87 C
3064 30-08-2009 13:07:01 20.8 C 31 % 3.07 C
3065 30-08-2009 13:19:02 20.8 C 31 % 3.07 C
3066 30-08-2009 13:31:01 21.4 C 30 % 3.13 C
3067 30-08-2009 13:43:01 21.4 C 29 % 2.65 C
3068 30-08-2009 13:55:02 22 C 27 % 2.16 C
3069 30-08-2009 14:07:01 22.3 C 26 % 1.89 C
3070 30-08-2009 14:19:01 22.9 C 23 % 0.69 C
3071 30-08-2009 14:31:01 22.8 C 21 % -0.64 C
3072 30-08-2009 14:43:01 23.5 C 20 % -0.73 C
3073 30-08-2009 14:55:02 23.7 C 20 % -0.57 C
3074 30-08-2009 15:07:02 23.9 C 20 % -0.4 C
3075 30-08-2009 15:19:02 24.2 C 20 % -0.15 C
Sensor: Nr:Datum:Temp:Feuchte:Taupunkt:
Aussen-T/F 3076 30-08-2009 15:31:02 24.5 C 20 % 0.09 C
3077 30-08-2009 15:43:02 24.7 C 20 % 0.26 C
3078 30-08-2009 15:55:02 25.4 C 20 % 0.83 C
3079 30-08-2009 16:07:01 25.1 C 20 % 0.59 C
3080 30-08-2009 16:19:02 26.3 C 20 % 1.57 C
3081 30-08-2009 16:31:01 26.2 C 20 % 1.49 C
3082 30-08-2009 16:43:01 26.1 C 20 % 1.41 C
3083 30-08-2009 16:55:02 25.9 C 20 % 1.24 C
3084 30-08-2009 17:07:01 26.2 C 20 % 1.49 C
3085 30-08-2009 17:19:02 27.2 C 20 % 2.31 C
3086 30-08-2009 17:31:02 27.2 C 20 % 2.31 C
3087 30-08-2009 17:43:02 28.7 C 20 % 3.54 C
3088 30-08-2009 17:55:02 27 C 20 % 2.15 C
3089 30-08-2009 18:07:01 26.5 C 20 % 1.74 C
3090 30-08-2009 18:19:01 26.9 C 20 % 2.06 C
3091 30-08-2009 18:31:02 27.3 C 20 % 2.39 C
3092 30-08-2009 18:43:02 26.8 C 20 % 1.98 C
3093 30-08-2009 18:55:02 27.3 C 20 % 2.39 C
3094 30-08-2009 19:07:02 26.7 C 20 % 1.9 C
3095 30-08-2009 19:19:02 26.4 C 20 % 1.65 C
3096 30-08-2009 19:31:02 26.6 C 20 % 1.82 C
3097 30-08-2009 19:43:02 24.7 C 22 % 1.58 C
3098 30-08-2009 19:55:01 23.9 C 26 % 3.25 C
3099 30-08-2009 20:07:02 22.9 C 29 % 3.94 C
3100 30-08-2009 20:19:01 21.7 C 32 % 4.3 C
Sensor: Nr:Datum:Temp:Feuchte:Taupunkt:
Aussen-T/F 3101 30-08-2009 20:31:01 21 C 33 % 4.13 C
3102 30-08-2009 20:43:01 20.3 C 36 % 4.76 C
3103 30-08-2009 20:55:01 19.9 C 37 % 4.79 C
3104 30-08-2009 21:08:03 19.5 C 39 % 5.19 C
3105 30-08-2009 21:20:03 18.9 C 40 % 5.02 C
3106 30-08-2009 21:32:03 18.4 C 42 % 5.27 C
3107 30-08-2009 21:44:03 18.1 C 42 % 5 C
3108 30-08-2009 21:56:03 17.9 C 44 % 5.49 C
3109 30-08-2009 22:08:03 17.5 C 46 % 5.76 C
3110 30-08-2009 22:20:03 17.4 C 46 % 5.67 C
3111 30-08-2009 22:32:03 17 C 47 % 5.62 C
3112 30-08-2009 22:44:03 16.8 C 48 % 5.74 C
3113 30-08-2009 22:56:03 16.7 C 48 % 5.65 C
3114 30-08-2009 23:08:03 16.4 C 48 % 5.37 C
3115 30-08-2009 23:20:03 16 C 49 % 5.3 C
3116 30-08-2009 23:32:03 15.8 C 51 % 5.69 C
3117 30-08-2009 23:44:03 15.6 C 52 % 5.79 C
3118 30-08-2009 23:56:03 15.4 C 53 % 5.88 C
3119 31-08-2009 00:08:03 15.1 C 54 % 5.87 C
3120 31-08-2009 00:20:03 14.8 C 56 % 6.12 C
3121 31-08-2009 00:32:03 14.7 C 56 % 6.02 C
3122 31-08-2009 00:44:03 14.5 C 57 % 6.09 C
3123 31-08-2009 00:56:04 14.3 C 57 % 5.91 C
3124 31-08-2009 01:08:04 14.1 C 60 % 6.46 C
3125 31-08-2009 01:20:04 13.9 C 60 % 6.27 C
Sensor: Nr:Datum:Temp:Feuchte:Taupunkt:
Aussen-T/F 3126 31-08-2009 01:32:04 13.7 C 61 % 6.32 C
3127 31-08-2009 01:44:04 13.6 C 61 % 6.23 C
3128 31-08-2009 01:56:04 13.4 C 62 % 6.28 C
3129 31-08-2009 02:08:04 13.2 C 62 % 6.09 C
3130 31-08-2009 02:20:04 13 C 63 % 6.13 C
3131 31-08-2009 02:32:04 12.9 C 64 % 6.26 C
3132 31-08-2009 02:44:04 12.6 C 65 % 6.2 C
3133 31-08-2009 02:56:04 12.4 C 66 % 6.23 C
3134 31-08-2009 03:08:04 12.3 C 66 % 6.14 C
3135 31-08-2009 03:20:04 12.2 C 66 % 6.04 C
3136 31-08-2009 03:32:04 12.2 C 66 % 6.04 C
3137 31-08-2009 03:44:04 12.3 C 67 % 6.36 C
3138 31-08-2009 03:56:04 12 C 68 % 6.29 C
3139 31-08-2009 04:08:04 11.7 C 69 % 6.21 C
3140 31-08-2009 04:20:04 11.6 C 69 % 6.11 C
3141 31-08-2009 04:32:04 11.5 C 69 % 6.02 C
3142 31-08-2009 04:44:05 11.4 C 69 % 5.92 C
3143 31-08-2009 04:56:05 11.2 C 69 % 5.73 C
3144 31-08-2009 05:08:05 11.1 C 70 % 5.84 C
3145 31-08-2009 05:20:05 10.9 C 72 % 6.06 C
3146 31-08-2009 05:32:05 10.8 C 72 % 5.96 C
3147 31-08-2009 05:44:05 10.6 C 72 % 5.77 C
3148 31-08-2009 05:56:05 10.6 C 72 % 5.77 C
3149 31-08-2009 06:08:05 10.5 C 73 % 5.87 C
3150 31-08-2009 06:20:05 10.3 C 74 % 5.88 C
Sensor: Nr:Datum:Temp:Feuchte:Taupunkt:
Aussen-T/F 3151 31-08-2009 06:32:05 10.1 C 74 % 5.68 C
3152 31-08-2009 06:44:05 10.1 C 74 % 5.68 C
3153 31-08-2009 06:56:05 10.1 C 74 % 5.68 C
3154 31-08-2009 07:08:05 10.2 C 74 % 5.78 C
3155 31-08-2009 07:20:05 10.2 C 74 % 5.78 C
3156 31-08-2009 07:32:05 10.2 C 74 % 5.78 C
3157 31-08-2009 07:44:05 10.3 C 74 % 5.88 C
3158 31-08-2009 07:56:05 10.4 C 74 % 5.97 C
3159 31-08-2009 08:08:05 10.4 C 74 % 5.97 C
3160 31-08-2009 08:20:05 10.5 C 74 % 6.07 C
3161 31-08-2009 08:32:05 10.8 C 74 % 6.36 C
3162 31-08-2009 08:44:06 11 C 72 % 6.15 C
3163 31-08-2009 08:56:06 11.2 C 71 % 6.14 C
3164 31-08-2009 09:08:06 11.5 C 71 % 6.43 C
3165 31-08-2009 09:20:03 11.9 C 71 % 6.82 C
3166 31-08-2009 09:32:03 12.5 C 69 % 6.97 C
3167 31-08-2009 09:44:03 13.2 C 65 % 6.77 C
3168 31-08-2009 09:56:02 13.9 C 62 % 6.75 C
3169 31-08-2009 10:08:02 14.7 C 59 % 6.78 C
3170 31-08-2009 10:20:02 15.6 C 56 % 6.86 C
3171 31-08-2009 10:32:01 16.4 C 54 % 7.08 C
3172 31-08-2009 10:44:01 17.1 C 51 % 6.89 C
3173 31-08-2009 10:56:02 17.8 C 50 % 7.25 C
3174 31-08-2009 11:08:01 18.5 C 48 % 7.29 C
3175 31-08-2009 11:20:02 19.1 C 46 % 7.22 C
Sensor: Nr:Datum:Temp:Feuchte:Taupunkt:
Aussen-T/F 3176 31-08-2009 11:32:01 19.7 C 45 % 7.44 C
3177 31-08-2009 11:44:01 20.2 C 45 % 7.9 C
3178 31-08-2009 11:56:02 21.1 C 40 % 6.99 C
3179 31-08-2009 12:08:01 21.9 C 39 % 7.33 C
3180 31-08-2009 12:20:01 22.5 C 37 % 7.1 C
3181 31-08-2009 12:32:01 22.9 C 31 % 4.89 C
3182 31-08-2009 12:44:01 23.4 C 31 % 5.32 C
3183 31-08-2009 12:56:02 23.7 C 26 % 3.08 C
3184 31-08-2009 13:08:02 24.5 C 26 % 3.76 C
3185 31-08-2009 13:20:02 24.9 C 27 % 4.63 C
3186 31-08-2009 13:32:02 25.6 C 24 % 3.55 C
3187 31-08-2009 13:44:02 25.9 C 23 % 3.2 C
3188 31-08-2009 13:56:02 26.6 C 22 % 3.15 C
3189 31-08-2009 14:08:01 26.9 C 21 % 2.75 C
3190 31-08-2009 14:20:01 27.3 C 20 % 2.39 C
3191 31-08-2009 14:32:02 28 C 20 % 2.97 C
3192 31-08-2009 14:44:02 28.2 C 20 % 3.13 C
3193 31-08-2009 14:56:02 28.7 C 20 % 3.54 C
3194 31-08-2009 15:08:02 28.4 C 20 % 3.29 C
3195 31-08-2009 15:20:02 28.5 C 20 % 3.38 C
3196 31-08-2009 15:32:02 29.2 C 20 % 3.95 C
3197 31-08-2009 15:44:02 29.5 C 20 % 4.2 C
3198 31-08-2009 15:56:01 30 C 20 % 4.61 C
3199 31-08-2009 16:08:02 30.6 C 20 % 5.1 C
3200 31-08-2009 16:20:01 31 C 20 % 5.42 C
Sensor: Nr:Datum:Temp:Feuchte:Taupunkt:
Aussen-T/F 3201 31-08-2009 16:32:01 31.6 C 20 % 5.91 C
3202 31-08-2009 16:44:02 31.5 C 20 % 5.83 C
3203 31-08-2009 16:56:01 31.9 C 20 % 6.16 C
3204 31-08-2009 17:08:02 31.7 C 20 % 6 C
3205 31-08-2009 17:20:01 31.9 C 20 % 6.16 C
3206 31-08-2009 17:32:02 31.9 C 20 % 6.16 C
3207 31-08-2009 17:44:02 31.7 C 20 % 6 C
3208 31-08-2009 17:56:02 31.7 C 20 % 6 C
3209 31-08-2009 18:08:02 31.8 C 20 % 6.08 C
3210 31-08-2009 18:20:01 31.7 C 20 % 6 C
3211 31-08-2009 18:32:02 31.4 C 20 % 5.75 C
3212 31-08-2009 18:44:02 31.5 C 20 % 5.83 C
3213 31-08-2009 18:56:01 31 C 20 % 5.42 C
3214 31-08-2009 19:08:02 30.9 C 20 % 5.34 C
3215 31-08-2009 19:20:02 30.7 C 20 % 5.18 C
3216 31-08-2009 19:32:02 30.3 C 20 % 4.85 C
3217 31-08-2009 19:44:02 29.1 C 20 % 3.87 C
3218 31-08-2009 19:56:01 27.2 C 21 % 3 C
3219 31-08-2009 20:08:02 25.6 C 24 % 3.55 C
3220 31-08-2009 20:20:02 24.5 C 25 % 3.2 C
3221 31-08-2009 20:32:02 23.7 C 26 % 3.08 C
3222 31-08-2009 20:44:02 22.9 C 27 % 2.93 C
3223 31-08-2009 20:56:02 22.6 C 28 % 3.19 C
3224 31-08-2009 21:08:02 22.3 C 28 % 2.93 C
3225 31-08-2009 21:20:02 21.8 C 30 % 3.47 C
Sensor: Nr:Datum:Temp:Feuchte:Taupunkt:
Aussen-T/F 3226 31-08-2009 21:32:01 21.5 C 30 % 3.21 C
3227 31-08-2009 21:44:01 21.2 C 30 % 2.95 C
3228 31-08-2009 21:57:02 20.8 C 32 % 3.52 C
3229 31-08-2009 22:09:02 20.5 C 32 % 3.26 C
3230 31-08-2009 22:21:03 20.2 C 33 % 3.43 C
3231 31-08-2009 22:33:03 19.9 C 35 % 4 C
3232 31-08-2009 22:45:03 19.7 C 35 % 3.82 C
3233 31-08-2009 22:57:03 19.5 C 36 % 4.05 C
3234 31-08-2009 23:09:03 19.2 C 38 % 4.55 C
3235 31-08-2009 23:21:03 18.9 C 40 % 5.02 C
3236 31-08-2009 23:33:03 18.6 C 42 % 5.45 C
3237 31-08-2009 23:45:03 18.3 C 42 % 5.18 C
3238 31-08-2009 23:57:03 18.1 C 42 % 5 C
3239 01-09-2009 00:09:03 17.9 C 43 % 5.16 C
3240 01-09-2009 00:21:03 17.7 C 45 % 5.63 C
3241 01-09-2009 00:33:03 17.3 C 46 % 5.58 C
3242 01-09-2009 00:45:03 17.2 C 46 % 5.49 C
3243 01-09-2009 00:57:03 16.9 C 48 % 5.83 C
3244 01-09-2009 01:09:03 16.8 C 48 % 5.74 C
3245 01-09-2009 01:21:03 16.6 C 49 % 5.85 C
3246 01-09-2009 01:33:03 16.4 C 49 % 5.67 C
3247 01-09-2009 01:45:03 16.2 C 50 % 5.78 C
3248 01-09-2009 01:57:03 16.1 C 52 % 6.25 C
3249 01-09-2009 02:09:03 16.2 C 52 % 6.34 C
3250 01-09-2009 02:21:04 15.9 C 54 % 6.61 C
Sensor: Nr:Datum:Temp:Feuchte:Taupunkt:
Aussen-T/F 3251 01-09-2009 02:33:04 15.8 C 54 % 6.52 C
3252 01-09-2009 02:45:04 15.6 C 55 % 6.6 C
3253 01-09-2009 02:57:04 15.5 C 55 % 6.51 C
3254 01-09-2009 03:09:04 15.4 C 54 % 6.15 C
3255 01-09-2009 03:21:04 15.4 C 53 % 5.88 C
3256 01-09-2009 03:33:04 15.4 C 54 % 6.15 C
3257 01-09-2009 03:45:04 15.2 C 54 % 5.96 C
3258 01-09-2009 03:57:04 15.2 C 57 % 6.75 C
3259 01-09-2009 04:09:04 14.9 C 58 % 6.72 C
3260 01-09-2009 04:21:04 14.8 C 60 % 7.12 C
3261 01-09-2009 04:33:04 14.7 C 60 % 7.03 C
3262 01-09-2009 04:45:04 14.4 C 61 % 6.98 C
3263 01-09-2009 04:57:04 14.2 C 62 % 7.03 C
3264 01-09-2009 05:09:04 14.3 C 62 % 7.13 C
3265 01-09-2009 05:21:04 14.2 C 62 % 7.03 C
3266 01-09-2009 05:33:04 14.1 C 63 % 7.17 C
3267 01-09-2009 05:45:04 14 C 64 % 7.31 C
3268 01-09-2009 05:57:04 13.9 C 65 % 7.44 C
3269 01-09-2009 06:09:04 13.8 C 65 % 7.34 C
3270 01-09-2009 06:21:04 13.7 C 66 % 7.47 C
3271 01-09-2009 06:33:05 13.6 C 68 % 7.81 C
3272 01-09-2009 06:45:05 13.5 C 69 % 7.93 C
3273 01-09-2009 06:57:05 13.5 C 69 % 7.93 C
3274 01-09-2009 07:09:01 13.6 C 70 % 8.24 C
3275 01-09-2009 07:21:02 13.8 C 70 % 8.43 C
Sensor: Nr:Datum:Temp:Feuchte:Taupunkt:
Aussen-T/F 3276 01-09-2009 07:33:02 13.9 C 70 % 8.53 C
3277 01-09-2009 07:45:02 14 C 69 % 8.41 C
3278 01-09-2009 07:57:03 14.1 C 69 % 8.5 C
3279 01-09-2009 08:09:02 14.2 C 68 % 8.39 C
3280 01-09-2009 08:21:02 14.4 C 69 % 8.79 C
3281 01-09-2009 08:33:02 14.4 C 68 % 8.58 C
3282 01-09-2009 08:45:02 15.1 C 68 % 9.24 C
3283 01-09-2009 08:57:02 15.5 C 67 % 9.41 C
3284 01-09-2009 09:09:02 15.9 C 66 % 9.56 C
3285 01-09-2009 09:21:02 16.4 C 65 % 9.81 C
3286 01-09-2009 09:33:01 17 C 62 % 9.67 C
3287 01-09-2009 09:45:02 17.7 C 61 % 10.09 C
3288 01-09-2009 09:57:02 18.2 C 59 % 10.06 C
3289 01-09-2009 10:09:01 18.9 C 57 % 10.2 C
3290 01-09-2009 10:21:01 19.6 C 56 % 10.59 C
3291 01-09-2009 10:33:01 20.6 C 55 % 11.25 C
3292 01-09-2009 10:45:02 23.2 C 47 % 11.27 C
3293 01-09-2009 10:57:02 24.4 C 41 % 10.3 C
3294 01-09-2009 11:09:01 25 C 39 % 10.09 C
3295 01-09-2009 11:21:02 25.4 C 38 % 10.06 C
3296 01-09-2009 11:33:02 25.7 C 37 % 9.92 C
3297 01-09-2009 11:45:01 26.4 C 36 % 10.13 C
3298 01-09-2009 11:57:01 26.6 C 35 % 9.89 C
3299 01-09-2009 12:09:02 27.5 C 32 % 9.34 C
3300 01-09-2009 12:21:01 28.3 C 30 % 9.07 C
Sensor: Nr:Datum:Temp:Feuchte:Taupunkt:
Aussen-T/F 3301 01-09-2009 12:33:02 28.8 C 30 % 9.51 C
3302 01-09-2009 12:45:02 28.7 C 30 % 9.42 C
3303 01-09-2009 12:57:02 28.9 C 29 % 9.09 C
3304 01-09-2009 13:09:02 29.1 C 28 % 8.74 C
3305 01-09-2009 13:21:01 29.2 C 28 % 8.83 C
3306 01-09-2009 13:33:02 29.1 C 30 % 9.76 C
3307 01-09-2009 13:45:02 30 C 28 % 9.51 C
3308 01-09-2009 13:57:02 29.9 C 28 % 9.42 C
3309 01-09-2009 14:09:02 29.5 C 28 % 9.08 C
3310 01-09-2009 14:21:01 29.4 C 29 % 9.52 C
3311 01-09-2009 14:33:02 30.1 C 28 % 9.59 C
3312 01-09-2009 14:45:02 29.9 C 27 % 8.88 C
3313 01-09-2009 14:57:02 30.2 C 27 % 9.14 C
3314 01-09-2009 15:09:02 29.5 C 28 % 9.08 C
3315 01-09-2009 15:21:01 28.3 C 31 % 9.56 C
3316 01-09-2009 15:33:02 27.8 C 32 % 9.6 C
3317 01-09-2009 15:45:02 27.7 C 33 % 9.97 C
3318 01-09-2009 15:57:02 27.1 C 34 % 9.89 C
3319 01-09-2009 16:09:02 25.2 C 43 % 11.74 C
3320 01-09-2009 16:21:02 24.2 C 50 % 13.12 C
3321 01-09-2009 16:33:02 23.4 C 55 % 13.85 C
3322 01-09-2009 16:45:02 23.1 C 55 % 13.57 C
3323 01-09-2009 16:57:02 22.9 C 59 % 14.47 C
3324 01-09-2009 17:09:02 21.4 C 69 % 15.48 C
3325 01-09-2009 17:21:02 20.8 C 74 % 16 C
Sensor: Nr:Datum:Temp:Feuchte:Taupunkt:
Aussen-T/F 3326 01-09-2009 17:33:01 20.5 C 79 % 16.73 C
3327 01-09-2009 17:45:02 20.3 C 80 % 16.74 C
3328 01-09-2009 17:57:02 20.3 C 81 % 16.93 C
3329 01-09-2009 18:09:01 20.1 C 81 % 16.74 C
3330 01-09-2009 18:21:02 20.1 C 82 % 16.93 C
3331 01-09-2009 18:33:01 20 C 83 % 17.02 C
3332 01-09-2009 18:45:02 19.9 C 84 % 17.12 C
3333 01-09-2009 18:57:02 20.1 C 84 % 17.31 C
3334 01-09-2009 19:09:02 20 C 84 % 17.21 C
3335 01-09-2009 19:21:02 19.8 C 85 % 17.21 C
3336 01-09-2009 19:33:03 20.1 C 85 % 17.5 C
3337 01-09-2009 19:45:02 19.9 C 86 % 17.49 C
3338 01-09-2009 19:57:02 20 C 84 % 17.21 C
3339 01-09-2009 20:09:02 19.7 C 85 % 17.11 C
3340 01-09-2009 20:21:02 19.8 C 85 % 17.21 C
3341 01-09-2009 20:33:02 20 C 83 % 17.02 C
3342 01-09-2009 20:45:02 19.8 C 84 % 17.02 C
3343 01-09-2009 20:57:02 19.8 C 83 % 16.83 C
3344 01-09-2009 21:10:02 19.8 C 83 % 16.83 C
3345 01-09-2009 21:22:02 19.7 C 82 % 16.54 C
3346 01-09-2009 21:34:02 19.7 C 82 % 16.54 C
3347 01-09-2009 21:46:02 19.7 C 80 % 16.15 C
3348 01-09-2009 21:58:02 19.5 C 79 % 15.76 C
3349 01-09-2009 22:10:02 19.6 C 80 % 16.06 C
3350 01-09-2009 22:22:02 19.5 C 80 % 15.96 C
Sensor: Nr:Datum:Temp:Feuchte:Taupunkt:
Aussen-T/F 3351 01-09-2009 22:34:02 19.7 C 79 % 15.96 C
3352 01-09-2009 22:46:02 19.7 C 78 % 15.76 C
3353 01-09-2009 22:58:02 19.4 C 79 % 15.66 C
3354 01-09-2009 23:10:02 19.3 C 80 % 15.76 C
3355 01-09-2009 23:22:03 19.4 C 78 % 15.47 C
3356 01-09-2009 23:34:03 19.1 C 77 % 14.97 C
3357 01-09-2009 23:46:03 18.7 C 79 % 14.99 C
3358 01-09-2009 23:58:03 18.5 C 80 % 14.99 C
3359 02-09-2009 00:10:03 18.8 C 81 % 15.47 C
3360 02-09-2009 00:22:03 18.6 C 80 % 15.08 C
3361 02-09-2009 00:34:03 18.4 C 81 % 15.08 C
3362 02-09-2009 00:46:03 18.2 C 81 % 14.89 C
3363 02-09-2009 00:58:03 17.8 C 83 % 14.88 C
3364 02-09-2009 01:10:03 17.6 C 84 % 14.87 C
3365 02-09-2009 01:22:03 17.3 C 83 % 14.39 C
3366 02-09-2009 01:34:03 17.2 C 82 % 14.1 C
3367 02-09-2009 01:46:03 17.2 C 80 % 13.72 C
3368 02-09-2009 01:58:03 17.2 C 80 % 13.72 C
3369 02-09-2009 02:10:03 17 C 80 % 13.53 C
3370 02-09-2009 02:22:03 17 C 78 % 13.14 C
3371 02-09-2009 02:34:03 16.8 C 78 % 12.94 C
3372 02-09-2009 02:46:03 16.8 C 78 % 12.94 C
3373 02-09-2009 02:58:03 16.7 C 78 % 12.85 C
3374 02-09-2009 03:10:04 16.4 C 80 % 12.94 C
3375 02-09-2009 03:22:04 16.2 C 81 % 12.94 C
Sensor: Nr:Datum:Temp:Feuchte:Taupunkt:
Aussen-T/F 3376 02-09-2009 03:34:04 16.4 C 81 % 13.13 C
3377 02-09-2009 03:46:04 16.6 C 81 % 13.33 C
3378 02-09-2009 03:58:04 16.4 C 80 % 12.94 C
3379 02-09-2009 04:10:04 16.2 C 80 % 12.75 C
3380 02-09-2009 04:22:04 15.9 C 82 % 12.83 C
3381 02-09-2009 04:34:04 15.9 C 82 % 12.83 C
3382 02-09-2009 04:46:04 15.8 C 82 % 12.74 C
3383 02-09-2009 04:58:04 15.6 C 83 % 12.72 C
3384 02-09-2009 05:10:04 15.5 C 83 % 12.63 C
3385 02-09-2009 05:22:04 15.4 C 84 % 12.71 C
3386 02-09-2009 05:34:04 15.2 C 84 % 12.52 C
3387 02-09-2009 05:46:04 15.2 C 85 % 12.7 C
3388 02-09-2009 05:58:04 15.3 C 85 % 12.79 C
3389 02-09-2009 06:10:04 15.3 C 85 % 12.79 C
3390 02-09-2009 06:22:04 15.2 C 84 % 12.52 C
3391 02-09-2009 06:34:03 15.1 C 84 % 12.42 C
3392 02-09-2009 06:46:02 15 C 84 % 12.32 C
3393 02-09-2009 06:58:03 15.1 C 84 % 12.42 C
3394 02-09-2009 07:10:01 15.2 C 83 % 12.33 C
3395 02-09-2009 07:22:01 15.1 C 83 % 12.24 C
3396 02-09-2009 07:34:02 15.1 C 83 % 12.24 C
3397 02-09-2009 07:46:02 15.3 C 83 % 12.43 C
3398 02-09-2009 07:58:02 15.5 C 83 % 12.63 C
3399 02-09-2009 08:10:02 15.7 C 82 % 12.64 C
3400 02-09-2009 08:22:02 15.8 C 81 % 12.55 C
Sensor: Nr:Datum:Temp:Feuchte:Taupunkt:
Aussen-T/F 3401 02-09-2009 08:34:02 16 C 79 % 12.36 C
3402 02-09-2009 08:46:01 16.5 C 77 % 12.46 C
3403 02-09-2009 08:58:01 17 C 74 % 12.34 C
3404 02-09-2009 09:10:02 17.2 C 72 % 12.11 C
3405 02-09-2009 09:22:02 17.5 C 69 % 11.75 C
3406 02-09-2009 09:34:01 17.9 C 68 % 11.91 C
3407 02-09-2009 09:46:02 18.2 C 63 % 11.05 C
3408 02-09-2009 09:58:02 18.4 C 61 % 10.75 C
3409 02-09-2009 10:10:02 18.7 C 60 % 10.78 C
3410 02-09-2009 10:22:02 18.9 C 59 % 10.72 C
3411 02-09-2009 10:34:02 19.1 C 58 % 10.65 C
3412 02-09-2009 10:46:02 19.3 C 57 % 10.58 C
3413 02-09-2009 10:58:02 19.4 C 56 % 10.4 C
3414 02-09-2009 11:10:01 19.8 C 55 % 10.51 C
3415 02-09-2009 11:22:02 19.9 C 54 % 10.32 C
3416 02-09-2009 11:34:02 20.3 C 52 % 10.13 C
3417 02-09-2009 11:46:02 20.8 C 49 % 9.7 C
3418 02-09-2009 11:58:02 20.8 C 48 % 9.4 C
3419 02-09-2009 12:10:02 21.3 C 42 % 7.88 C
3420 02-09-2009 12:22:02 21.9 C 42 % 8.42 C
3421 02-09-2009 12:34:03 22 C 41 % 8.15 C
3422 02-09-2009 12:46:02 21.9 C 43 % 8.76 C
3423 02-09-2009 12:58:02 22 C 41 % 8.15 C
3424 02-09-2009 13:10:02 22.1 C 35 % 5.94 C
3425 02-09-2009 13:22:01 22 C 33 % 5 C
Sensor: Nr:Datum:Temp:Feuchte:Taupunkt:
Aussen-T/F 3426 02-09-2009 13:34:02 23.1 C 32 % 5.52 C
3427 02-09-2009 13:46:02 23.2 C 29 % 4.2 C
3428 02-09-2009 13:58:02 23.2 C 31 % 5.15 C
3429 02-09-2009 14:10:02 23.2 C 31 % 5.15 C
3430 02-09-2009 14:22:02 23.2 C 32 % 5.61 C
3431 02-09-2009 14:34:02 22.8 C 33 % 5.7 C
3432 02-09-2009 14:46:02 22.5 C 32 % 5 C
3433 02-09-2009 14:58:02 22.3 C 33 % 5.26 C
3434 02-09-2009 15:10:02 22.4 C 33 % 5.35 C
3435 02-09-2009 15:22:02 22.9 C 34 % 6.22 C
3436 02-09-2009 15:34:02 23.3 C 34 % 6.57 C
3437 02-09-2009 15:46:02 23.3 C 33 % 6.14 C
3438 02-09-2009 15:58:02 23.5 C 32 % 5.87 C
3439 02-09-2009 16:10:02 23.5 C 30 % 4.94 C
3440 02-09-2009 16:22:02 23 C 30 % 4.51 C
3441 02-09-2009 16:34:02 22.8 C 32 % 5.26 C
3442 02-09-2009 16:46:02 22.5 C 31 % 4.54 C
3443 02-09-2009 16:58:02 22.4 C 30 % 3.99 C
3444 02-09-2009 17:10:02 22.6 C 31 % 4.63 C
3445 02-09-2009 17:22:03 22.1 C 30 % 3.73 C
3446 02-09-2009 17:34:02 22.1 C 31 % 4.2 C
3447 02-09-2009 17:46:02 22.2 C 31 % 4.28 C
3448 02-09-2009 17:58:02 22 C 31 % 4.11 C
3449 02-09-2009 18:10:02 21.7 C 32 % 4.3 C
3450 02-09-2009 18:22:02 21.6 C 33 % 4.65 C
Sensor: Nr:Datum:Temp:Feuchte:Taupunkt:
Aussen-T/F 3451 02-09-2009 18:34:02 22 C 31 % 4.11 C
3452 02-09-2009 18:46:02 22.9 C 30 % 4.42 C
3453 02-09-2009 18:58:02 21.6 C 31 % 3.76 C
3454 02-09-2009 19:10:02 21.1 C 31 % 3.33 C
3455 02-09-2009 19:22:02 20.9 C 33 % 4.04 C
3456 02-09-2009 19:34:01 20.5 C 35 % 4.53 C
3457 02-09-2009 19:46:02 20 C 36 % 4.49 C
3458 02-09-2009 19:58:02 19.4 C 38 % 4.73 C
3459 02-09-2009 20:10:01 18.8 C 40 % 4.93 C
3460 02-09-2009 20:22:02 18.3 C 42 % 5.18 C
3461 02-09-2009 20:34:02 17.9 C 43 % 5.16 C
3462 02-09-2009 20:46:02 17.7 C 45 % 5.63 C
3463 02-09-2009 20:58:02 17.9 C 45 % 5.81 C
3464 02-09-2009 21:10:03 18.1 C 45 % 5.99 C
3465 02-09-2009 21:22:02 18.1 C 45 % 5.99 C
3466 02-09-2009 21:34:02 18.1 C 46 % 6.31 C
3467 02-09-2009 21:46:01 18 C 46 % 6.22 C
3468 02-09-2009 21:58:01 17.9 C 48 % 6.75 C
3469 02-09-2009 22:10:02 17.8 C 48 % 6.65 C
3470 02-09-2009 22:23:02 16.9 C 56 % 8.07 C
3471 02-09-2009 22:35:02 16.2 C 69 % 10.51 C
3472 02-09-2009 22:47:03 15.3 C 73 % 10.49 C
3473 02-09-2009 22:59:03 15.7 C 77 % 11.68 C
3474 02-09-2009 23:11:03 16 C 74 % 11.37 C
3475 02-09-2009 23:23:03 16.2 C 71 % 10.94 C
Sensor: Nr:Datum:Temp:Feuchte:Taupunkt:
Aussen-T/F 3476 02-09-2009 23:35:03 16 C 69 % 10.32 C
3477 02-09-2009 23:47:03 16 C 69 % 10.32 C
3478 02-09-2009 23:59:03 16.2 C 68 % 10.29 C
3479 03-09-2009 00:11:03 16.2 C 70 % 10.73 C
3480 03-09-2009 00:23:03 16.4 C 66 % 10.04 C
3481 03-09-2009 00:35:03 16.6 C 64 % 9.77 C
3482 03-09-2009 00:47:03 16.7 C 63 % 9.63 C
3483 03-09-2009 00:59:03 16.8 C 64 % 9.96 C
3484 03-09-2009 01:11:03 16.6 C 64 % 9.77 C
3485 03-09-2009 01:23:03 16.5 C 64 % 9.67 C
3486 03-09-2009 01:35:03 16.6 C 64 % 9.77 C
3487 03-09-2009 01:47:03 16.5 C 64 % 9.67 C
3488 03-09-2009 01:59:03 16.5 C 64 % 9.67 C
3489 03-09-2009 02:11:03 16.4 C 65 % 9.81 C
3490 03-09-2009 02:23:03 16.5 C 64 % 9.67 C
3491 03-09-2009 02:35:04 15.6 C 71 % 10.37 C
3492 03-09-2009 02:47:04 15 C 76 % 10.81 C
3493 03-09-2009 02:59:04 15 C 78 % 11.2 C
3494 03-09-2009 03:11:04 15 C 80 % 11.58 C
3495 03-09-2009 03:23:04 14.9 C 83 % 12.04 C
3496 03-09-2009 03:35:04 15 C 82 % 11.95 C
3497 03-09-2009 03:47:04 15.1 C 82 % 12.05 C
3498 03-09-2009 03:59:04 15.1 C 82 % 12.05 C
3499 03-09-2009 04:11:04 15.3 C 80 % 11.87 C
3500 03-09-2009 04:23:04 15.3 C 80 % 11.87 C
Sensor: Nr:Datum:Temp:Feuchte:Taupunkt:
Aussen-T/F 3501 03-09-2009 04:35:04 15.3 C 80 % 11.87 C
3502 03-09-2009 04:47:04 15.4 C 80 % 11.97 C
3503 03-09-2009 04:59:04 15 C 81 % 11.77 C
3504 03-09-2009 05:11:04 15 C 83 % 12.14 C
3505 03-09-2009 05:23:04 14.9 C 85 % 12.4 C
3506 03-09-2009 05:35:04 14.8 C 86 % 12.48 C
3507 03-09-2009 05:47:04 14.8 C 86 % 12.48 C
3508 03-09-2009 05:59:04 14.7 C 86 % 12.38 C
3509 03-09-2009 06:11:04 14.7 C 88 % 12.73 C
3510 03-09-2009 06:23:05 14.7 C 88 % 12.73 C
3511 03-09-2009 06:35:05 15 C 87 % 12.86 C
3512 03-09-2009 06:47:05 15 C 87 % 12.86 C
3513 03-09-2009 06:59:05 14.8 C 88 % 12.83 C
3514 03-09-2009 07:11:02 14.8 C 88 % 12.83 C
3515 03-09-2009 07:23:03 14.7 C 89 % 12.91 C
3516 03-09-2009 07:35:02 14.9 C 90 % 13.28 C
3517 03-09-2009 07:47:02 15.2 C 90 % 13.57 C
3518 03-09-2009 07:59:02 15.4 C 89 % 13.6 C
3519 03-09-2009 08:11:02 15.6 C 88 % 13.62 C
3520 03-09-2009 08:23:02 15.7 C 87 % 13.54 C
3521 03-09-2009 08:35:03 15.8 C 85 % 13.28 C
3522 03-09-2009 08:47:02 15.8 C 85 % 13.28 C
3523 03-09-2009 08:59:03 15.7 C 86 % 13.37 C
3524 03-09-2009 09:11:01 16 C 83 % 13.12 C
3525 03-09-2009 09:23:01 16.4 C 80 % 12.94 C
Sensor: Nr:Datum:Temp:Feuchte:Taupunkt:
Aussen-T/F 3526 03-09-2009 09:35:02 16.8 C 78 % 12.94 C
3527 03-09-2009 09:47:02 17.7 C 71 % 12.38 C
3528 03-09-2009 09:59:02 17.8 C 70 % 12.26 C
3529 03-09-2009 10:11:02 17.9 C 68 % 11.91 C
3530 03-09-2009 10:23:01 18.3 C 64 % 11.38 C
3531 03-09-2009 10:35:02 18.6 C 63 % 11.42 C
3532 03-09-2009 10:47:01 17 C 73 % 12.13 C
3533 03-09-2009 10:59:01 17.2 C 75 % 12.73 C
3534 03-09-2009 11:11:02 17.7 C 67 % 11.5 C
3535 03-09-2009 11:23:02 18 C 61 % 10.37 C
3536 03-09-2009 11:35:02 18.2 C 56 % 9.29 C
3537 03-09-2009 11:47:01 18.8 C 55 % 9.58 C
3538 03-09-2009 11:59:01 18.5 C 53 % 8.75 C
3539 03-09-2009 12:11:02 18.7 C 48 % 7.48 C
3540 03-09-2009 12:23:02 19.2 C 44 % 6.66 C
3541 03-09-2009 12:35:02 19.4 C 41 % 5.82 C
3542 03-09-2009 12:47:02 19.3 C 39 % 5.01 C
3543 03-09-2009 12:59:02 19.5 C 38 % 4.82 C
3544 03-09-2009 13:11:01 19.4 C 37 % 4.35 C
3545 03-09-2009 13:23:02 19.7 C 39 % 5.37 C
3546 03-09-2009 13:35:01 19.5 C 37 % 4.44 C
3547 03-09-2009 13:47:02 19.9 C 37 % 4.79 C
3548 03-09-2009 13:59:02 20.6 C 36 % 5.02 C
3549 03-09-2009 14:11:01 20.8 C 35 % 4.79 C
3550 03-09-2009 14:23:02 20.9 C 35 % 4.88 C
Sensor: Nr:Datum:Temp:Feuchte:Taupunkt:
Aussen-T/F 3551 03-09-2009 14:35:01 21.4 C 33 % 4.48 C
3552 03-09-2009 14:47:02 21.3 C 32 % 3.95 C
3553 03-09-2009 14:59:03 20.8 C 33 % 3.95 C
3554 03-09-2009 15:11:02 21.8 C 30 % 3.47 C
3555 03-09-2009 15:23:02 22.5 C 29 % 3.6 C
3556 03-09-2009 15:35:02 22.5 C 26 % 2.06 C
3557 03-09-2009 15:47:02 21.7 C 26 % 1.38 C
3558 03-09-2009 15:59:02 21.8 C 28 % 2.5 C
3559 03-09-2009 16:11:02 20.8 C 30 % 2.61 C
3560 03-09-2009 16:23:01 20.3 C 32 % 3.08 C
3561 03-09-2009 16:35:02 20.2 C 32 % 3 C
3562 03-09-2009 16:47:02 20.1 C 32 % 2.91 C
3563 03-09-2009 16:59:02 19.9 C 34 % 3.59 C
3564 03-09-2009 17:11:02 19.7 C 34 % 3.41 C
3565 03-09-2009 17:23:02 19.6 C 35 % 3.74 C
3566 03-09-2009 17:35:02 19.6 C 35 % 3.74 C
3567 03-09-2009 17:47:02 19.5 C 35 % 3.65 C
3568 03-09-2009 17:59:02 19.4 C 35 % 3.56 C
3569 03-09-2009 18:11:02 18.5 C 42 % 5.36 C
3570 03-09-2009 18:23:02 17.6 C 50 % 7.06 C
3571 03-09-2009 18:35:02 18.1 C 48 % 6.93 C
3572 03-09-2009 18:47:02 18.3 C 46 % 6.49 C
3573 03-09-2009 18:59:02 18.2 C 46 % 6.4 C
3574 03-09-2009 19:11:02 18.4 C 47 % 6.9 C
3575 03-09-2009 19:23:02 18 C 47 % 6.53 C
Sensor: Nr:Datum:Temp:Feuchte:Taupunkt:
Aussen-T/F 3576 03-09-2009 19:35:02 17.7 C 47 % 6.26 C
3577 03-09-2009 19:47:02 17.7 C 47 % 6.26 C
3578 03-09-2009 19:59:02 17.5 C 47 % 6.07 C
3579 03-09-2009 20:11:02 17.5 C 47 % 6.07 C
3580 03-09-2009 20:23:03 17.5 C 47 % 6.07 C
3581 03-09-2009 20:35:02 17.5 C 47 % 6.07 C
3582 03-09-2009 20:47:03 17.3 C 46 % 5.58 C
3583 03-09-2009 20:59:03 17.1 C 46 % 5.4 C
3584 03-09-2009 21:11:02 17.1 C 45 % 5.08 C
3585 03-09-2009 21:23:02 17.1 C 45 % 5.08 C
3586 03-09-2009 21:35:02 17 C 45 % 4.99 C
3587 03-09-2009 21:48:04 17 C 45 % 4.99 C
3588 03-09-2009 22:00:04 16.6 C 46 % 4.95 C
3589 03-09-2009 22:12:04 16.4 C 48 % 5.37 C
3590 03-09-2009 22:24:04 16.2 C 48 % 5.19 C
3591 03-09-2009 22:36:04 16.2 C 48 % 5.19 C
3592 03-09-2009 22:48:04 16.3 C 47 % 4.98 C
3593 03-09-2009 23:00:04 16.3 C 48 % 5.28 C
3594 03-09-2009 23:12:04 16.1 C 48 % 5.1 C
3595 03-09-2009 23:24:04 16.2 C 49 % 5.49 C
3596 03-09-2009 23:36:04 16.2 C 50 % 5.78 C
3597 03-09-2009 23:48:05 16.2 C 50 % 5.78 C
3598 04-09-2009 00:00:05 16.1 C 49 % 5.39 C
3599 04-09-2009 00:12:05 16.1 C 49 % 5.39 C
3600 04-09-2009 00:24:05 16.1 C 48 % 5.1 C
Sensor: Nr:Datum:Temp:Feuchte:Taupunkt:
Aussen-T/F 3601 04-09-2009 00:36:05 16 C 48 % 5.01 C
3602 04-09-2009 00:48:05 15.9 C 49 % 5.21 C
3603 04-09-2009 01:00:05 15.8 C 50 % 5.41 C
3604 04-09-2009 01:12:05 15.7 C 51 % 5.6 C
3605 04-09-2009 01:24:05 15.6 C 52 % 5.79 C
3606 04-09-2009 01:36:05 15.6 C 53 % 6.06 C
3607 04-09-2009 01:48:05 15.6 C 54 % 6.34 C
3608 04-09-2009 02:00:05 15.5 C 55 % 6.51 C
3609 04-09-2009 02:12:05 15.4 C 56 % 6.68 C
3610 04-09-2009 02:24:05 15.2 C 58 % 7 C
3611 04-09-2009 02:36:05 15.1 C 58 % 6.91 C
3612 04-09-2009 02:48:05 15.1 C 59 % 7.16 C
3613 04-09-2009 03:00:05 15.1 C 59 % 7.16 C
3614 04-09-2009 03:12:05 15.1 C 59 % 7.16 C
3615 04-09-2009 03:24:05 15.1 C 59 % 7.16 C
3616 04-09-2009 03:36:05 15 C 60 % 7.31 C
3617 04-09-2009 03:48:06 15.1 C 61 % 7.64 C
3618 04-09-2009 04:00:06 15 C 61 % 7.55 C
3619 04-09-2009 04:12:06 15 C 61 % 7.55 C
3620 04-09-2009 04:24:06 15 C 62 % 7.79 C
3621 04-09-2009 04:36:06 15 C 62 % 7.79 C
3622 04-09-2009 04:48:06 14.9 C 62 % 7.69 C
3623 04-09-2009 05:00:06 14.8 C 61 % 7.36 C
3624 04-09-2009 05:12:06 14.8 C 61 % 7.36 C
3625 04-09-2009 05:24:06 14.6 C 62 % 7.41 C
Sensor: Nr:Datum:Temp:Feuchte:Taupunkt:
Aussen-T/F 3626 04-09-2009 05:36:06 14.5 C 62 % 7.32 C
3627 04-09-2009 05:48:06 14.3 C 63 % 7.36 C
3628 04-09-2009 06:00:06 14 C 64 % 7.31 C
3629 04-09-2009 06:12:06 13.8 C 64 % 7.12 C
3630 04-09-2009 06:24:06 13.7 C 63 % 6.79 C
3631 04-09-2009 06:36:04 13.6 C 64 % 6.93 C
3632 04-09-2009 06:48:02 13.7 C 64 % 7.02 C
3633 04-09-2009 07:00:02 13.7 C 64 % 7.02 C
3634 04-09-2009 07:12:03 13.8 C 64 % 7.12 C
3635 04-09-2009 07:24:02 13.7 C 64 % 7.02 C
3636 04-09-2009 07:36:01 13.4 C 64 % 6.74 C
3637 04-09-2009 07:48:02 13.3 C 64 % 6.64 C
3638 04-09-2009 08:00:02 13.2 C 64 % 6.55 C
3639 04-09-2009 08:12:01 13.3 C 64 % 6.64 C
3640 04-09-2009 08:24:02 13.5 C 63 % 6.6 C
3641 04-09-2009 08:36:01 13.8 C 61 % 6.42 C
3642 04-09-2009 08:48:01 13.9 C 61 % 6.51 C
3643 04-09-2009 09:00:01 13.8 C 61 % 6.42 C
3644 04-09-2009 09:12:01 13.9 C 61 % 6.51 C
3645 04-09-2009 09:24:01 14 C 59 % 6.12 C
3646 04-09-2009 09:36:01 14.2 C 59 % 6.31 C
3647 04-09-2009 09:48:02 14.4 C 58 % 6.25 C
3648 04-09-2009 10:00:02 14.7 C 55 % 5.76 C
3649 04-09-2009 10:12:03 15.2 C 53 % 5.69 C
3650 04-09-2009 10:24:02 15.5 C 51 % 5.42 C
Sensor: Nr:Datum:Temp:Feuchte:Taupunkt:
Aussen-T/F 3651 04-09-2009 10:36:02 16.5 C 47 % 5.16 C
3652 04-09-2009 10:48:01 17 C 46 % 5.31 C
3653 04-09-2009 11:00:01 17.2 C 46 % 5.49 C
3654 04-09-2009 11:12:01 17.5 C 46 % 5.76 C
3655 04-09-2009 11:24:01 17.7 C 45 % 5.63 C
3656 04-09-2009 11:36:01 18 C 42 % 4.91 C
3657 04-09-2009 11:48:01 17.8 C 43 % 5.07 C
3658 04-09-2009 12:00:01 17.6 C 45 % 5.54 C
3659 04-09-2009 12:12:01 17.7 C 45 % 5.63 C
3660 04-09-2009 12:24:02 17.7 C 45 % 5.63 C
3661 04-09-2009 12:36:01 17.6 C 46 % 5.86 C
3662 04-09-2009 12:48:02 17.3 C 46 % 5.58 C
3663 04-09-2009 13:00:02 16.8 C 50 % 6.33 C
3664 04-09-2009 13:12:02 16.2 C 56 % 7.42 C
3665 04-09-2009 13:24:03 15.6 C 64 % 8.82 C
3666 04-09-2009 13:36:02 15.8 C 67 % 9.69 C
3667 04-09-2009 13:48:02 15.5 C 68 % 9.63 C
3668 04-09-2009 14:00:02 14.3 C 75 % 9.93 C
3669 04-09-2009 14:12:02 14.1 C 80 % 10.71 C
3670 04-09-2009 14:24:02 14 C 83 % 11.16 C
3671 04-09-2009 14:36:02 13.8 C 85 % 11.32 C
3672 04-09-2009 14:48:02 13.8 C 87 % 11.68 C
3673 04-09-2009 15:00:02 13.7 C 88 % 11.75 C
3674 04-09-2009 15:12:01 13.8 C 89 % 12.02 C
3675 04-09-2009 15:24:02 13.8 C 90 % 12.19 C
Sensor: Nr:Datum:Temp:Feuchte:Taupunkt:
Aussen-T/F 3676 04-09-2009 15:36:02 14 C 90 % 12.39 C
3677 04-09-2009 15:48:01 14.1 C 90 % 12.49 C
3678 04-09-2009 16:00:02 14.5 C 90 % 12.88 C
3679 04-09-2009 16:12:01 14.9 C 90 % 13.28 C
3680 04-09-2009 16:24:01 15.5 C 89 % 13.7 C
3681 04-09-2009 16:36:02 15.8 C 82 % 12.74 C
3682 04-09-2009 16:48:02 15.6 C 79 % 11.97 C
3683 04-09-2009 17:00:02 16 C 78 % 12.17 C
3684 04-09-2009 17:12:02 15.7 C 80 % 12.26 C
3685 04-09-2009 17:24:02 15.1 C 79 % 11.49 C
3686 04-09-2009 17:36:02 14.4 C 84 % 11.73 C
3687 04-09-2009 17:48:02 14.2 C 85 % 11.72 C
3688 04-09-2009 18:00:02 14 C 85 % 11.52 C
3689 04-09-2009 18:12:02 14.2 C 86 % 11.89 C
3690 04-09-2009 18:24:02 14.5 C 87 % 12.36 C
3691 04-09-2009 18:36:02 14.2 C 86 % 11.89 C
3692 04-09-2009 18:48:02 14 C 81 % 10.79 C
3693 04-09-2009 19:00:02 14.1 C 82 % 11.08 C
3694 04-09-2009 19:12:03 14.6 C 79 % 11 C
3695 04-09-2009 19:24:02 15 C 71 % 9.79 C
3696 04-09-2009 19:36:02 14.5 C 68 % 8.67 C
3697 04-09-2009 19:48:01 13.9 C 65 % 7.44 C
3698 04-09-2009 20:00:01 13.3 C 71 % 8.16 C
3699 04-09-2009 20:12:02 12.7 C 73 % 7.99 C
3700 04-09-2009 20:24:02 12.3 C 76 % 8.2 C
Sensor: Nr:Datum:Temp:Feuchte:Taupunkt:
Aussen-T/F 3701 04-09-2009 20:36:01 11.9 C 79 % 8.38 C
3702 04-09-2009 20:48:01 12 C 75 % 7.71 C
3703 04-09-2009 21:00:01 12.3 C 72 % 7.4 C
3704 04-09-2009 21:12:01 12.5 C 71 % 7.39 C
3705 04-09-2009 21:24:02 12.5 C 70 % 7.18 C
3706 04-09-2009 21:36:01 12.4 C 71 % 7.3 C
3707 04-09-2009 21:49:02 12.5 C 71 % 7.39 C
3708 04-09-2009 22:01:02 12.4 C 71 % 7.3 C
3709 04-09-2009 22:13:02 12 C 72 % 7.12 C
3710 04-09-2009 22:25:02 11.8 C 75 % 7.52 C
3711 04-09-2009 22:37:02 11.9 C 75 % 7.62 C
3712 04-09-2009 22:49:02 11.9 C 76 % 7.81 C
3713 04-09-2009 23:01:02 11.9 C 76 % 7.81 C
3714 04-09-2009 23:13:02 12.1 C 74 % 7.61 C
3715 04-09-2009 23:25:02 12.5 C 71 % 7.39 C
3716 04-09-2009 23:37:02 12.4 C 69 % 6.88 C
3717 04-09-2009 23:49:02 12.5 C 69 % 6.97 C

Legende:
   Min
   Max


Maximal/Minimal-Werte vom 05.08.2009 - 04.09.2009

Sensor Min Max Avg
Temp
(Aussen-T/F)
8.5 °C
30-08-2009  06:55:01
34.7 °C
20-08-2009  15:22:33
21.04 °C
Feuchte
(Aussen-T/F)
20 %
05-08-2009  13:31:30
94 %
13-08-2009  06:39:57
54.28 %
Taupunkt
(Aussen-T/F)
-1.25 C
29-08-2009  15:54:02
18.64 C
10-08-2009  13:48:50
10.04 C

Die Daten stammen von einer Davis Vantage Pro 2 Wetter-Station und werden unter Linux mit der Software wview2wettercgi und aufbereitet. Alle Angaben erfolgen ohne Gewähr für ihre Vollständigkeit oder Richtigkeit.
Kontakt: Rainer Krienke krienke@uni-koblenz.de . Meine Webseiten an der Uni Koblenz oder privat.
Version: $Revision: 0.78 $